
Distance (Route):
Temperature : -8.1°C
Humidity : 1.8%
Pressure : 533.1hPa| Receiver | Frames | First received | Last received |
|---|---|---|---|
| OM5KV | 630 | 2026-09-01 11:34:09 | 2026-09-01 12:31:16 |
| PETON7-10 | 282 | 2026-09-01 11:39:23 | 2026-09-01 12:54:52 |
| ATIDSZ-14 | 66 | 2026-09-01 11:27:18 | 2026-09-01 11:58:14 |
| OE5DRO-10 | 57 | 2026-09-01 12:16:24 | 2026-09-01 12:49:50 |
| LZ4TU-5 | 32 | 2026-09-01 12:12:37 | 2026-09-01 12:50:02 |
| OE3JTB-15 | 19 | 2026-09-01 11:36:56 | 2026-09-01 12:59:59 |
| 9A1FER-3 | 9 | 2026-09-01 12:26:06 | 2026-09-01 12:33:34 |
| SQ9EZE-15 | 7 | 2026-09-01 12:16:54 | 2026-09-01 12:46:24 |
| OE5DXL-15 | 2 | 2026-09-01 12:43:15 | 2026-09-01 12:43:59 |
| Receiver | Date | Latitude | Longitude | Direction | Speed | Altitude | Climb | Temperature | Humidity | Pressure | Voltage | Killtimer | Uptime | BKT | XDATA |
|---|---|---|---|---|---|---|---|---|---|---|---|---|---|---|---|
| OE3JTB-15 | 2026-09-01 12:59:59 | 47.44313 | 20.10820 | 97° | 58km/h | 5365m | -18.0m/s | -8.1°C | 1.8% | 533.1hPa | 2.6V | 00:00:00 | 00:00:00 | 00:00:00 | |
| OE3JTB-15 | 2026-09-01 12:59:29 | 47.44405 | 20.10165 | 104° | 66km/h | 5942m | -20.2m/s | -11.1°C | 26.6% | 495.0hPa | 2.6V | 00:00:00 | 00:00:00 | 00:00:00 | |
| OE3JTB-15 | 2026-09-01 12:58:58 | 47.44452 | 20.09447 | 93° | 89km/h | 6507m | -19.0m/s | -15.2°C | 13.6% | 459.9hPa | 2.6V | 00:00:00 | 02:04:10 | 00:00:00 | |
| PETON7-10 | 2026-09-01 12:54:52 | 47.44422 | 20.02514 | 86° | 86km/h | 11607m | -20.8m/s | -56.9°C | 9.1% | 220.5hPa | 2.6V | 00:00:00 | 00:00:00 | 00:00:00 | |
| PETON7-10 | 2026-09-01 12:54:37 | 47.44383 | 20.02034 | 82° | 100km/h | 11919m | -21.3m/s | -59.0°C | 7.7% | 209.9hPa | 2.7V | 00:00:00 | 00:00:00 | 00:00:00 | |
| PETON7-10 | 2026-09-01 12:54:21 | 47.44341 | 20.01416 | 92° | 120km/h | 12269m | -22.5m/s | -58.5°C | 4.2% | 198.6hPa | 2.7V | 00:00:00 | 01:59:35 | 00:00:00 | |
| PETON7-10 | 2026-09-01 12:54:05 | 47.44349 | 20.00695 | 93° | 106km/h | 12634m | -23.1m/s | -54.9°C | 2.3% | 187.6hPa | 2.7V | 08:23:00 | 00:00:00 | 00:00:00 | |
| PETON7-10 | 2026-09-01 12:53:50 | 47.44375 | 20.00105 | 93° | 106km/h | 12981m | -23.5m/s | -55.9°C | 2.1% | 177.8hPa | 2.6V | 00:00:00 | 00:00:00 | 00:00:00 | |
| PETON7-10 | 2026-09-01 12:53:35 | 47.44393 | 19.99516 | 93° | 102km/h | 13336m | -24.2m/s | -56.1°C | 2.0% | 168.1hPa | 2.6V | 00:00:00 | 01:58:49 | 00:00:00 | |
| PETON7-10 | 2026-09-01 12:53:20 | 47.44409 | 19.98942 | 94° | 97km/h | 13696m | -24.3m/s | -56.4°C | 2.0% | 158.9hPa | 2.6V | 00:00:00 | 00:00:00 | 00:00:00 | |
| OE3JTB-15 | 2026-09-01 12:53:13 | 47.44420 | 19.98578 | 93° | 49km/h | 13938m | -24.2m/s | -56.4°C | 2.0% | 153.0hPa | 2.7V | 00:00:00 | 00:00:00 | 00:00:00 | |
| PETON7-10 | 2026-09-01 12:53:05 | 47.44417 | 19.98400 | 87° | 100km/h | 14061m | -25.1m/s | -56.5°C | 2.0% | 150.1hPa | 2.7V | 00:00:00 | 00:00:00 | 00:00:00 | |
| PETON7-10 | 2026-09-01 12:52:50 | 47.44390 | 19.97836 | 86° | 93km/h | 14437m | -25.1m/s | -55.5°C | 1.8% | 141.5hPa | 2.7V | 00:00:00 | 01:58:04 | 00:00:00 | |
| PETON7-10 | 2026-09-01 12:52:35 | 47.44379 | 19.97322 | 87° | 78km/h | 14873m | -29.5m/s | -55.1°C | 1.7% | 132.2hPa | 2.7V | 00:00:00 | 00:00:00 | 00:00:00 | |
| PETON7-10 | 2026-09-01 12:52:20 | 47.44343 | 19.96895 | 77° | 64km/h | 15331m | -33.2m/s | -52.9°C | 1.3% | 123.4hPa | 2.7V | 00:00:00 | 00:00:00 | 00:00:00 | |
| PETON7-10 | 2026-09-01 12:52:06 | 47.44273 | 19.96559 | 83° | 55km/h | 15778m | -27.2m/s | -54.4°C | 1.5% | 114.9hPa | 2.7V | 00:00:00 | 01:57:19 | 00:00:00 | |
| PETON7-10 | 2026-09-01 12:51:50 | 47.44255 | 19.96261 | 82° | 42km/h | 16193m | -28.7m/s | -54.4°C | 1.5% | 107.7hPa | 2.7V | 08:25:00 | 00:00:00 | 00:00:00 | |
| PETON7-10 | 2026-09-01 12:51:35 | 47.44223 | 19.96040 | 80° | 35km/h | 16626m | -28.6m/s | -56.4°C | 1.9% | 100.7hPa | 2.7V | 00:00:00 | 00:00:00 | 00:00:00 | |
| PETON7-10 | 2026-09-01 12:51:20 | 47.44213 | 19.95853 | 97° | 33km/h | 17076m | -31.5m/s | -55.1°C | 1.7% | 93.9hPa | 2.7V | 00:00:00 | 01:56:34 | 00:00:00 | |
| PETON7-10 | 2026-09-01 12:51:05 | 47.44230 | 19.95682 | 73° | 16km/h | 17615m | -37.6m/s | -52.8°C | 1.3% | 86.6hPa | 2.7V | 00:00:00 | 00:00:00 | 00:00:00 | |
| PETON7-10 | 2026-09-01 12:50:50 | 47.44182 | 19.95625 | 46° | 31km/h | 18202m | -37.7m/s | -55.2°C | 1.7% | 79.1hPa | 2.6V | 00:00:00 | 00:00:00 | 00:00:00 | |
| PETON7-10 | 2026-09-01 12:50:35 | 47.44125 | 19.95474 | 88° | 16km/h | 18764m | -36.9m/s | -54.1°C | 1.6% | 72.3hPa | 2.6V | 00:00:00 | 01:55:49 | 00:00:00 | |
| PETON7-10 | 2026-09-01 12:50:20 | 47.44112 | 19.95394 | 50° | 20km/h | 19321m | -37.6m/s | -52.7°C | 1.4% | 66.4hPa | 2.6V | 00:00:00 | 00:00:00 | 00:00:00 | |
| PETON7-10 | 2026-09-01 12:50:05 | 47.44053 | 19.95325 | 49° | 22km/h | 19906m | -41.7m/s | -53.1°C | 1.5% | 60.7hPa | 2.7V | 00:00:00 | 00:00:00 | 00:00:00 | |
| LZ4TU-5 | 2026-09-01 12:50:02 | 47.44041 | 19.95306 | 51° | 22km/h | 20031m | -41.7m/s | -53.2°C | 0% | 0hPa | 2.7V | 00:00:00 | 00:00:00 | 00:00:00 | |
| LZ4TU-5 | 2026-09-01 12:49:58 | 47.44025 | 19.95278 | 64° | 24km/h | 20203m | -45.7m/s | -54.1°C | 0% | 0hPa | 2.7V | 00:00:00 | 00:00:00 | 00:00:00 | |
| OE5DRO-10 | 2026-09-01 12:49:50 | 47.44013 | 19.95224 | 79° | 16km/h | 20645m | -59.1m/s | -52.7°C | 1.5% | 54.8hPa | 2.7V | 00:00:00 | 00:00:00 | 00:00:00 | |
| PETON7-10 | 2026-09-01 12:49:49 | 47.44012 | 19.95218 | 72° | 16km/h | 20704m | -59.0m/s | -52.7°C | 1.5% | 53.9hPa | 2.7V | 00:00:00 | 01:55:03 | 00:00:00 | |
| PETON7-10 | 2026-09-01 12:49:34 | 47.43978 | 19.95146 | 24° | 11km/h | 21617m | -62.1m/s | -52.3°C | 1.4% | 47.3hPa | 2.7V | 08:27:00 | 00:00:00 | 00:00:00 | |
| OE5DRO-10 | 2026-09-01 12:49:31 | 47.43967 | 19.95136 | 34° | 15km/h | 21804m | -63.3m/s | -52.2°C | 1.4% | 45.9hPa | 2.6V | 00:00:00 | 00:00:00 | 00:00:00 | |
| PETON7-10 | 2026-09-01 12:49:19 | 47.43961 | 19.95107 | 315° | 5km/h | 22590m | -68.6m/s | -51.0°C | 1.3% | 40.8hPa | 2.6V | 00:00:00 | 00:00:00 | 00:00:00 | |
| OE5DRO-10 | 2026-09-01 12:49:12 | 47.43948 | 19.95108 | 31° | 5km/h | 23063m | -67.8m/s | -51.3°C | 1.3% | 37.9hPa | 2.6V | 00:00:00 | 00:00:00 | 00:00:00 | |
| PETON7-10 | 2026-09-01 12:49:04 | 47.43942 | 19.95111 | 146° | 2km/h | 23606m | -67.6m/s | -51.5°C | 1.4% | 35.0hPa | 2.7V | 00:00:00 | 01:54:18 | 00:00:00 | |
| PETON7-10 | 2026-09-01 12:48:49 | 47.43936 | 19.95106 | 302° | 5km/h | 24510m | -58.5m/s | -49.6°C | 1.2% | 30.2hPa | 2.7V | 00:00:00 | 00:00:00 | 00:00:00 | |
| OE5DRO-10 | 2026-09-01 12:48:36 | 47.43919 | 19.95115 | 36° | 5km/h | 25436m | -72.2m/s | -48.0°C | 1.0% | 26.4hPa | 2.6V | 00:00:00 | 00:00:00 | 00:00:00 | |
| PETON7-10 | 2026-09-01 12:48:34 | 47.43917 | 19.95113 | 39° | 5km/h | 25508m | -72.3m/s | -47.7°C | 1.0% | 26.2hPa | 2.6V | 00:00:00 | 00:00:00 | 00:00:00 | |
| PETON7-10 | 2026-09-01 12:48:20 | 47.43905 | 19.95092 | 24° | 11km/h | 26675m | -78.3m/s | -45.8°C | 0.8% | 22.1hPa | 2.6V | 00:00:00 | 01:53:33 | 00:00:00 | |
| OE5DRO-10 | 2026-09-01 12:48:16 | 47.43899 | 19.95090 | 28° | 13km/h | 26911m | -77.8m/s | -45.4°C | 0.8% | 21.3hPa | 2.6V | 00:00:00 | 00:00:00 | 00:00:00 | |
| PETON7-10 | 2026-09-01 12:48:04 | 47.43894 | 19.95043 | 99° | 16km/h | 27858m | -79.3m/s | -43.9°C | 0.7% | 18.6hPa | 2.6V | 00:00:00 | 00:00:00 | 00:00:00 | |
| LZ4TU-5 | 2026-09-01 12:47:50 | 47.43891 | 19.94962 | 82° | 18km/h | 28900m | -81.0m/s | -41.6°C | 0% | 0hPa | 2.7V | 08:29:00 | 00:00:00 | 00:00:00 | |
| PETON7-10 | 2026-09-01 12:47:49 | 47.43890 | 19.94950 | 81° | 11km/h | 29064m | -83.6m/s | -41.2°C | 0.5% | 15.6hPa | 2.7V | 00:00:00 | 00:00:00 | 00:00:00 | |
| LZ4TU-5 | 2026-09-01 12:47:45 | 47.43888 | 19.94936 | 63° | 11km/h | 29321m | -89.1m/s | -40.2°C | 0% | 0hPa | 2.7V | 00:00:00 | 00:00:00 | 00:00:00 | |
| OE5DRO-10 | 2026-09-01 12:47:38 | 47.43875 | 19.94903 | 66° | 7km/h | 30173m | -94.6m/s | -39.3°C | 0.3% | 13.4hPa | 2.7V | 00:00:00 | 00:00:00 | 00:00:00 | |
| PETON7-10 | 2026-09-01 12:47:34 | 47.43871 | 19.94894 | 71° | 7km/h | 30452m | -91.7m/s | -39.2°C | 0.4% | 12.8hPa | 2.7V | 00:00:00 | 01:52:48 | 00:00:00 | |
| PETON7-10 | 2026-09-01 12:47:19 | 47.43865 | 19.94865 | 357° | 27km/h | 31750m | -77.6m/s | -37.3°C | 0.3% | 10.5hPa | 2.7V | 00:00:00 | 00:00:00 | 08:30:00 | |
| OE5DRO-10 | 2026-09-01 12:47:18 | 47.43861 | 19.94866 | 1° | 31km/h | 31828m | -77.2m/s | -37.3°C | 0.2% | 10.3hPa | 2.7V | 00:00:00 | 00:00:00 | 00:00:00 | |
| OE3JTB-15 | 2026-09-01 12:47:15 | 47.43833 | 19.94859 | 14° | 24km/h | 32206m | -71.5m/s | -37.1°C | 0.2% | 9.7hPa | 2.7V | 00:00:00 | 00:00:00 | 00:00:00 | |
| PETON7-10 | 2026-09-01 12:47:04 | 47.43762 | 19.94843 | 358° | 35km/h | 32849m | -59.4m/s | -36.3°C | 0.2% | 8.8hPa | 2.7V | 00:00:00 | 00:00:00 | 00:00:00 | |
| OE5DRO-10 | 2026-09-01 12:46:58 | 47.43691 | 19.94851 | 352° | 22km/h | 33070m | -15.5m/s | -36.4°C | 0.3% | 8.4hPa | 2.7V | 00:00:00 | 00:00:00 | 08:30:00 | |
| PETON7-10 | 2026-09-01 12:46:49 | 47.43640 | 19.94867 | 340° | 20km/h | 33037m | 8.2m/s | -36.8°C | 0.2% | 8.4hPa | 2.7V | 00:00:00 | 01:52:03 | 00:00:00 | |
| OE3JTB-15 | 2026-09-01 12:46:40 | 47.43592 | 19.94862 | 346° | 37km/h | 32963m | 6.3m/s | -36.8°C | 0.2% | 8.5hPa | 2.7V | 00:00:00 | 01:51:53 | 00:00:00 | |
| OE5DRO-10 | 2026-09-01 12:46:37 | 47.43584 | 19.94862 | 8° | 15km/h | 32946m | 9.6m/s | -36.6°C | 0.2% | 8.5hPa | 2.7V | 00:00:00 | 00:00:00 | 00:00:00 | |
| PETON7-10 | 2026-09-01 12:46:34 | 47.43573 | 19.94860 | 354° | 15km/h | 32924m | 9.1m/s | -36.8°C | 0.3% | 8.5hPa | 2.7V | 00:00:00 | 00:00:00 | 00:00:00 | |
| SQ9EZE-15 | 2026-09-01 12:46:24 | 47.43555 | 19.94831 | 6° | 18km/h | 32846m | 6.0m/s | 0°C | 0% | 0hPa | 2.6V | 00:00:00 | 00:00:00 | 00:00:00 | |
| OE5DRO-10 | 2026-09-01 12:46:19 | 47.43532 | 19.94814 | 42° | 22km/h | 32799m | 9.6m/s | -37.0°C | 0.3% | 8.7hPa | 2.6V | 00:00:00 | 00:00:00 | 00:00:00 | |
| PETON7-10 | 2026-09-01 12:46:05 | 47.43473 | 19.94738 | 46° | 29km/h | 32692m | 7.5m/s | -36.6°C | 0.2% | 8.8hPa | 2.6V | 00:00:00 | 01:51:18 | 00:00:00 | |
| OE5DRO-10 | 2026-09-01 12:45:59 | 47.43447 | 19.94713 | 36° | 29km/h | 32654m | 8.8m/s | -36.7°C | 0.2% | 8.8hPa | 2.6V | 00:00:00 | 00:00:00 | 00:00:00 | |
| PETON7-10 | 2026-09-01 12:45:49 | 47.43377 | 19.94674 | 22° | 29km/h | 32578m | 5.9m/s | -36.4°C | 0.2% | 8.9hPa | 2.6V | 00:00:00 | 00:00:00 | 00:00:00 | |
| LZ4TU-5 | 2026-09-01 12:45:43 | 47.43347 | 19.94653 | 47° | 24km/h | 32541m | 6.7m/s | -36.4°C | 0% | 0hPa | 2.6V | 00:00:00 | 00:00:00 | 00:00:00 | |
| OE5DRO-10 | 2026-09-01 12:45:40 | 47.43321 | 19.94636 | 358° | 29km/h | 32512m | 8.2m/s | -36.6°C | 0.2% | 9.0hPa | 2.6V | 00:00:00 | 00:00:00 | 00:00:00 | |
| LZ4TU-5 | 2026-09-01 12:45:38 | 47.43312 | 19.94637 | 349° | 31km/h | 32503m | 9.2m/s | -36.7°C | 0% | 0hPa | 2.6V | 00:00:00 | 00:00:00 | 00:00:00 | |
| PETON7-10 | 2026-09-01 12:45:34 | 47.43276 | 19.94637 | 19° | 29km/h | 32466m | 5.7m/s | -36.7°C | 0.3% | 9.1hPa | 2.6V | 00:00:00 | 00:00:00 | 00:00:00 | |
| OE5DRO-10 | 2026-09-01 12:45:20 | 47.43171 | 19.94606 | 50° | 9km/h | 32354m | 10.0m/s | -37.6°C | 0.3% | 9.2hPa | 2.6V | 00:00:00 | 00:00:00 | 00:00:00 | |
| PETON7-10 | 2026-09-01 12:45:19 | 47.43171 | 19.94606 | 50° | 15km/h | 32354m | 10.0m/s | -37.6°C | 0.3% | 9.2hPa | 2.6V | 00:00:00 | 01:50:33 | 00:00:00 | |
| PETON7-10 | 2026-09-01 12:45:04 | 47.43141 | 19.94566 | 112° | 11km/h | 32242m | 9.2m/s | -38.7°C | 0.4% | 9.4hPa | 2.6V | 00:00:00 | 00:00:00 | 08:30:00 | |
| PETON7-10 | 2026-09-01 12:44:49 | 47.43145 | 19.94537 | 58° | 11km/h | 32132m | 8.6m/s | -38.3°C | 0.3% | 9.6hPa | 2.7V | 00:00:00 | 00:00:00 | 00:00:00 | |
| OE5DRO-10 | 2026-09-01 12:44:42 | 47.43138 | 19.94546 | 320° | 20km/h | 32081m | 8.3m/s | -38.2°C | 0.3% | 9.6hPa | 2.7V | 00:00:00 | 00:00:00 | 00:00:00 | |
| PETON7-10 | 2026-09-01 12:44:34 | 47.43117 | 19.94552 | 36° | 24km/h | 32024m | 9.0m/s | -39.1°C | 0.4% | 9.7hPa | 2.6V | 00:00:00 | 01:49:48 | 00:00:00 | |
| OE5DRO-10 | 2026-09-01 12:44:22 | 47.43066 | 19.94632 | 287° | 16km/h | 31942m | 9.5m/s | -39.1°C | 0.4% | 9.8hPa | 2.6V | 00:00:00 | 00:00:00 | 00:00:00 | |
| SQ9EZE-15 | 2026-09-01 12:44:21 | 47.43066 | 19.94632 | 287° | 13km/h | 31942m | 9.5m/s | 0°C | 0% | 0hPa | 2.6V | 00:00:00 | 00:00:00 | 00:00:00 | |
| PETON7-10 | 2026-09-01 12:44:19 | 47.43068 | 19.94640 | 231° | 18km/h | 31920m | 8.4m/s | -39.3°C | 0.4% | 9.8hPa | 2.6V | 00:00:00 | 00:00:00 | 00:00:00 | |
| PETON7-10 | 2026-09-01 12:44:04 | 47.43061 | 19.94732 | 207° | 13km/h | 31815m | 8.7m/s | -39.3°C | 0.4% | 10.0hPa | 2.7V | 00:00:00 | 00:00:00 | 00:00:00 | |
| OE5DRO-10 | 2026-09-01 12:44:03 | 47.43062 | 19.94732 | 306° | 16km/h | 31807m | 7.3m/s | -39.2°C | 0.4% | 10.0hPa | 2.7V | 00:00:00 | 00:00:00 | 00:00:00 | |
| OE5DXL-15 | 2026-09-01 12:43:59 | 47.43065 | 19.94756 | 258° | 24km/h | 31769m | 7.2m/s | 0°C | 0% | 0hPa | 2.7V | 00:00:00 | 01:49:11 | 00:00:00 | |
| PETON7-10 | 2026-09-01 12:43:49 | 47.43090 | 19.94783 | 172° | 20km/h | 31712m | 8.8m/s | -38.8°C | 0.4% | 10.1hPa | 2.7V | 00:00:00 | 01:49:03 | 00:00:00 | |
| OE5DRO-10 | 2026-09-01 12:43:44 | 47.43122 | 19.94775 | 204° | 16km/h | 31670m | 5.1m/s | -39.2°C | 0.4% | 10.2hPa | 2.7V | 00:00:00 | 00:00:00 | 08:30:00 | |
| PETON7-10 | 2026-09-01 12:43:34 | 47.43161 | 19.94793 | 186° | 26km/h | 31611m | 7.1m/s | -38.6°C | 0.4% | 10.3hPa | 2.6V | 00:00:00 | 00:00:00 | 00:00:00 | |
| PETON7-10 | 2026-09-01 12:43:19 | 47.43245 | 19.94743 | 177° | 33km/h | 31508m | 7.8m/s | -38.9°C | 0.4% | 10.4hPa | 2.7V | 00:00:00 | 00:00:00 | 00:00:00 | |
| OE5DXL-15 | 2026-09-01 12:43:15 | 47.43275 | 19.94722 | 125° | 29km/h | 31466m | 5.5m/s | 0°C | 0% | 0hPa | 2.7V | 00:00:00 | 00:00:00 | 00:00:00 | |
| OE5DRO-10 | 2026-09-01 12:43:14 | 47.43275 | 19.94722 | 125° | 31km/h | 31466m | 5.5m/s | -39.3°C | 0.4% | 10.5hPa | 2.7V | 00:00:00 | 00:00:00 | 00:00:00 | |
| PETON7-10 | 2026-09-01 12:43:04 | 47.43323 | 19.94624 | 174° | 33km/h | 31406m | 6.1m/s | -39.0°C | 0.4% | 10.6hPa | 2.7V | 00:00:00 | 01:48:18 | 00:00:00 | |
| LZ4TU-5 | 2026-09-01 12:42:54 | 47.43348 | 19.94519 | 100° | 49km/h | 31341m | 5.2m/s | -39.7°C | 0% | 0hPa | 2.7V | 00:00:00 | 00:00:00 | 00:00:00 | |
| PETON7-10 | 2026-09-01 12:42:49 | 47.43371 | 19.94462 | 145° | 24km/h | 31301m | 8.2m/s | -39.4°C | 0.4% | 10.8hPa | 2.7V | 00:00:00 | 00:00:00 | 08:30:00 | |
| OE5DRO-10 | 2026-09-01 12:42:40 | 47.43386 | 19.94364 | 90° | 24km/h | 31232m | 5.1m/s | -39.4°C | 0.4% | 10.9hPa | 2.7V | 00:00:00 | 00:00:00 | 00:00:00 | |
| PETON7-10 | 2026-09-01 12:42:34 | 47.43392 | 19.94333 | 98° | 24km/h | 31197m | 7.7m/s | -39.5°C | 0.4% | 10.9hPa | 2.7V | 00:00:00 | 00:00:00 | 00:00:00 | |
| OE5DRO-10 | 2026-09-01 12:42:21 | 47.43384 | 19.94221 | 91° | 18km/h | 31108m | 5.7m/s | -39.9°C | 0.4% | 11.1hPa | 2.7V | 00:00:00 | 00:00:00 | 00:00:00 | |
| PETON7-10 | 2026-09-01 12:42:19 | 47.43384 | 19.94205 | 84° | 20km/h | 31094m | 9.0m/s | -40.1°C | 0.5% | 11.1hPa | 2.7V | 00:00:00 | 01:47:33 | 00:00:00 | |
| PETON7-10 | 2026-09-01 12:42:04 | 47.43359 | 19.94110 | 35° | 16km/h | 30986m | 8.6m/s | -39.8°C | 0.4% | 11.2hPa | 2.7V | 00:00:00 | 00:00:00 | 00:00:00 | |
| OE5DRO-10 | 2026-09-01 12:42:02 | 47.43353 | 19.94101 | 61° | 18km/h | 30972m | 5.7m/s | -40.1°C | 0.5% | 11.3hPa | 2.6V | 00:00:00 | 00:00:00 | 00:00:00 | |
| PETON7-10 | 2026-09-01 12:41:49 | 47.43346 | 19.94058 | 342° | 16km/h | 30877m | 6.9m/s | -39.9°C | 0.4% | 11.4hPa | 2.6V | 00:00:00 | 00:00:00 | 00:00:00 | |
| OE5DRO-10 | 2026-09-01 12:41:43 | 47.43347 | 19.94011 | 118° | 13km/h | 30834m | 5.7m/s | -40.6°C | 0.5% | 11.5hPa | 2.6V | 00:00:00 | 00:00:00 | 00:00:00 | |
| PETON7-10 | 2026-09-01 12:41:34 | 47.43337 | 19.94014 | 342° | 13km/h | 30770m | 8.3m/s | -41.2°C | 0.5% | 11.6hPa | 2.6V | 00:00:00 | 01:46:48 | 00:00:00 | |
| OE5DRO-10 | 2026-09-01 12:41:24 | 47.43321 | 19.93991 | 339° | 13km/h | 30699m | 6.6m/s | -41.7°C | 0.5% | 11.7hPa | 2.6V | 00:00:00 | 00:00:00 | 00:00:00 | |
| PETON7-10 | 2026-09-01 12:41:19 | 47.43310 | 19.94005 | 360° | 11km/h | 30662m | 8.5m/s | -41.9°C | 0.6% | 11.8hPa | 2.6V | 00:00:00 | 00:00:00 | 00:00:00 | |
| PETON7-10 | 2026-09-01 12:41:04 | 47.43290 | 19.93989 | 22° | 15km/h | 30555m | 9.1m/s | -42.1°C | 0.6% | 12.0hPa | 2.7V | 00:00:00 | 00:00:00 | 00:00:00 | |
| OE5DRO-10 | 2026-09-01 12:40:56 | 47.43263 | 19.93966 | 38° | 15km/h | 30497m | 8.2m/s | -42.2°C | 0.6% | 12.1hPa | 2.7V | 00:00:00 | 00:00:00 | 00:00:00 | |
| PETON7-10 | 2026-09-01 12:40:49 | 47.43241 | 19.93962 | 1° | 15km/h | 30448m | 9.1m/s | -42.1°C | 0.6% | 12.2hPa | 2.7V | 00:00:00 | 01:46:03 | 00:00:00 | |
| LZ4TU-5 | 2026-09-01 12:40:40 | 47.43211 | 19.93946 | 357° | 22km/h | 30382m | 6.0m/s | -42.2°C | 0% | 0hPa | 2.7V | 00:00:00 | 00:00:00 | 00:00:00 | |
| OE5DRO-10 | 2026-09-01 12:40:37 | 47.43196 | 19.93954 | 326° | 13km/h | 30354m | 6.3m/s | -42.1°C | 0.6% | 12.3hPa | 2.7V | 00:00:00 | 00:00:00 | 00:00:00 | |
| PETON7-10 | 2026-09-01 12:40:34 | 47.43190 | 19.93958 | 355° | 13km/h | 30338m | 7.1m/s | -42.0°C | 0.6% | 12.4hPa | 2.7V | 00:00:00 | 00:00:00 | 08:30:00 | |
| PETON7-10 | 2026-09-01 12:40:19 | 47.43156 | 19.93918 | 62° | 15km/h | 30229m | 7.3m/s | -42.0°C | 0.6% | 12.6hPa | 2.6V | 00:00:00 | 00:00:00 | 00:00:00 | |
| OE5DRO-10 | 2026-09-01 12:40:18 | 47.43154 | 19.93912 | 58° | 13km/h | 30222m | 6.2m/s | -42.0°C | 0.6% | 12.6hPa | 2.6V | 00:00:00 | 00:00:00 | 08:30:00 | |
| PETON7-10 | 2026-09-01 12:40:04 | 47.43121 | 19.93862 | 353° | 20km/h | 30121m | 5.6m/s | -42.0°C | 0.6% | 12.8hPa | 2.6V | 00:00:00 | 01:45:18 | 00:00:00 | |
| OE5DRO-10 | 2026-09-01 12:39:59 | 47.43117 | 19.93848 | 100° | 24km/h | 30087m | 6.6m/s | -42.2°C | 0.6% | 12.8hPa | 2.6V | 00:00:00 | 00:00:00 | 00:00:00 | |
| PETON7-10 | 2026-09-01 12:39:49 | 47.43095 | 19.93776 | 30° | 22km/h | 30013m | 6.2m/s | -41.8°C | 0.6% | 13.0hPa | 2.6V | 00:00:00 | 00:00:00 | 00:00:00 | |
| SQ9EZE-15 | 2026-09-01 12:39:38 | 47.43079 | 19.93692 | 61° | 20km/h | 29942m | 7.7m/s | 0°C | 0% | 0hPa | 2.7V | 00:00:00 | 00:00:00 | 00:00:00 | |
| PETON7-10 | 2026-09-01 12:39:34 | 47.43070 | 19.93662 | 63° | 27km/h | 29905m | 6.5m/s | -42.0°C | 0.6% | 13.2hPa | 2.7V | 00:00:00 | 00:00:00 | 00:00:00 | |
| PETON7-10 | 2026-09-01 12:39:19 | 47.43014 | 19.93548 | 24° | 16km/h | 29802m | 6.9m/s | -42.2°C | 0.6% | 13.4hPa | 2.7V | 00:00:00 | 01:44:33 | 00:00:00 | |
| PETON7-10 | 2026-09-01 12:39:04 | 47.42967 | 19.93488 | 15° | 11km/h | 29697m | 5.9m/s | -42.7°C | 0.6% | 13.6hPa | 2.7V | 00:00:00 | 00:00:00 | 00:00:00 | |
| OE5DRO-10 | 2026-09-01 12:38:57 | 47.42946 | 19.93482 | 41° | 13km/h | 29644m | 5.1m/s | -42.9°C | 0.7% | 13.7hPa | 2.6V | 00:00:00 | 00:00:00 | 00:00:00 | |
| PETON7-10 | 2026-09-01 12:38:49 | 47.42929 | 19.93482 | 340° | 13km/h | 29588m | 5.6m/s | -43.1°C | 0.6% | 13.8hPa | 2.6V | 00:00:00 | 00:00:00 | 00:00:00 | |
| PETON7-10 | 2026-09-01 12:38:34 | 47.42913 | 19.93422 | 116° | 24km/h | 29482m | 7.4m/s | -43.5°C | 0.7% | 14.0hPa | 2.6V | 00:00:00 | 01:43:48 | 00:00:00 | |
| PETON7-10 | 2026-09-01 12:38:19 | 47.42952 | 19.93320 | 166° | 22km/h | 29375m | 8.5m/s | -43.7°C | 0.7% | 14.2hPa | 2.6V | 00:00:00 | 00:00:00 | 08:30:00 | |
| OE5DRO-10 | 2026-09-01 12:38:17 | 47.42960 | 19.93311 | 129° | 22km/h | 29362m | 5.8m/s | -43.6°C | 0.7% | 14.3hPa | 2.7V | 00:00:00 | 00:00:00 | 00:00:00 | |
| LZ4TU-5 | 2026-09-01 12:38:16 | 47.42964 | 19.93304 | 125° | 26km/h | 29355m | 8.6m/s | -43.6°C | 0% | 0hPa | 2.7V | 00:00:00 | 00:00:00 | 00:00:00 | |
| PETON7-10 | 2026-09-01 12:38:04 | 47.42990 | 19.93220 | 113° | 20km/h | 29270m | 5.2m/s | -44.0°C | 0.8% | 14.5hPa | 2.7V | 00:00:00 | 00:00:00 | 00:00:00 | |
| OE5DRO-10 | 2026-09-01 12:37:58 | 47.42999 | 19.93169 | 84° | 16km/h | 29227m | 10.3m/s | -43.8°C | 0.8% | 14.5hPa | 2.7V | 00:00:00 | 00:00:00 | 00:00:00 | |
| PETON7-10 | 2026-09-01 12:37:49 | 47.42999 | 19.93114 | 107° | 18km/h | 29165m | 5.5m/s | -44.2°C | 0.7% | 14.7hPa | 2.7V | 00:00:00 | 01:43:03 | 00:00:00 | |
| SQ9EZE-15 | 2026-09-01 12:37:39 | 47.42991 | 19.93057 | 66° | 9km/h | 29104m | 7.7m/s | 0°C | 0% | 0hPa | 2.7V | 00:00:00 | 00:00:00 | 00:00:00 | |
| OE5DRO-10 | 2026-09-01 12:37:37 | 47.42994 | 19.93043 | 110° | 24km/h | 29082m | 8.6m/s | -44.2°C | 0.8% | 14.8hPa | 2.7V | 00:00:00 | 00:00:00 | 00:00:00 | |
| PETON7-10 | 2026-09-01 12:37:34 | 47.42998 | 19.93017 | 102° | 24km/h | 29063m | 6.5m/s | -44.3°C | 0.8% | 14.9hPa | 2.7V | 00:00:00 | 00:00:00 | 00:00:00 | |
| PETON7-10 | 2026-09-01 12:37:19 | 47.42980 | 19.92893 | 66° | 18km/h | 28961m | 8.4m/s | -44.4°C | 0.8% | 15.1hPa | 2.7V | 00:00:00 | 00:00:00 | 00:00:00 | |
| OE5DRO-10 | 2026-09-01 12:37:18 | 47.42979 | 19.92889 | 59° | 18km/h | 28954m | 5.1m/s | -44.2°C | 0.7% | 15.1hPa | 2.7V | 00:00:00 | 00:00:00 | 08:30:00 | |
| PETON7-10 | 2026-09-01 12:37:04 | 47.42972 | 19.92799 | 114° | 15km/h | 28859m | 6.6m/s | -44.4°C | 0.8% | 15.3hPa | 2.7V | 00:00:00 | 01:42:18 | 00:00:00 | |
| OE5DRO-10 | 2026-09-01 12:36:59 | 47.42965 | 19.92769 | 98° | 9km/h | 28809m | 6.2m/s | -44.5°C | 0.8% | 15.5hPa | 2.7V | 00:00:00 | 00:00:00 | 00:00:00 | |
| PETON7-10 | 2026-09-01 12:36:49 | 47.42970 | 19.92723 | 109° | 9km/h | 28755m | 6.0m/s | -44.6°C | 0.8% | 15.6hPa | 2.7V | 00:00:00 | 00:00:00 | 00:00:00 | |
| PETON7-10 | 2026-09-01 12:36:34 | 47.42970 | 19.92686 | 67° | 16km/h | 28650m | 8.5m/s | -44.2°C | 0.8% | 15.8hPa | 2.6V | 00:00:00 | 00:00:00 | 00:00:00 | |
| PETON7-10 | 2026-09-01 12:36:19 | 47.42962 | 19.92606 | 68° | 18km/h | 28546m | 6.3m/s | -44.5°C | 0.8% | 16.1hPa | 2.6V | 00:00:00 | 01:41:33 | 00:00:00 | |
| LZ4TU-5 | 2026-09-01 12:36:17 | 47.42961 | 19.92598 | 82° | 22km/h | 28539m | 8.4m/s | -44.7°C | 0% | 0hPa | 2.6V | 00:00:00 | 00:00:00 | 00:00:00 | |
| LZ4TU-5 | 2026-09-01 12:36:13 | 47.42968 | 19.92563 | 108° | 20km/h | 28502m | 7.0m/s | -45.0°C | 0% | 0hPa | 2.6V | 00:00:00 | 00:00:00 | 00:00:00 | |
| PETON7-10 | 2026-09-01 12:36:04 | 47.42964 | 19.92506 | 92° | 18km/h | 28444m | 6.6m/s | -45.4°C | 0.9% | 16.3hPa | 2.6V | 00:00:00 | 00:00:00 | 08:30:00 | |
| OE5DRO-10 | 2026-09-01 12:35:58 | 47.42977 | 19.92445 | 119° | 15km/h | 28385m | 8.0m/s | -45.6°C | 0.9% | 16.5hPa | 2.7V | 00:00:00 | 00:00:00 | 00:00:00 | |
| PETON7-10 | 2026-09-01 12:35:49 | 47.42971 | 19.92400 | 90° | 16km/h | 28341m | 8.8m/s | -45.8°C | 0.9% | 16.6hPa | 2.6V | 00:00:00 | 00:00:00 | 00:00:00 | |
| OE5DRO-10 | 2026-09-01 12:35:37 | 47.42993 | 19.92334 | 102° | 18km/h | 28260m | 6.5m/s | -46.3°C | 0.9% | 16.8hPa | 2.6V | 00:00:00 | 00:00:00 | 00:00:00 | |
| PETON7-10 | 2026-09-01 12:35:34 | 47.42997 | 19.92316 | 123° | 18km/h | 28238m | 5.7m/s | -46.2°C | 0.9% | 16.8hPa | 2.6V | 00:00:00 | 01:40:48 | 00:00:00 | |
| PETON7-10 | 2026-09-01 12:35:19 | 47.43034 | 19.92236 | 119° | 22km/h | 28138m | 6.6m/s | -46.2°C | 0.9% | 17.1hPa | 2.6V | 00:00:00 | 00:00:00 | 00:00:00 | |
| OE5DRO-10 | 2026-09-01 12:35:18 | 47.43037 | 19.92227 | 121° | 18km/h | 28130m | 8.2m/s | -46.3°C | 0.9% | 17.1hPa | 2.6V | 00:00:00 | 00:00:00 | 00:00:00 | |
| PETON7-10 | 2026-09-01 12:35:04 | 47.43083 | 19.92144 | 98° | 22km/h | 28036m | 8.3m/s | -45.8°C | 0.9% | 17.4hPa | 2.6V | 00:00:00 | 00:00:00 | 00:00:00 | |
| OE5DRO-10 | 2026-09-01 12:34:53 | 47.43105 | 19.92078 | 87° | 20km/h | 27963m | 8.4m/s | -46.5°C | 1.0% | 17.5hPa | 2.6V | 00:00:00 | 00:00:00 | 00:00:00 | |
| PETON7-10 | 2026-09-01 12:34:49 | 47.43101 | 19.92040 | 71° | 20km/h | 27935m | 7.3m/s | -46.6°C | 0.9% | 17.6hPa | 2.7V | 00:00:00 | 01:40:03 | 00:00:00 | |
| PETON7-10 | 2026-09-01 12:34:34 | 47.43087 | 19.91929 | 76° | 18km/h | 27831m | 7.1m/s | -46.8°C | 1.0% | 17.9hPa | 2.7V | 00:00:00 | 00:00:00 | 00:00:00 | |
| PETON7-10 | 2026-09-01 12:34:19 | 47.43064 | 19.91838 | 77° | 11km/h | 27727m | 5.8m/s | -46.7°C | 0.9% | 18.2hPa | 2.6V | 00:00:00 | 00:00:00 | 00:00:00 | |
| LZ4TU-5 | 2026-09-01 12:34:15 | 47.43062 | 19.91826 | 0° | 0km/h | 27699m | 7.9m/s | 0°C | 0% | 0hPa | 2.6V | 00:00:00 | 00:00:00 | 00:00:00 | |
| PETON7-10 | 2026-09-01 12:34:04 | 47.43037 | 19.91797 | 23° | 5km/h | 27620m | 6.5m/s | -47.2°C | 1.0% | 18.5hPa | 2.6V | 00:00:00 | 01:39:18 | 00:00:00 | |
| PETON7-10 | 2026-09-01 12:33:49 | 47.43027 | 19.91787 | 263° | 5km/h | 27516m | 8.1m/s | -47.9°C | 1.1% | 18.8hPa | 2.6V | 00:00:00 | 00:00:00 | 08:30:00 | |
| 9A1FER-3 | 2026-09-01 12:33:34 | 47.43026 | 19.91779 | 126° | 11km/h | 27412m | 7.0m/s | 0°C | 0% | 0hPa | 2.6V | 00:00:00 | 01:38:48 | 00:00:00 | |
| PETON7-10 | 2026-09-01 12:33:18 | 47.42995 | 19.91739 | 357° | 18km/h | 27301m | 6.4m/s | -47.6°C | 1.1% | 19.4hPa | 2.6V | 00:00:00 | 01:38:32 | 00:00:00 | |
| 9A1FER-3 | 2026-09-01 12:33:13 | 47.42969 | 19.91736 | 2° | 29km/h | 27265m | 5.5m/s | 0°C | 0% | 0hPa | 2.6V | 00:00:00 | 01:38:27 | 00:00:00 | |
| PETON7-10 | 2026-09-01 12:33:03 | 47.42932 | 19.91719 | 8° | 29km/h | 27194m | 7.0m/s | -47.3°C | 1.0% | 19.7hPa | 2.6V | 00:00:00 | 00:00:00 | 00:00:00 | |
| PETON7-10 | 2026-09-01 12:32:48 | 47.42821 | 19.91701 | 350° | 22km/h | 27089m | 5.8m/s | -47.1°C | 1.0% | 20.0hPa | 2.7V | 00:00:00 | 00:00:00 | 00:00:00 | |
| 9A1FER-3 | 2026-09-01 12:32:47 | 47.42814 | 19.91704 | 347° | 26km/h | 27083m | 7.1m/s | 0°C | 0% | 0hPa | 2.7V | 00:00:00 | 01:38:01 | 00:00:00 | |
| OE5DRO-10 | 2026-09-01 12:32:42 | 47.42780 | 19.91710 | 351° | 16km/h | 27048m | 6.9m/s | -47.3°C | 1.1% | 20.1hPa | 2.7V | 00:00:00 | 00:00:00 | 00:00:00 | |
| PETON7-10 | 2026-09-01 12:32:33 | 47.42740 | 19.91710 | 350° | 15km/h | 26986m | 6.9m/s | -47.4°C | 1.0% | 20.3hPa | 2.7V | 00:00:00 | 01:37:47 | 00:00:00 | |
| LZ4TU-5 | 2026-09-01 12:32:24 | 47.42712 | 19.91740 | 310° | 11km/h | 26923m | 6.3m/s | 0°C | 0% | 0hPa | 2.7V | 00:00:00 | 00:00:00 | 00:00:00 | |
| OE5DRO-10 | 2026-09-01 12:32:23 | 47.42710 | 19.91743 | 304° | 13km/h | 26917m | 6.1m/s | -47.3°C | 1.1% | 20.5hPa | 2.7V | 00:00:00 | 00:00:00 | 08:30:00 | |
| LZ4TU-5 | 2026-09-01 12:32:19 | 47.42701 | 19.91759 | 315° | 18km/h | 26888m | 7.0m/s | 0°C | 0% | 0hPa | 2.7V | 00:00:00 | 00:00:00 | 00:00:00 | |
| PETON7-10 | 2026-09-01 12:32:18 | 47.42697 | 19.91764 | 307° | 11km/h | 26880m | 8.0m/s | -47.3°C | 1.0% | 20.6hPa | 2.7V | 00:00:00 | 00:00:00 | 00:00:00 | |
| OE5DRO-10 | 2026-09-01 12:32:04 | 47.42690 | 19.91811 | 281° | 11km/h | 26781m | 6.1m/s | -47.5°C | 1.0% | 20.9hPa | 2.6V | 00:00:00 | 00:00:00 | 00:00:00 | |
| PETON7-10 | 2026-09-01 12:32:03 | 47.42690 | 19.91817 | 284° | 9km/h | 26775m | 6.7m/s | -47.5°C | 1.0% | 21.0hPa | 2.6V | 00:00:00 | 00:00:00 | 00:00:00 | |
| PETON7-10 | 2026-09-01 12:31:48 | 47.42664 | 19.91814 | 328° | 9km/h | 26666m | 6.1m/s | -47.7°C | 1.1% | 21.3hPa | 2.6V | 00:00:00 | 01:37:02 | 00:00:00 | |
| OE5DRO-10 | 2026-09-01 12:31:45 | 47.42656 | 19.91823 | 323° | 11km/h | 26649m | 6.2m/s | -47.7°C | 1.1% | 21.4hPa | 2.6V | 00:00:00 | 00:00:00 | 00:00:00 | |
| PETON7-10 | 2026-09-01 12:31:33 | 47.42659 | 19.91817 | 311° | 9km/h | 26563m | 7.4m/s | -47.4°C | 1.1% | 21.7hPa | 2.6V | 00:00:00 | 00:00:00 | 08:30:00 | |
| OE5DRO-10 | 2026-09-01 12:31:20 | 47.42667 | 19.91795 | 52° | 11km/h | 26478m | 7.7m/s | -47.5°C | 1.1% | 21.9hPa | 2.7V | 00:00:00 | 00:00:00 | 00:00:00 | |
| PETON7-10 | 2026-09-01 12:31:18 | 47.42668 | 19.91795 | 184° | 13km/h | 26465m | 6.9m/s | -47.3°C | 1.0% | 22.0hPa | 2.7V | 00:00:00 | 00:00:00 | 00:00:00 | |
| OM5KV | 2026-09-01 12:31:16 | 47.42668 | 19.91795 | 140° | 2km/h | 26458m | 7.1m/s | -47.4°C | 0% | 22.0hPa | 2.7V | 00:00:00 | 00:00:00 | 00:00:00 | |
| PETON7-10 | 2026-09-01 12:31:03 | 47.42675 | 19.91731 | 70° | 16km/h | 26359m | 7.2m/s | -47.0°C | 1.0% | 22.3hPa | 2.7V | 00:00:00 | 01:36:17 | 00:00:00 | |
| OE5DRO-10 | 2026-09-01 12:31:00 | 47.42677 | 19.91719 | 116° | 22km/h | 26338m | 7.0m/s | -47.0°C | 1.0% | 22.4hPa | 2.7V | 00:00:00 | 00:00:00 | 00:00:00 | |
| OM5KV | 2026-09-01 12:30:49 | 47.42665 | 19.91657 | 10° | 15km/h | 26257m | 5.8m/s | -46.6°C | 0% | 22.7hPa | 2.7V | 00:00:00 | 00:00:00 | 00:00:00 | |
| PETON7-10 | 2026-09-01 12:30:48 | 47.42662 | 19.91656 | 24° | 18km/h | 26251m | 6.4m/s | -46.6°C | 1.0% | 22.7hPa | 2.7V | 00:00:00 | 00:00:00 | 00:00:00 | |
| OM5KV | 2026-09-01 12:30:44 | 47.42657 | 19.91637 | 99° | 18km/h | 26222m | 8.9m/s | -46.7°C | 0% | 22.8hPa | 2.6V | 00:00:00 | 00:00:00 | 00:00:00 | |
| OE5DRO-10 | 2026-09-01 12:30:41 | 47.42660 | 19.91617 | 90° | 15km/h | 26202m | 7.3m/s | -46.8°C | 1.0% | 22.8hPa | 2.6V | 00:00:00 | 00:00:00 | 00:00:00 | |
| OM5KV | 2026-09-01 12:30:38 | 47.42656 | 19.91604 | 49° | 20km/h | 26188m | 6.7m/s | -47.0°C | 0% | 22.9hPa | 2.6V | 00:00:00 | 00:00:00 | 00:00:00 | |
| PETON7-10 | 2026-09-01 12:30:33 | 47.42625 | 19.91580 | 29° | 18km/h | 26146m | 6.5m/s | -47.4°C | 1.0% | 23.0hPa | 2.6V | 00:00:00 | 00:00:00 | 00:00:00 | |
| OM5KV | 2026-09-01 12:30:27 | 47.42612 | 19.91558 | 55° | 15km/h | 26109m | 7.3m/s | -47.5°C | 0% | 23.2hPa | 2.6V | 00:00:00 | 00:00:00 | 00:00:00 | |
| LZ4TU-5 | 2026-09-01 12:30:25 | 47.42604 | 19.91545 | 50° | 15km/h | 26087m | 9.0m/s | 0°C | 0% | 0hPa | 2.6V | 00:00:00 | 00:00:00 | 00:00:00 | |
| LZ4TU-5 | 2026-09-01 12:30:20 | 47.42587 | 19.91519 | 50° | 20km/h | 26052m | 6.2m/s | 0°C | 0% | 0hPa | 2.6V | 00:00:00 | 00:00:00 | 00:00:00 | |
| PETON7-10 | 2026-09-01 12:30:19 | 47.42583 | 19.91509 | 74° | 18km/h | 26037m | 5.9m/s | -48.2°C | 1.1% | 23.4hPa | 2.6V | 00:00:00 | 01:35:32 | 00:00:00 | |
| PETON7-10 | 2026-09-01 12:29:48 | 47.42451 | 19.91466 | 330° | 16km/h | 25836m | 6.7m/s | -49.0°C | 1.2% | 24.1hPa | 2.6V | 00:00:00 | 00:00:00 | 00:00:00 | |
| PETON7-10 | 2026-09-01 12:29:33 | 47.42403 | 19.91451 | 39° | 18km/h | 25732m | 8.0m/s | -49.5°C | 1.2% | 24.5hPa | 2.6V | 00:00:00 | 01:34:47 | 00:00:00 | |
| PETON7-10 | 2026-09-01 12:29:18 | 47.42374 | 19.91385 | 76° | 16km/h | 25628m | 8.3m/s | -50.1°C | 1.3% | 24.9hPa | 2.6V | 00:00:00 | 00:00:00 | 08:30:00 | |
| PETON7-10 | 2026-09-01 12:29:03 | 47.42332 | 19.91343 | 338° | 24km/h | 25523m | 7.7m/s | -50.3°C | 1.3% | 25.3hPa | 2.6V | 00:00:00 | 00:00:00 | 00:00:00 | |
| PETON7-10 | 2026-09-01 12:28:48 | 47.42257 | 19.91377 | 341° | 16km/h | 25414m | 5.9m/s | -50.0°C | 1.3% | 25.7hPa | 2.6V | 00:00:00 | 01:34:02 | 00:00:00 | |
| PETON7-10 | 2026-09-01 12:28:33 | 47.42196 | 19.91409 | 308° | 20km/h | 25308m | 8.6m/s | -50.9°C | 1.4% | 26.1hPa | 2.6V | 00:00:00 | 00:00:00 | 00:00:00 | |
| LZ4TU-5 | 2026-09-01 12:28:25 | 47.42170 | 19.91460 | 309° | 24km/h | 25257m | 5.9m/s | 0°C | 0% | 0hPa | 2.6V | 00:00:00 | 00:00:00 | 00:00:00 | |
| LZ4TU-5 | 2026-09-01 12:28:21 | 47.42160 | 19.91490 | 276° | 13km/h | 25222m | 8.3m/s | 0°C | 0% | 0hPa | 2.6V | 00:00:00 | 00:00:00 | 00:00:00 | |
| PETON7-10 | 2026-09-01 12:28:18 | 47.42162 | 19.91503 | 258° | 15km/h | 25200m | 8.2m/s | -50.5°C | 1.4% | 26.6hPa | 2.6V | 00:00:00 | 00:00:00 | 00:00:00 | |
| SQ9EZE-15 | 2026-09-01 12:28:05 | 47.42143 | 19.91563 | 360° | 4km/h | 25116m | 7.9m/s | 0°C | 0% | 27.0hPa | 2.6V | 00:00:00 | 00:00:00 | 00:00:00 | |
| PETON7-10 | 2026-09-01 12:28:03 | 47.42137 | 19.91563 | 356° | 11km/h | 25095m | 8.2m/s | -50.3°C | 1.3% | 27.0hPa | 2.6V | 00:00:00 | 01:33:17 | 00:00:00 | |
| PETON7-10 | 2026-09-01 12:27:48 | 47.42110 | 19.91562 | 73° | 9km/h | 24990m | 7.4m/s | -50.6°C | 1.4% | 27.5hPa | 2.6V | 00:00:00 | 00:00:00 | 00:00:00 | |
| PETON7-10 | 2026-09-01 12:27:32 | 47.42089 | 19.91595 | 295° | 16km/h | 24879m | 6.9m/s | -50.7°C | 1.4% | 27.9hPa | 2.7V | 00:00:00 | 00:00:00 | 00:00:00 | |
| 9A1FER-3 | 2026-09-01 12:27:21 | 47.42068 | 19.91662 | 277° | 15km/h | 24802m | 8.4m/s | 0°C | 0% | 0hPa | 2.7V | 00:00:00 | 01:32:35 | 00:00:00 | |
| PETON7-10 | 2026-09-01 12:27:18 | 47.42061 | 19.91681 | 327° | 11km/h | 24775m | 6.2m/s | -50.2°C | 1.3% | 28.4hPa | 2.7V | 00:00:00 | 01:32:31 | 00:00:00 | |
| 9A1FER-3 | 2026-09-01 12:27:06 | 47.42039 | 19.91710 | 322° | 13km/h | 24699m | 6.0m/s | 0°C | 0% | 0hPa | 2.7V | 00:00:00 | 01:32:20 | 00:00:00 | |
| PETON7-10 | 2026-09-01 12:27:02 | 47.42029 | 19.91716 | 347° | 11km/h | 24671m | 7.7m/s | -50.5°C | 1.3% | 28.8hPa | 2.7V | 00:00:00 | 00:00:00 | 08:30:00 | |
| OM5KV | 2026-09-01 12:26:58 | 47.42016 | 19.91718 | 6° | 16km/h | 24651m | 7.1m/s | -50.5°C | 0% | 29.0hPa | 2.6V | 00:00:00 | 00:00:00 | 00:00:00 | |
| OM5KV | 2026-09-01 12:26:53 | 47.42001 | 19.91703 | 49° | 11km/h | 24609m | 8.0m/s | -50.6°C | 0% | 29.2hPa | 2.6V | 00:00:00 | 00:00:00 | 00:00:00 | |
| 9A1FER-3 | 2026-09-01 12:26:51 | 47.41998 | 19.91698 | 51° | 5km/h | 24597m | 5.9m/s | 0°C | 0% | 0hPa | 2.6V | 00:00:00 | 01:32:05 | 00:00:00 | |
| PETON7-10 | 2026-09-01 12:26:47 | 47.41990 | 19.91695 | 360° | 5km/h | 24570m | 7.0m/s | -50.5°C | 1.4% | 29.3hPa | 2.6V | 00:00:00 | 00:00:00 | 00:00:00 | |
| 9A1FER-3 | 2026-09-01 12:26:36 | 47.41993 | 19.91702 | 7° | 4km/h | 24496m | 6.3m/s | 0°C | 0% | 0hPa | 2.6V | 00:00:00 | 01:31:50 | 00:00:00 | |
| PETON7-10 | 2026-09-01 12:26:32 | 47.41988 | 19.91704 | 317° | 5km/h | 24469m | 8.0m/s | -51.0°C | 1.4% | 29.7hPa | 2.6V | 00:00:00 | 01:31:46 | 00:00:00 | |
| LZ4TU-5 | 2026-09-01 12:26:28 | 47.41986 | 19.91707 | 0° | 0km/h | 24449m | 6.7m/s | 0°C | 0% | 0hPa | 2.6V | 00:00:00 | 00:00:00 | 00:00:00 | |
| LZ4TU-5 | 2026-09-01 12:26:23 | 47.41988 | 19.91703 | 135° | 4km/h | 24415m | 6.9m/s | 0°C | 0% | 0hPa | 2.6V | 00:00:00 | 00:00:00 | 00:00:00 | |
| 9A1FER-3 | 2026-09-01 12:26:21 | 47.41992 | 19.91703 | 203° | 11km/h | 24394m | 8.0m/s | 0°C | 0% | 0hPa | 2.6V | 00:00:00 | 01:31:35 | 00:00:00 | |
| PETON7-10 | 2026-09-01 12:26:17 | 47.41997 | 19.91715 | 246° | 11km/h | 24366m | 8.6m/s | -51.6°C | 1.5% | 30.2hPa | 2.6V | 00:00:00 | 00:00:00 | 00:00:00 | |
| 9A1FER-3 | 2026-09-01 12:26:06 | 47.42022 | 19.91714 | 156° | 7km/h | 24293m | 6.5m/s | 0°C | 0% | 0hPa | 2.6V | 00:00:00 | 01:31:20 | 00:00:00 | |
| PETON7-10 | 2026-09-01 12:26:02 | 47.42030 | 19.91714 | 197° | 7km/h | 24267m | 7.1m/s | -51.7°C | 1.5% | 30.7hPa | 2.6V | 00:00:00 | 00:00:00 | 00:00:00 | |
| PETON7-10 | 2026-09-01 12:25:47 | 47.42037 | 19.91688 | 52° | 13km/h | 24165m | 6.3m/s | -51.8°C | 1.5% | 31.2hPa | 2.6V | 00:00:00 | 01:31:01 | 00:00:00 | |
| PETON7-10 | 2026-09-01 12:25:32 | 47.42014 | 19.91635 | 17° | 7km/h | 24063m | 6.3m/s | -51.6°C | 1.4% | 31.6hPa | 2.6V | 00:00:00 | 00:00:00 | 00:00:00 | |
| PETON7-10 | 2026-09-01 12:25:17 | 47.41996 | 19.91622 | 292° | 9km/h | 23960m | 6.4m/s | -51.6°C | 1.5% | 32.1hPa | 2.7V | 00:00:00 | 00:00:00 | 00:00:00 | |
| PETON7-10 | 2026-09-01 12:25:02 | 47.42000 | 19.91644 | 253° | 7km/h | 23853m | 6.2m/s | -51.8°C | 1.5% | 32.7hPa | 2.7V | 00:00:00 | 01:30:16 | 00:00:00 | |
| PETON7-10 | 2026-09-01 12:24:47 | 47.42019 | 19.91665 | 192° | 4km/h | 23753m | 7.5m/s | -52.0°C | 1.5% | 33.2hPa | 2.7V | 00:00:00 | 00:00:00 | 08:30:00 | |
| LZ4TU-5 | 2026-09-01 12:24:32 | 47.42019 | 19.91666 | 359° | 7km/h | 23661m | 7.0m/s | 0°C | 0% | 0hPa | 2.7V | 00:00:00 | 00:00:00 | 00:00:00 | |
| PETON7-10 | 2026-09-01 12:24:31 | 47.42015 | 19.91665 | 16° | 5km/h | 23646m | 5.4m/s | -52.4°C | 1.6% | 33.7hPa | 2.7V | 00:00:00 | 00:00:00 | 00:00:00 | |
| LZ4TU-5 | 2026-09-01 12:24:28 | 47.42007 | 19.91662 | 5° | 15km/h | 23626m | 5.6m/s | 0°C | 0% | 0hPa | 2.7V | 00:00:00 | 00:00:00 | 00:00:00 | |
| OM5KV | 2026-09-01 12:24:25 | 47.41999 | 19.91662 | 1° | 4km/h | 23606m | 5.3m/s | -52.4°C | 0% | 34.0hPa | 2.7V | 00:00:00 | 00:00:00 | 00:00:00 | |
| PETON7-10 | 2026-09-01 12:24:16 | 47.41997 | 19.91662 | 332° | 9km/h | 23549m | 5.9m/s | -52.6°C | 1.6% | 34.2hPa | 2.7V | 00:00:00 | 01:29:30 | 00:00:00 | |
| PETON7-10 | 2026-09-01 12:24:01 | 47.41998 | 19.91694 | 315° | 13km/h | 23452m | 7.2m/s | -52.2°C | 1.6% | 34.7hPa | 2.7V | 00:00:00 | 00:00:00 | 00:00:00 | |
| PETON7-10 | 2026-09-01 12:23:46 | 47.42015 | 19.91749 | 262° | 7km/h | 23355m | 4.8m/s | -52.2°C | 1.5% | 35.3hPa | 2.6V | 00:00:00 | 00:00:00 | 00:00:00 | |
| PETON7-10 | 2026-09-01 12:23:31 | 47.42027 | 19.91742 | 103° | 9km/h | 23258m | 8.3m/s | -52.5°C | 1.6% | 35.8hPa | 2.6V | 00:00:00 | 01:28:45 | 00:00:00 | |
| PETON7-10 | 2026-09-01 12:23:16 | 47.42014 | 19.91700 | 82° | 15km/h | 23159m | 6.9m/s | -52.8°C | 1.7% | 36.4hPa | 2.6V | 00:00:00 | 00:00:00 | 00:00:00 | |
| PETON7-10 | 2026-09-01 12:23:01 | 47.41969 | 19.91656 | 22° | 11km/h | 23060m | 5.0m/s | -52.6°C | 1.6% | 36.9hPa | 2.6V | 00:00:00 | 00:00:00 | 00:00:00 | |
| OE5DRO-10 | 2026-09-01 12:22:51 | 47.41935 | 19.91646 | 336° | 7km/h | 22989m | 6.6m/s | -52.6°C | 1.6% | 37.3hPa | 2.6V | 00:00:00 | 00:00:00 | 00:00:00 | |
| PETON7-10 | 2026-09-01 12:22:46 | 47.41932 | 19.91651 | 297° | 7km/h | 22961m | 7.8m/s | -52.7°C | 1.6% | 37.5hPa | 2.7V | 00:00:00 | 01:28:00 | 00:00:00 | |
| SQ9EZE-15 | 2026-09-01 12:22:45 | 47.41933 | 19.91651 | 298° | 5km/h | 22961m | 7.9m/s | 0°C | 0% | 0hPa | 2.7V | 00:00:00 | 00:00:00 | 00:00:00 | |
| LZ4TU-5 | 2026-09-01 12:22:34 | 47.41918 | 19.91670 | 271° | 5km/h | 22888m | 7.6m/s | 0°C | 0% | 0hPa | 2.7V | 00:00:00 | 00:00:00 | 00:00:00 | |
| PETON7-10 | 2026-09-01 12:22:32 | 47.41916 | 19.91675 | 356° | 11km/h | 22862m | 6.1m/s | -52.3°C | 1.6% | 38.1hPa | 2.7V | 00:00:00 | 00:00:00 | 08:30:00 | |
| LZ4TU-5 | 2026-09-01 12:22:30 | 47.41915 | 19.91675 | 2° | 5km/h | 22855m | 7.3m/s | 0°C | 0% | 0hPa | 2.6V | 00:00:00 | 00:00:00 | 00:00:00 | |
| OE5DRO-10 | 2026-09-01 12:22:26 | 47.41908 | 19.91692 | 270° | 15km/h | 22815m | 8.1m/s | -52.2°C | 1.5% | 38.4hPa | 2.6V | 00:00:00 | 00:00:00 | 00:00:00 | |
| PETON7-10 | 2026-09-01 12:22:16 | 47.41911 | 19.91730 | 315° | 15km/h | 22762m | 6.7m/s | -52.4°C | 1.6% | 38.6hPa | 2.6V | 00:00:00 | 00:00:00 | 00:00:00 | |
| OE5DRO-10 | 2026-09-01 12:22:07 | 47.41922 | 19.91782 | 221° | 16km/h | 22688m | 7.3m/s | -53.0°C | 1.7% | 39.1hPa | 2.6V | 00:00:00 | 00:00:00 | 00:00:00 | |
| PETON7-10 | 2026-09-01 12:22:01 | 47.41936 | 19.91790 | 192° | 11km/h | 22659m | 8.8m/s | -52.8°C | 1.6% | 39.3hPa | 2.6V | 00:00:00 | 01:27:15 | 00:00:00 | |
| OE5DRO-10 | 2026-09-01 12:21:48 | 47.41968 | 19.91828 | 5° | 9km/h | 22564m | 8.6m/s | -53.1°C | 1.7% | 39.8hPa | 2.6V | 00:00:00 | 00:00:00 | 08:30:00 | |
| PETON7-10 | 2026-09-01 12:21:46 | 47.41967 | 19.91827 | 29° | 13km/h | 22557m | 5.2m/s | -53.1°C | 1.7% | 39.9hPa | 2.7V | 00:00:00 | 00:00:00 | 00:00:00 | |
| PETON7-10 | 2026-09-01 12:21:31 | 47.42007 | 19.91835 | 189° | 13km/h | 22453m | 5.7m/s | -52.9°C | 1.7% | 40.5hPa | 2.6V | 00:00:00 | 00:00:00 | 00:00:00 | |
| OE5DRO-10 | 2026-09-01 12:21:29 | 47.42020 | 19.91830 | 162° | 18km/h | 22419m | 9.0m/s | -52.9°C | 1.7% | 40.7hPa | 2.6V | 00:00:00 | 00:00:00 | 00:00:00 | |
| PETON7-10 | 2026-09-01 12:21:16 | 47.42044 | 19.91801 | 75° | 16km/h | 22349m | 6.1m/s | -53.3°C | 1.7% | 41.2hPa | 2.6V | 00:00:00 | 01:26:30 | 00:00:00 | |
| OE5DRO-10 | 2026-09-01 12:21:06 | 47.42048 | 19.91742 | 69° | 18km/h | 22267m | 7.8m/s | -53.4°C | 1.8% | 41.7hPa | 2.6V | 00:00:00 | 00:00:00 | 00:00:00 | |
| PETON7-10 | 2026-09-01 12:21:01 | 47.42035 | 19.91721 | 40° | 22km/h | 22246m | 7.9m/s | -53.2°C | 1.8% | 41.9hPa | 2.6V | 00:00:00 | 00:00:00 | 00:00:00 | |
| PETON7-10 | 2026-09-01 12:20:46 | 47.41978 | 19.91637 | 20° | 20km/h | 22143m | 6.1m/s | -52.8°C | 1.7% | 42.5hPa | 2.6V | 00:00:00 | 00:00:00 | 00:00:00 | |
| LZ4TU-5 | 2026-09-01 12:20:36 | 47.41942 | 19.91598 | 52° | 22km/h | 22082m | 6.9m/s | 0°C | 0% | 0hPa | 2.6V | 00:00:00 | 00:00:00 | 00:00:00 | |
| LZ4TU-5 | 2026-09-01 12:20:32 | 47.41928 | 19.91578 | 42° | 18km/h | 22055m | 8.3m/s | 0°C | 0% | 0hPa | 2.6V | 00:00:00 | 00:00:00 | 00:00:00 | |
| PETON7-10 | 2026-09-01 12:20:31 | 47.41922 | 19.91570 | 40° | 13km/h | 22042m | 7.3m/s | -53.2°C | 1.7% | 43.2hPa | 2.6V | 00:00:00 | 01:25:45 | 00:00:00 | |
| OE5DRO-10 | 2026-09-01 12:20:27 | 47.41909 | 19.91558 | 32° | 16km/h | 22001m | 7.3m/s | -53.4°C | 1.8% | 43.5hPa | 2.6V | 00:00:00 | 00:00:00 | 00:00:00 | |
| OM5KV | 2026-09-01 12:20:23 | 47.41906 | 19.91556 | 24° | 13km/h | 21994m | 5.3m/s | -53.5°C | 0% | 43.6hPa | 2.7V | 00:00:00 | 00:00:00 | 00:00:00 | |
| OM5KV | 2026-09-01 12:20:20 | 47.41897 | 19.91548 | 46° | 16km/h | 21974m | 6.1m/s | -53.3°C | 0% | 43.7hPa | 2.7V | 00:00:00 | 00:00:00 | 00:00:00 | |
| OM5KV | 2026-09-01 12:20:17 | 47.41887 | 19.91537 | 10° | 11km/h | 21949m | 7.5m/s | -53.3°C | 0% | 43.9hPa | 2.7V | 00:00:00 | 00:00:00 | 00:00:00 | |
| PETON7-10 | 2026-09-01 12:20:16 | 47.41884 | 19.91537 | 360° | 16km/h | 21942m | 7.0m/s | -53.3°C | 1.8% | 43.9hPa | 2.7V | 00:00:00 | 00:00:00 | 08:30:00 | |
| OM5KV | 2026-09-01 12:20:15 | 47.41884 | 19.91537 | 360° | 9km/h | 21942m | 7.1m/s | -53.3°C | 0% | 43.9hPa | 2.7V | 00:00:00 | 00:00:00 | 00:00:00 | |
| OM5KV | 2026-09-01 12:20:10 | 47.41865 | 19.91551 | 336° | 24km/h | 21909m | 7.5m/s | -53.3°C | 0% | 44.1hPa | 2.7V | 00:00:00 | 00:00:00 | 00:00:00 | |
| OM5KV | 2026-09-01 12:20:09 | 47.41860 | 19.91554 | 342° | 20km/h | 21903m | 4.9m/s | -53.2°C | 0% | 44.2hPa | 2.7V | 00:00:00 | 00:00:00 | 00:00:00 | |
| OM5KV | 2026-09-01 12:20:04 | 47.41837 | 19.91561 | 4° | 13km/h | 21869m | 5.8m/s | -53.3°C | 0% | 44.4hPa | 2.7V | 00:00:00 | 00:00:00 | 00:00:00 | |
| OE5DRO-10 | 2026-09-01 12:20:03 | 47.41826 | 19.91559 | 4° | 24km/h | 21849m | 5.2m/s | 0°C | 0% | 0hPa | 2.7V | 00:00:00 | 00:00:00 | 00:00:00 | |
| PETON7-10 | 2026-09-01 12:20:01 | 47.41821 | 19.91559 | 1° | 22km/h | 21843m | 6.6m/s | -53.1°C | 1.8% | 44.5hPa | 2.7V | 00:00:00 | 00:00:00 | 00:00:00 | |
| OM5KV | 2026-09-01 12:19:59 | 47.41816 | 19.91559 | 360° | 20km/h | 21836m | 7.4m/s | -53.0°C | 0% | 44.6hPa | 2.7V | 00:00:00 | 00:00:00 | 00:00:00 | |
| OM5KV | 2026-09-01 12:19:58 | 47.41805 | 19.91559 | 360° | 24km/h | 21823m | 7.5m/s | -53.2°C | 0% | 44.7hPa | 2.7V | 00:00:00 | 00:00:00 | 00:00:00 | |
| OM5KV | 2026-09-01 12:19:54 | 47.41779 | 19.91563 | 351° | 22km/h | 21796m | 6.9m/s | -53.2°C | 0% | 44.9hPa | 2.7V | 00:00:00 | 00:00:00 | 00:00:00 | |
| OM5KV | 2026-09-01 12:19:52 | 47.41769 | 19.91566 | 348° | 20km/h | 21783m | 7.1m/s | -53.0°C | 0% | 45.0hPa | 2.7V | 00:00:00 | 00:00:00 | 00:00:00 | |
| OM5KV | 2026-09-01 12:19:47 | 47.41749 | 19.91573 | 348° | 20km/h | 21756m | 6.1m/s | -52.8°C | 0% | 45.2hPa | 2.7V | 00:00:00 | 00:00:00 | 00:00:00 | |
| PETON7-10 | 2026-09-01 12:19:46 | 47.41737 | 19.91576 | 357° | 27km/h | 21743m | 5.6m/s | -52.5°C | 1.7% | 45.2hPa | 2.7V | 00:00:00 | 01:25:00 | 00:00:00 | |
| OE5DRO-10 | 2026-09-01 12:19:45 | 47.41721 | 19.91576 | 4° | 26km/h | 21730m | 7.6m/s | 0°C | 0% | 0hPa | 2.7V | 00:00:00 | 00:00:00 | 00:00:00 | |
| OM5KV | 2026-09-01 12:19:42 | 47.41706 | 19.91574 | 5° | 29km/h | 21717m | 6.8m/s | -52.4°C | 0% | 45.5hPa | 2.7V | 00:00:00 | 00:00:00 | 00:00:00 | |
| OM5KV | 2026-09-01 12:19:40 | 47.41699 | 19.91574 | 360° | 29km/h | 21710m | 7.0m/s | -52.4°C | 0% | 45.5hPa | 2.7V | 00:00:00 | 00:00:00 | 00:00:00 | |
| OM5KV | 2026-09-01 12:19:36 | 47.41673 | 19.91580 | 348° | 22km/h | 21684m | 5.9m/s | -52.3°C | 0% | 45.7hPa | 2.7V | 00:00:00 | 00:00:00 | 00:00:00 | |
| OM5KV | 2026-09-01 12:19:34 | 47.41661 | 19.91584 | 351° | 26km/h | 21670m | 5.9m/s | -52.2°C | 0% | 45.8hPa | 2.7V | 00:00:00 | 00:00:00 | 00:00:00 | |
| OM5KV | 2026-09-01 12:19:31 | 47.41635 | 19.91586 | 1° | 26km/h | 21644m | 8.0m/s | -52.2°C | 0% | 46.0hPa | 2.7V | 00:00:00 | 00:00:00 | 00:00:00 | |
| OM5KV | 2026-09-01 12:19:28 | 47.41623 | 19.91587 | 350° | 24km/h | 21632m | 6.5m/s | -52.3°C | 0% | 46.1hPa | 2.7V | 00:00:00 | 00:00:00 | 00:00:00 | |
| OE5DRO-10 | 2026-09-01 12:19:25 | 47.41604 | 19.91595 | 333° | 20km/h | 21605m | 7.6m/s | 0°C | 0% | 0hPa | 2.7V | 00:00:00 | 00:00:00 | 00:00:00 | |
| OM5KV | 2026-09-01 12:19:23 | 47.41599 | 19.91599 | 335° | 22km/h | 21598m | 5.7m/s | -53.0°C | 0% | 46.3hPa | 2.7V | 00:00:00 | 00:00:00 | 00:00:00 | |
| PETON7-10 | 2026-09-01 12:19:16 | 47.41555 | 19.91616 | 346° | 13km/h | 21547m | 5.8m/s | -53.0°C | 1.7% | 46.6hPa | 2.7V | 00:00:00 | 00:00:00 | 00:00:00 | |
| OM5KV | 2026-09-01 12:19:12 | 47.41545 | 19.91619 | 347° | 11km/h | 21527m | 6.2m/s | -52.8°C | 0% | 46.8hPa | 2.7V | 00:00:00 | 00:00:00 | 00:00:00 | |
| OM5KV | 2026-09-01 12:19:06 | 47.41532 | 19.91610 | 31° | 15km/h | 21488m | 7.2m/s | -53.1°C | 0% | 47.1hPa | 2.7V | 00:00:00 | 00:00:00 | 00:00:00 | |
| OM5KV | 2026-09-01 12:19:05 | 47.41528 | 19.91607 | 37° | 15km/h | 21481m | 8.0m/s | -53.1°C | 0% | 47.1hPa | 2.7V | 00:00:00 | 00:00:00 | 00:00:00 | |
| OM5KV | 2026-09-01 12:19:01 | 47.41515 | 19.91596 | 25° | 9km/h | 21450m | 5.8m/s | -52.9°C | 0% | 47.3hPa | 2.7V | 00:00:00 | 00:00:00 | 00:00:00 | |
| OM5KV | 2026-09-01 12:19:00 | 47.41514 | 19.91594 | 58° | 7km/h | 21443m | 7.6m/s | -52.9°C | 0% | 47.4hPa | 2.7V | 00:00:00 | 00:00:00 | 00:00:00 | |
| OM5KV | 2026-09-01 12:18:55 | 47.41514 | 19.91579 | 86° | 13km/h | 21412m | 6.3m/s | -52.8°C | 0% | 47.6hPa | 2.7V | 00:00:00 | 00:00:00 | 00:00:00 | |
| OM5KV | 2026-09-01 12:18:50 | 47.41507 | 19.91547 | 56° | 20km/h | 21382m | 4.1m/s | -53.0°C | 0% | 47.8hPa | 2.7V | 00:00:00 | 00:00:00 | 00:00:00 | |
| OM5KV | 2026-09-01 12:18:48 | 47.41505 | 19.91542 | 59° | 18km/h | 21378m | 4.1m/s | -52.9°C | 0% | 47.9hPa | 2.7V | 00:00:00 | 00:00:00 | 00:00:00 | |
| PETON7-10 | 2026-09-01 12:18:46 | 47.41501 | 19.91523 | 88° | 22km/h | 21360m | 4.8m/s | -52.7°C | 1.7% | 48.0hPa | 2.7V | 00:00:00 | 00:00:00 | 00:00:00 | |
| OM5KV | 2026-09-01 12:18:44 | 47.41501 | 19.91516 | 87° | 18km/h | 21354m | 7.6m/s | -52.8°C | 0% | 48.1hPa | 2.7V | 00:00:00 | 00:00:00 | 00:00:00 | |
| OM5KV | 2026-09-01 12:18:42 | 47.41499 | 19.91505 | 75° | 13km/h | 21342m | 5.2m/s | -52.8°C | 0% | 48.2hPa | 2.7V | 00:00:00 | 00:00:00 | 00:00:00 | |
| LZ4TU-5 | 2026-09-01 12:18:34 | 47.41482 | 19.91433 | 75° | 33km/h | 21284m | 6.8m/s | 0°C | 0% | 0hPa | 2.7V | 00:00:00 | 00:00:00 | 00:00:00 | |
| OM5KV | 2026-09-01 12:18:33 | 47.41482 | 19.91433 | 75° | 33km/h | 21284m | 6.8m/s | -52.9°C | 0% | 48.6hPa | 2.7V | 00:00:00 | 00:00:00 | 00:00:00 | |
| PETON7-10 | 2026-09-01 12:18:31 | 47.41477 | 19.91401 | 86° | 22km/h | 21266m | 4.5m/s | -52.8°C | 1.8% | 48.7hPa | 2.7V | 00:00:00 | 00:00:00 | 00:00:00 | |
| OM5KV | 2026-09-01 12:18:30 | 47.41477 | 19.91401 | 86° | 27km/h | 21266m | 4.5m/s | -52.8°C | 0% | 48.7hPa | 2.7V | 00:00:00 | 00:00:00 | 00:00:00 | |
| LZ4TU-5 | 2026-09-01 12:18:28 | 47.41476 | 19.91381 | 84° | 26km/h | 21255m | 7.4m/s | 0°C | 0% | 0hPa | 2.7V | 00:00:00 | 00:00:00 | 00:00:00 | |
| OM5KV | 2026-09-01 12:18:24 | 47.41472 | 19.91351 | 79° | 20km/h | 21229m | 4.8m/s | -52.6°C | 0% | 49.0hPa | 2.7V | 00:00:00 | 00:00:00 | 00:00:00 | |
| OM5KV | 2026-09-01 12:18:21 | 47.41467 | 19.91329 | 68° | 22km/h | 21210m | 5.6m/s | -52.7°C | 0% | 49.2hPa | 2.7V | 00:00:00 | 00:00:00 | 00:00:00 | |
| OM5KV | 2026-09-01 12:18:19 | 47.41463 | 19.91312 | 72° | 26km/h | 21197m | 6.7m/s | -52.6°C | 0% | 49.2hPa | 2.7V | 00:00:00 | 00:00:00 | 00:00:00 | |
| PETON7-10 | 2026-09-01 12:18:16 | 47.41456 | 19.91282 | 70° | 16km/h | 21172m | 6.5m/s | -52.6°C | 1.7% | 49.4hPa | 2.7V | 00:00:00 | 01:23:30 | 00:00:00 | |
| OM5KV | 2026-09-01 12:18:15 | 47.41455 | 19.91278 | 77° | 13km/h | 21165m | 6.9m/s | -52.6°C | 0% | 49.5hPa | 2.7V | 00:00:00 | 00:00:00 | 00:00:00 | |
| OM5KV | 2026-09-01 12:18:13 | 47.41455 | 19.91274 | 83° | 11km/h | 21159m | 5.6m/s | -52.7°C | 0% | 49.5hPa | 2.7V | 00:00:00 | 00:00:00 | 00:00:00 | |
| OM5KV | 2026-09-01 12:18:08 | 47.41455 | 19.91251 | 90° | 20km/h | 21128m | 5.3m/s | -52.9°C | 0% | 49.8hPa | 2.7V | 00:00:00 | 00:00:00 | 00:00:00 | |
| OM5KV | 2026-09-01 12:18:03 | 47.41444 | 19.91210 | 62° | 24km/h | 21093m | 4.5m/s | -53.1°C | 0% | 50.0hPa | 2.7V | 00:00:00 | 00:00:00 | 00:00:00 | |
| OM5KV | 2026-09-01 12:18:02 | 47.41439 | 19.91196 | 60° | 20km/h | 21080m | 7.8m/s | -53.3°C | 0% | 50.1hPa | 2.7V | 00:00:00 | 00:00:00 | 00:00:00 | |
| PETON7-10 | 2026-09-01 12:18:01 | 47.41437 | 19.91190 | 59° | 18km/h | 21074m | 5.1m/s | -53.3°C | 1.8% | 50.1hPa | 2.7V | 00:00:00 | 00:00:00 | 08:30:00 | |
| OM5KV | 2026-09-01 12:17:57 | 47.41433 | 19.91170 | 86° | 16km/h | 21048m | 7.1m/s | -53.1°C | 0% | 50.4hPa | 2.6V | 00:00:00 | 00:00:00 | 00:00:00 | |
| OM5KV | 2026-09-01 12:17:52 | 47.41428 | 19.91146 | 67° | 20km/h | 21022m | 5.4m/s | -53.1°C | 0% | 50.6hPa | 2.6V | 00:00:00 | 00:00:00 | 00:00:00 | |
| OM5KV | 2026-09-01 12:17:51 | 47.41426 | 19.91139 | 61° | 22km/h | 21016m | 6.3m/s | -53.3°C | 0% | 50.6hPa | 2.6V | 00:00:00 | 00:00:00 | 00:00:00 | |
| OM5KV | 2026-09-01 12:17:47 | 47.41407 | 19.91105 | 62° | 20km/h | 20984m | 6.6m/s | -53.4°C | 0% | 50.9hPa | 2.6V | 00:00:00 | 00:00:00 | 00:00:00 | |
| PETON7-10 | 2026-09-01 12:17:46 | 47.41405 | 19.91099 | 65° | 26km/h | 20977m | 7.9m/s | -53.5°C | 1.9% | 50.9hPa | 2.6V | 00:00:00 | 00:00:00 | 00:00:00 | |
| OM5KV | 2026-09-01 12:17:45 | 47.41405 | 19.91099 | 65° | 18km/h | 20977m | 7.9m/s | -53.5°C | 0% | 50.9hPa | 2.6V | 00:00:00 | 00:00:00 | 00:00:00 | |
| OM5KV | 2026-09-01 12:17:40 | 47.41402 | 19.91058 | 92° | 29km/h | 20946m | 6.7m/s | -53.6°C | 0% | 51.2hPa | 2.6V | 00:00:00 | 00:00:00 | 00:00:00 | |
| OM5KV | 2026-09-01 12:17:39 | 47.41402 | 19.91047 | 81° | 29km/h | 20939m | 6.3m/s | -53.6°C | 0% | 51.2hPa | 2.6V | 00:00:00 | 00:00:00 | 00:00:00 | |
| OM5KV | 2026-09-01 12:17:35 | 47.41388 | 19.90997 | 58° | 27km/h | 20907m | 8.1m/s | -53.4°C | 0% | 51.5hPa | 2.6V | 00:00:00 | 00:00:00 | 00:00:00 | |
| PETON7-10 | 2026-09-01 12:17:31 | 47.41376 | 19.90961 | 83° | 26km/h | 20880m | 6.5m/s | -53.5°C | 1.8% | 51.7hPa | 2.6V | 00:00:00 | 01:22:45 | 00:00:00 | |
| OM5KV | 2026-09-01 12:17:28 | 47.41375 | 19.90942 | 93° | 24km/h | 20866m | 6.3m/s | -53.4°C | 0% | 51.8hPa | 2.6V | 00:00:00 | 00:00:00 | 00:00:00 | |
| OM5KV | 2026-09-01 12:17:23 | 47.41375 | 19.90899 | 71° | 24km/h | 20834m | 6.1m/s | -53.2°C | 0% | 52.1hPa | 2.6V | 00:00:00 | 00:00:00 | 00:00:00 | |
| OM5KV | 2026-09-01 12:17:18 | 47.41353 | 19.90845 | 58° | 27km/h | 20795m | 6.5m/s | -53.2°C | 0% | 52.4hPa | 2.6V | 00:00:00 | 00:00:00 | 00:00:00 | |
| PETON7-10 | 2026-09-01 12:17:17 | 47.41349 | 19.90828 | 78° | 15km/h | 20782m | 5.7m/s | -53.2°C | 1.8% | 52.5hPa | 2.6V | 00:00:00 | 00:00:00 | 00:00:00 | |
| OE5DRO-10 | 2026-09-01 12:17:03 | 47.41332 | 19.90765 | 51° | 18km/h | 20697m | 5.7m/s | 0°C | 0% | 0hPa | 2.7V | 00:00:00 | 00:00:00 | 00:00:00 | |
| OM5KV | 2026-09-01 12:17:00 | 47.41328 | 19.90748 | 88° | 20km/h | 20678m | 5.3m/s | -53.8°C | 0% | 53.3hPa | 2.7V | 00:00:00 | 00:00:00 | 00:00:00 | |
| OM5KV | 2026-09-01 12:16:58 | 47.41327 | 19.90733 | 80° | 20km/h | 20665m | 6.7m/s | -53.6°C | 0% | 53.4hPa | 2.7V | 00:00:00 | 00:00:00 | 00:00:00 | |
| SQ9EZE-15 | 2026-09-01 12:16:54 | 47.41321 | 19.90710 | 69° | 24km/h | 20644m | 5.8m/s | 0°C | 0% | 0hPa | 2.7V | 00:00:00 | 00:00:00 | 00:00:00 | |
| OM5KV | 2026-09-01 12:16:53 | 47.41319 | 19.90701 | 66° | 24km/h | 20639m | 5.8m/s | -53.7°C | 0% | 53.7hPa | 2.7V | 00:00:00 | 00:00:00 | 00:00:00 | |
| PETON7-10 | 2026-09-01 12:16:46 | 47.41296 | 19.90660 | 59° | 29km/h | 20589m | 6.6m/s | -53.5°C | 1.9% | 54.0hPa | 2.7V | 00:00:00 | 01:22:00 | 00:00:00 | |
| OM5KV | 2026-09-01 12:16:45 | 47.41295 | 19.90660 | 59° | 18km/h | 20589m | 6.6m/s | -53.5°C | 0% | 54.1hPa | 2.7V | 00:00:00 | 00:00:00 | 00:00:00 | |
| OE5DRO-10 | 2026-09-01 12:16:44 | 47.41290 | 19.90643 | 68° | 31km/h | 20575m | 6.4m/s | 0°C | 0% | 0hPa | 2.7V | 00:00:00 | 00:00:00 | 00:00:00 | |
| OM5KV | 2026-09-01 12:16:39 | 47.41273 | 19.90592 | 65° | 40km/h | 20548m | 7.5m/s | -53.5°C | 0% | 54.4hPa | 2.7V | 00:00:00 | 00:00:00 | 00:00:00 | |
| OM5KV | 2026-09-01 12:16:38 | 47.41269 | 19.90579 | 65° | 37km/h | 20542m | 5.0m/s | -53.6°C | 0% | 54.4hPa | 2.7V | 00:00:00 | 00:00:00 | 00:00:00 | |
| LZ4TU-5 | 2026-09-01 12:16:34 | 47.41254 | 19.90545 | 54° | 18km/h | 20517m | 7.5m/s | 0°C | 0% | 0hPa | 2.7V | 00:00:00 | 00:00:00 | 00:00:00 | |
| OM5KV | 2026-09-01 12:16:33 | 47.41252 | 19.90540 | 56° | 15km/h | 20510m | 5.1m/s | -53.6°C | 0% | 54.7hPa | 2.7V | 00:00:00 | 00:00:00 | 00:00:00 | |
| PETON7-10 | 2026-09-01 12:16:31 | 47.41243 | 19.90523 | 51° | 37km/h | 20492m | 5.5m/s | -53.8°C | 1.9% | 54.8hPa | 2.7V | 00:00:00 | 00:00:00 | 00:00:00 | |
| OM5KV | 2026-09-01 12:16:26 | 47.41222 | 19.90479 | 53° | 44km/h | 20467m | 7.8m/s | -53.8°C | 0% | 55.1hPa | 2.6V | 00:00:00 | 00:00:00 | 00:00:00 | |
| OE5DRO-10 | 2026-09-01 12:16:24 | 47.41200 | 19.90445 | 46° | 31km/h | 20448m | 4.8m/s | 0°C | 0% | 0hPa | 2.6V | 00:00:00 | 00:00:00 | 00:00:00 | |
| OM5KV | 2026-09-01 12:16:21 | 47.41187 | 19.90425 | 44° | 37km/h | 20435m | 7.2m/s | -54.2°C | 0% | 55.4hPa | 2.6V | 00:00:00 | 00:00:00 | 00:00:00 | |
| OM5KV | 2026-09-01 12:16:17 | 47.41156 | 19.90384 | 46° | 31km/h | 20404m | 8.0m/s | -54.3°C | 0% | 55.6hPa | 2.6V | 00:00:00 | 00:00:00 | 00:00:00 | |
| PETON7-10 | 2026-09-01 12:16:16 | 47.41150 | 19.90376 | 45° | 29km/h | 20397m | 5.9m/s | -54.3°C | 1.9% | 55.7hPa | 2.6V | 00:00:00 | 00:00:00 | 00:00:00 | |
| OM5KV | 2026-09-01 12:16:15 | 47.41150 | 19.90376 | 45° | 31km/h | 20397m | 5.9m/s | -54.3°C | 0% | 55.7hPa | 2.6V | 00:00:00 | 00:00:00 | 00:00:00 | |
| OM5KV | 2026-09-01 12:16:09 | 47.41116 | 19.90321 | 45° | 35km/h | 20359m | 5.5m/s | -54.7°C | 0% | 56.0hPa | 2.6V | 00:00:00 | 00:00:00 | 00:00:00 | |
| OM5KV | 2026-09-01 12:16:07 | 47.41105 | 19.90304 | 49° | 27km/h | 20346m | 5.5m/s | -54.7°C | 0% | 56.2hPa | 2.6V | 00:00:00 | 00:00:00 | 00:00:00 | |
| OM5KV | 2026-09-01 12:16:03 | 47.41086 | 19.90268 | 58° | 20km/h | 20314m | 5.3m/s | -54.8°C | 0% | 56.4hPa | 2.6V | 00:00:00 | 00:00:00 | 00:00:00 | |
| OM5KV | 2026-09-01 12:16:02 | 47.41083 | 19.90262 | 59° | 20km/h | 20308m | 6.5m/s | -54.9°C | 0% | 56.5hPa | 2.6V | 00:00:00 | 00:00:00 | 00:00:00 | |
| PETON7-10 | 2026-09-01 12:16:01 | 47.41080 | 19.90256 | 54° | 29km/h | 20301m | 6.9m/s | -54.9°C | 2.1% | 56.5hPa | 2.6V | 00:00:00 | 01:21:15 | 00:00:00 | |
| OM5KV | 2026-09-01 12:15:57 | 47.41069 | 19.90233 | 57° | 27km/h | 20282m | 4.4m/s | -54.9°C | 0% | 56.7hPa | 2.6V | 00:00:00 | 00:00:00 | 00:00:00 | |
| PETON7-10 | 2026-09-01 12:15:46 | 47.41002 | 19.90145 | 35° | 27km/h | 20207m | 7.1m/s | -54.4°C | 2.0% | 57.3hPa | 2.6V | 00:00:00 | 00:00:00 | 08:30:00 | |
| OM5KV | 2026-09-01 12:15:45 | 47.41002 | 19.90145 | 36° | 29km/h | 20207m | 7.2m/s | -54.4°C | 0% | 57.4hPa | 2.7V | 00:00:00 | 00:00:00 | 00:00:00 | |
| OM5KV | 2026-09-01 12:15:40 | 47.40973 | 19.90115 | 34° | 26km/h | 20176m | 6.5m/s | -54.2°C | 0% | 57.6hPa | 2.7V | 00:00:00 | 00:00:00 | 00:00:00 | |
| OM5KV | 2026-09-01 12:15:34 | 47.40939 | 19.90087 | 23° | 29km/h | 20138m | 5.7m/s | -54.0°C | 0% | 58.0hPa | 2.7V | 00:00:00 | 00:00:00 | 00:00:00 | |
| OM5KV | 2026-09-01 12:15:32 | 47.40903 | 19.90075 | 12° | 29km/h | 20106m | 7.2m/s | -53.9°C | 0% | 58.3hPa | 2.7V | 00:00:00 | 00:00:00 | 00:00:00 | |
| OM5KV | 2026-09-01 12:15:23 | 47.40868 | 19.90057 | 38° | 24km/h | 20070m | 4.5m/s | -53.7°C | 0% | 58.6hPa | 2.7V | 00:00:00 | 00:00:00 | 00:00:00 | |
| OM5KV | 2026-09-01 12:15:20 | 47.40845 | 19.90023 | 36° | 20km/h | 20035m | 6.5m/s | -53.6°C | 0% | 58.9hPa | 2.7V | 00:00:00 | 00:00:00 | 00:00:00 | |
| PETON7-10 | 2026-09-01 12:15:16 | 47.40832 | 19.90015 | 8° | 20km/h | 20015m | 6.7m/s | -53.5°C | 1.9% | 59.1hPa | 2.7V | 00:00:00 | 01:20:29 | 00:00:00 | |
| OM5KV | 2026-09-01 12:15:12 | 47.40823 | 19.90013 | 10° | 20km/h | 20002m | 5.3m/s | -53.6°C | 0% | 59.2hPa | 2.7V | 00:00:00 | 00:00:00 | 00:00:00 | |
| OM5KV | 2026-09-01 12:15:07 | 47.40795 | 19.90001 | 30° | 24km/h | 19967m | 6.3m/s | -53.5°C | 0% | 59.6hPa | 2.7V | 00:00:00 | 00:00:00 | 00:00:00 | |
| PETON7-10 | 2026-09-01 12:15:01 | 47.40762 | 19.89967 | 27° | 24km/h | 19923m | 5.2m/s | -53.7°C | 1.9% | 59.9hPa | 2.7V | 00:00:00 | 00:00:00 | 00:00:00 | |
| OM5KV | 2026-09-01 12:14:59 | 47.40756 | 19.89963 | 28° | 24km/h | 19917m | 6.5m/s | -53.8°C | 0% | 60.0hPa | 2.7V | 00:00:00 | 00:00:00 | 00:00:00 | |
| OM5KV | 2026-09-01 12:14:54 | 47.40735 | 19.89948 | 22° | 22km/h | 19893m | 4.1m/s | -53.9°C | 0% | 60.2hPa | 2.7V | 00:00:00 | 00:00:00 | 00:00:00 | |
| OM5KV | 2026-09-01 12:14:53 | 47.40730 | 19.89945 | 24° | 22km/h | 19887m | 6.6m/s | -54.1°C | 0% | 60.3hPa | 2.7V | 00:00:00 | 00:00:00 | 00:00:00 | |
| OM5KV | 2026-09-01 12:14:48 | 47.40707 | 19.89918 | 42° | 22km/h | 19857m | 5.5m/s | -54.1°C | 0% | 60.6hPa | 2.7V | 00:00:00 | 00:00:00 | 00:00:00 | |
| PETON7-10 | 2026-09-01 12:14:45 | 47.40688 | 19.89896 | 30° | 24km/h | 19832m | 6.7m/s | -54.0°C | 2.0% | 60.8hPa | 2.7V | 00:00:00 | 00:00:00 | 00:00:00 | |
| OM5KV | 2026-09-01 12:14:42 | 47.40678 | 19.89889 | 30° | 22km/h | 19819m | 6.5m/s | -54.1°C | 0% | 60.9hPa | 2.7V | 00:00:00 | 00:00:00 | 00:00:00 | |
| LZ4TU-5 | 2026-09-01 12:14:38 | 47.40655 | 19.89869 | 34° | 22km/h | 19789m | 7.2m/s | 0°C | 0% | 0hPa | 2.7V | 00:00:00 | 00:00:00 | 00:00:00 | |
| OM5KV | 2026-09-01 12:14:37 | 47.40655 | 19.89869 | 34° | 22km/h | 19789m | 7.2m/s | -54.1°C | 0% | 61.2hPa | 2.7V | 00:00:00 | 00:00:00 | 00:00:00 | |
| OM5KV | 2026-09-01 12:14:36 | 47.40650 | 19.89864 | 34° | 26km/h | 19783m | 5.1m/s | -54.1°C | 0% | 61.3hPa | 2.7V | 00:00:00 | 00:00:00 | 00:00:00 | |
| OM5KV | 2026-09-01 12:14:31 | 47.40618 | 19.89843 | 22° | 31km/h | 19752m | 5.2m/s | -54.3°C | 0% | 61.6hPa | 2.7V | 00:00:00 | 00:00:00 | 00:00:00 | |
| PETON7-10 | 2026-09-01 12:14:30 | 47.40604 | 19.89836 | 15° | 22km/h | 19740m | 6.9m/s | -54.3°C | 2.0% | 61.6hPa | 2.7V | 00:00:00 | 01:19:44 | 00:00:00 | |
| OM5KV | 2026-09-01 12:14:25 | 47.40582 | 19.89831 | 7° | 18km/h | 19716m | 6.3m/s | -54.5°C | 0% | 61.9hPa | 2.7V | 00:00:00 | 00:00:00 | 00:00:00 | |
| OM5KV | 2026-09-01 12:14:24 | 47.40577 | 19.89830 | 1° | 18km/h | 19710m | 6.5m/s | -54.6°C | 0% | 62.0hPa | 2.7V | 00:00:00 | 00:00:00 | 00:00:00 | |
| OM5KV | 2026-09-01 12:14:19 | 47.40553 | 19.89831 | 3° | 22km/h | 19678m | 6.4m/s | -54.4°C | 0% | 62.3hPa | 2.7V | 00:00:00 | 00:00:00 | 00:00:00 | |
| OM5KV | 2026-09-01 12:14:18 | 47.40547 | 19.89831 | 361° | 24km/h | 19671m | 5.7m/s | -54.4°C | 0% | 62.4hPa | 2.7V | 00:00:00 | 00:00:00 | 00:00:00 | |
| PETON7-10 | 2026-09-01 12:14:15 | 47.40525 | 19.89831 | 360° | 20km/h | 19646m | 6.8m/s | -54.1°C | 2.0% | 62.6hPa | 2.7V | 00:00:00 | 00:00:00 | 00:00:00 | |
| OM5KV | 2026-09-01 12:14:14 | 47.40525 | 19.89830 | 361° | 20km/h | 19646m | 6.8m/s | -54.2°C | 0% | 62.6hPa | 2.6V | 00:00:00 | 00:00:00 | 00:00:00 | |
| OM5KV | 2026-09-01 12:14:12 | 47.40516 | 19.89830 | 8° | 16km/h | 19634m | 6.5m/s | -54.1°C | 0% | 62.7hPa | 2.6V | 00:00:00 | 00:00:00 | 00:00:00 | |
| OM5KV | 2026-09-01 12:14:08 | 47.40502 | 19.89820 | 30° | 20km/h | 19609m | 5.5m/s | -54.1°C | 0% | 63.0hPa | 2.6V | 00:00:00 | 00:00:00 | 00:00:00 | |
| OM5KV | 2026-09-01 12:14:07 | 47.40497 | 19.89816 | 28° | 22km/h | 19603m | 6.6m/s | -54.1°C | 0% | 63.0hPa | 2.6V | 00:00:00 | 00:00:00 | 00:00:00 | |
| PETON7-10 | 2026-09-01 12:14:00 | 47.40456 | 19.89797 | 12° | 16km/h | 19554m | 7.2m/s | -53.9°C | 2.0% | 63.4hPa | 2.6V | 00:00:00 | 00:00:00 | 00:00:00 | |
| OM5KV | 2026-09-01 12:13:56 | 47.40444 | 19.89792 | 29° | 15km/h | 19535m | 7.3m/s | -54.1°C | 0% | 63.7hPa | 2.6V | 00:00:00 | 00:00:00 | 00:00:00 | |
| OM5KV | 2026-09-01 12:13:51 | 47.40428 | 19.89776 | 32° | 18km/h | 19503m | 6.5m/s | -54.0°C | 0% | 64.0hPa | 2.6V | 00:00:00 | 00:00:00 | 00:00:00 | |
| OM5KV | 2026-09-01 12:13:50 | 47.40423 | 19.89772 | 32° | 18km/h | 19497m | 4.8m/s | -53.9°C | 0% | 64.1hPa | 2.6V | 00:00:00 | 00:00:00 | 00:00:00 | |
| OM5KV | 2026-09-01 12:13:43 | 47.40399 | 19.89751 | 47° | 13km/h | 19454m | 7.3m/s | -53.9°C | 0% | 64.5hPa | 2.6V | 00:00:00 | 00:00:00 | 00:00:00 | |
| OM5KV | 2026-09-01 12:13:38 | 47.40388 | 19.89733 | 41° | 15km/h | 19423m | 7.1m/s | -53.6°C | 0% | 64.8hPa | 2.6V | 00:00:00 | 00:00:00 | 00:00:00 | |
| OM5KV | 2026-09-01 12:13:37 | 47.40385 | 19.89729 | 32° | 15km/h | 19416m | 5.9m/s | -53.6°C | 0% | 64.9hPa | 2.6V | 00:00:00 | 00:00:00 | 00:00:00 | |
| OM5KV | 2026-09-01 12:13:33 | 47.40372 | 19.89720 | 1° | 7km/h | 19386m | 5.8m/s | -53.4°C | 0% | 65.2hPa | 2.6V | 00:00:00 | 00:00:00 | 00:00:00 | |
| PETON7-10 | 2026-09-01 12:13:30 | 47.40369 | 19.89718 | 62° | 9km/h | 19368m | 6.3m/s | -53.3°C | 2.0% | 65.3hPa | 2.6V | 00:00:00 | 00:00:00 | 08:30:00 | |
| OM5KV | 2026-09-01 12:13:27 | 47.40366 | 19.89712 | 54° | 11km/h | 19349m | 6.0m/s | -53.3°C | 0% | 65.5hPa | 2.6V | 00:00:00 | 00:00:00 | 00:00:00 | |
| OM5KV | 2026-09-01 12:13:22 | 47.40356 | 19.89694 | 37° | 13km/h | 19318m | 6.6m/s | -53.1°C | 0% | 65.9hPa | 2.6V | 00:00:00 | 00:00:00 | 00:00:00 | |
| PETON7-10 | 2026-09-01 12:13:14 | 47.40347 | 19.89685 | 147° | 9km/h | 19267m | 6.2m/s | -53.0°C | 2.0% | 66.3hPa | 2.6V | 00:00:00 | 00:00:00 | 00:00:00 | |
| OM5KV | 2026-09-01 12:13:08 | 47.40349 | 19.89679 | 105° | 9km/h | 19236m | 7.0m/s | -52.9°C | 0% | 66.7hPa | 2.6V | 00:00:00 | 00:00:00 | 00:00:00 | |
| OM5KV | 2026-09-01 12:13:05 | 47.40350 | 19.89662 | 101° | 15km/h | 19211m | 5.8m/s | -52.9°C | 0% | 67.0hPa | 2.6V | 00:00:00 | 00:00:00 | 00:00:00 | |
| OM5KV | 2026-09-01 12:13:03 | 47.40351 | 19.89652 | 106° | 13km/h | 19198m | 5.0m/s | -53.1°C | 0% | 67.1hPa | 2.6V | 00:00:00 | 00:00:00 | 00:00:00 | |
| PETON7-10 | 2026-09-01 12:12:59 | 47.40360 | 19.89638 | 149° | 15km/h | 19174m | 6.9m/s | -53.3°C | 2.1% | 67.3hPa | 2.6V | 00:00:00 | 01:18:13 | 00:00:00 | |
| OM5KV | 2026-09-01 12:12:58 | 47.40360 | 19.89638 | 149° | 15km/h | 19174m | 6.9m/s | -53.4°C | 0% | 67.3hPa | 2.6V | 00:00:00 | 00:00:00 | 00:00:00 | |
| OM5KV | 2026-09-01 12:12:57 | 47.40362 | 19.89635 | 156° | 11km/h | 19167m | 5.7m/s | -53.5°C | 0% | 67.4hPa | 2.6V | 00:00:00 | 00:00:00 | 00:00:00 | |
| PETON7-10 | 2026-09-01 12:12:43 | 47.40363 | 19.89560 | 98° | 16km/h | 19076m | 5.0m/s | -53.3°C | 2.1% | 68.3hPa | 2.6V | 00:00:00 | 00:00:00 | 00:00:00 | |
| LZ4TU-5 | 2026-09-01 12:12:41 | 47.40363 | 19.89552 | 80° | 11km/h | 19064m | 7.5m/s | 0°C | 0% | 0hPa | 2.7V | 00:00:00 | 00:00:00 | 00:00:00 | |
| OM5KV | 2026-09-01 12:12:39 | 47.40362 | 19.89547 | 74° | 15km/h | 19057m | 5.6m/s | -53.5°C | 0% | 68.6hPa | 2.7V | 00:00:00 | 00:00:00 | 00:00:00 | |
| LZ4TU-5 | 2026-09-01 12:12:37 | 47.40356 | 19.89530 | 57° | 16km/h | 19039m | 5.8m/s | 0°C | 0% | 0hPa | 2.7V | 00:00:00 | 00:00:00 | 00:00:00 | |
| OM5KV | 2026-09-01 12:12:32 | 47.40356 | 19.89500 | 111° | 18km/h | 19009m | 6.6m/s | -53.5°C | 0% | 69.1hPa | 2.7V | 00:00:00 | 00:00:00 | 00:00:00 | |
| OM5KV | 2026-09-01 12:12:30 | 47.40358 | 19.89487 | 102° | 18km/h | 18996m | 5.3m/s | -53.2°C | 0% | 69.2hPa | 2.7V | 00:00:00 | 00:00:00 | 00:00:00 | |
| PETON7-10 | 2026-09-01 12:12:28 | 47.40359 | 19.89475 | 80° | 18km/h | 18985m | 4.9m/s | -53.2°C | 2.0% | 69.3hPa | 2.7V | 00:00:00 | 00:00:00 | 00:00:00 | |
| OM5KV | 2026-09-01 12:12:26 | 47.40357 | 19.89464 | 72° | 15km/h | 18972m | 6.8m/s | -53.4°C | 0% | 69.5hPa | 2.7V | 00:00:00 | 00:00:00 | 00:00:00 | |
| PETON7-10 | 2026-09-01 12:12:13 | 47.40369 | 19.89377 | 114° | 31km/h | 18894m | 4.9m/s | -53.9°C | 2.1% | 70.3hPa | 2.7V | 00:00:00 | 01:17:27 | 00:00:00 | |
| OM5KV | 2026-09-01 12:12:12 | 47.40369 | 19.89377 | 114° | 20km/h | 18894m | 5.0m/s | -53.9°C | 0% | 70.3hPa | 2.7V | 00:00:00 | 00:00:00 | 00:00:00 | |
| OM5KV | 2026-09-01 12:12:05 | 47.40373 | 19.89308 | 94° | 37km/h | 18852m | 5.6m/s | -54.1°C | 0% | 70.8hPa | 2.7V | 00:00:00 | 00:00:00 | 00:00:00 | |
| PETON7-10 | 2026-09-01 12:11:58 | 47.40378 | 19.89204 | 90° | 37km/h | 18803m | 4.1m/s | -54.1°C | 2.1% | 71.3hPa | 2.7V | 00:00:00 | 00:00:00 | 00:00:00 | |
| OM5KV | 2026-09-01 12:11:56 | 47.40378 | 19.89192 | 89° | 29km/h | 18797m | 5.9m/s | -54.1°C | 0% | 71.4hPa | 2.7V | 00:00:00 | 00:00:00 | 00:00:00 | |
| OM5KV | 2026-09-01 12:11:54 | 47.40377 | 19.89168 | 89° | 37km/h | 18785m | 4.7m/s | -54.2°C | 0% | 71.5hPa | 2.7V | 00:00:00 | 00:00:00 | 00:00:00 | |
| OM5KV | 2026-09-01 12:11:49 | 47.40375 | 19.89095 | 87° | 44km/h | 18754m | 5.5m/s | -54.7°C | 0% | 71.8hPa | 2.7V | 00:00:00 | 00:00:00 | 00:00:00 | |
| PETON7-10 | 2026-09-01 12:11:43 | 47.40362 | 19.89001 | 71° | 37km/h | 18710m | 6.9m/s | -55.1°C | 2.3% | 72.3hPa | 2.7V | 00:00:00 | 00:00:00 | 00:00:00 | |
| OM5KV | 2026-09-01 12:11:28 | 47.40321 | 19.88821 | 72° | 42km/h | 18627m | 7.5m/s | -55.5°C | 0% | 73.3hPa | 2.7V | 00:00:00 | 00:00:00 | 00:00:00 | |
| PETON7-10 | 2026-09-01 12:11:27 | 47.40314 | 19.88793 | 72° | 35km/h | 18615m | 5.3m/s | -55.4°C | 2.4% | 73.4hPa | 2.7V | 00:00:00 | 01:16:41 | 00:00:00 | |
| OM5KV | 2026-09-01 12:11:15 | 47.40266 | 19.88673 | 54° | 31km/h | 18550m | 7.5m/s | -55.0°C | 0% | 74.2hPa | 2.7V | 00:00:00 | 00:00:00 | 00:00:00 | |
| PETON7-10 | 2026-09-01 12:11:12 | 47.40248 | 19.88630 | 62° | 31km/h | 18525m | 5.1m/s | -54.9°C | 2.4% | 74.4hPa | 2.7V | 00:00:00 | 00:00:00 | 08:30:00 | |
| OM5KV | 2026-09-01 12:11:07 | 47.40229 | 19.88589 | 50° | 33km/h | 18503m | 7.5m/s | -54.8°C | 0% | 74.7hPa | 2.6V | 00:00:00 | 00:00:00 | 00:00:00 | |
| PETON7-10 | 2026-09-01 12:10:56 | 47.40163 | 19.88507 | 57° | 22km/h | 18433m | 6.1m/s | -55.2°C | 2.3% | 75.5hPa | 2.6V | 00:00:00 | 00:00:00 | 00:00:00 | |
| OM5KV | 2026-09-01 12:10:53 | 47.40155 | 19.88492 | 46° | 24km/h | 18420m | 5.3m/s | -55.2°C | 0% | 75.7hPa | 2.6V | 00:00:00 | 00:00:00 | 00:00:00 | |
| OM5KV | 2026-09-01 12:10:52 | 47.40150 | 19.88486 | 42° | 22km/h | 18414m | 5.2m/s | -55.1°C | 0% | 75.8hPa | 2.6V | 00:00:00 | 00:00:00 | 00:00:00 | |
| OM5KV | 2026-09-01 12:10:47 | 47.40129 | 19.88457 | 47° | 16km/h | 18379m | 5.6m/s | -55.0°C | 0% | 76.2hPa | 2.6V | 00:00:00 | 00:00:00 | 00:00:00 | |
| PETON7-10 | 2026-09-01 12:10:41 | 47.40110 | 19.88421 | 61° | 20km/h | 18344m | 7.1m/s | -55.2°C | 2.4% | 76.6hPa | 2.6V | 00:00:00 | 01:15:55 | 00:00:00 | |
| OM5KV | 2026-09-01 12:10:40 | 47.40110 | 19.88421 | 61° | 24km/h | 18344m | 7.1m/s | -55.2°C | 0% | 76.6hPa | 2.6V | 00:00:00 | 00:00:00 | 00:00:00 | |
| OM5KV | 2026-09-01 12:10:39 | 47.40106 | 19.88413 | 62° | 26km/h | 18338m | 5.4m/s | -55.3°C | 0% | 76.7hPa | 2.6V | 00:00:00 | 00:00:00 | 00:00:00 | |
| OM5KV | 2026-09-01 12:10:34 | 47.40093 | 19.88377 | 53° | 18km/h | 18308m | 5.6m/s | -55.3°C | 0% | 77.1hPa | 2.6V | 00:00:00 | 00:00:00 | 00:00:00 | |
| OM5KV | 2026-09-01 12:10:29 | 47.40077 | 19.88360 | 26° | 20km/h | 18279m | 5.3m/s | -55.1°C | 0% | 77.4hPa | 2.6V | 00:00:00 | 00:00:00 | 00:00:00 | |
| OM5KV | 2026-09-01 12:10:28 | 47.40073 | 19.88358 | 26° | 18km/h | 18273m | 7.1m/s | -55.1°C | 0% | 77.5hPa | 2.6V | 00:00:00 | 00:00:00 | 00:00:00 | |
| PETON7-10 | 2026-09-01 12:10:26 | 47.40060 | 19.88349 | 33° | 18km/h | 18255m | 5.8m/s | -55.2°C | 2.4% | 77.7hPa | 2.6V | 00:00:00 | 00:00:00 | 00:00:00 | |
| OM5KV | 2026-09-01 12:10:23 | 47.40053 | 19.88340 | 47° | 20km/h | 18244m | 6.6m/s | -55.4°C | 0% | 77.8hPa | 2.6V | 00:00:00 | 00:00:00 | 00:00:00 | |
| OM5KV | 2026-09-01 12:10:22 | 47.40050 | 19.88334 | 56° | 18km/h | 18238m | 5.6m/s | -55.3°C | 0% | 77.9hPa | 2.6V | 00:00:00 | 00:00:00 | 00:00:00 | |
| OM5KV | 2026-09-01 12:10:17 | 47.40041 | 19.88301 | 76° | 18km/h | 18207m | 5.3m/s | -55.2°C | 0% | 78.3hPa | 2.6V | 00:00:00 | 00:00:00 | 00:00:00 | |
| PETON7-10 | 2026-09-01 12:10:12 | 47.40024 | 19.88272 | 9° | 15km/h | 18164m | 4.7m/s | -55.6°C | 2.5% | 78.7hPa | 2.6V | 00:00:00 | 00:00:00 | 00:00:00 | |
| OM5KV | 2026-09-01 12:10:06 | 47.40009 | 19.88266 | 36° | 16km/h | 18140m | 7.0m/s | -55.3°C | 0% | 79.1hPa | 2.6V | 00:00:00 | 00:00:00 | 00:00:00 | |
| OM5KV | 2026-09-01 12:09:58 | 47.39986 | 19.88231 | 17° | 11km/h | 18093m | 6.7m/s | -55.1°C | 0% | 79.7hPa | 2.6V | 00:00:00 | 00:00:00 | 00:00:00 | |
| PETON7-10 | 2026-09-01 12:09:56 | 47.39979 | 19.88232 | 353° | 9km/h | 18075m | 4.8m/s | -54.9°C | 2.5% | 79.9hPa | 2.6V | 00:00:00 | 01:15:10 | 00:00:00 | |
| OM5KV | 2026-09-01 12:09:51 | 47.39971 | 19.88231 | 24° | 7km/h | 18052m | 7.4m/s | -54.9°C | 0% | 80.2hPa | 2.6V | 00:00:00 | 00:00:00 | 00:00:00 | |
| OM5KV | 2026-09-01 12:09:45 | 47.39958 | 19.88218 | 26° | 11km/h | 18016m | 5.7m/s | -54.7°C | 0% | 80.7hPa | 2.6V | 00:00:00 | 00:00:00 | 00:00:00 | |
| OM5KV | 2026-09-01 12:09:43 | 47.39952 | 19.88217 | 347° | 11km/h | 18004m | 6.2m/s | -54.5°C | 0% | 80.8hPa | 2.6V | 00:00:00 | 00:00:00 | 00:00:00 | |
| PETON7-10 | 2026-09-01 12:09:41 | 47.39945 | 19.88224 | 320° | 5km/h | 17986m | 5.6m/s | -54.3°C | 2.4% | 81.0hPa | 2.6V | 00:00:00 | 00:00:00 | 00:00:00 | |
| OM5KV | 2026-09-01 12:09:39 | 47.39943 | 19.88227 | 315° | 13km/h | 17980m | 7.2m/s | -54.3°C | 0% | 81.1hPa | 2.6V | 00:00:00 | 00:00:00 | 00:00:00 | |
| OM5KV | 2026-09-01 12:09:38 | 47.39941 | 19.88230 | 307° | 9km/h | 17973m | 5.9m/s | -54.2°C | 0% | 81.2hPa | 2.6V | 00:00:00 | 00:00:00 | 00:00:00 | |
| OM5KV | 2026-09-01 12:09:33 | 47.39937 | 19.88232 | 96° | 4km/h | 17940m | 5.6m/s | -54.2°C | 0% | 81.6hPa | 2.6V | 00:00:00 | 00:00:00 | 00:00:00 | |
| OM5KV | 2026-09-01 12:09:32 | 47.39938 | 19.88230 | 99° | 4km/h | 17934m | 5.9m/s | -54.2°C | 0% | 81.7hPa | 2.6V | 00:00:00 | 00:00:00 | 00:00:00 | |
| PETON7-10 | 2026-09-01 12:09:26 | 47.39934 | 19.88234 | 279° | 5km/h | 17893m | 5.1m/s | -53.7°C | 2.3% | 82.1hPa | 2.6V | 00:00:00 | 00:00:00 | 00:00:00 | |
| OM5KV | 2026-09-01 12:09:18 | 47.39939 | 19.88226 | 127° | 4km/h | 17850m | 6.4m/s | -54.1°C | 0% | 82.7hPa | 2.6V | 00:00:00 | 00:00:00 | 00:00:00 | |
| OM5KV | 2026-09-01 12:09:12 | 47.39946 | 19.88229 | 163° | 7km/h | 17809m | 5.7m/s | -54.5°C | 0% | 83.3hPa | 2.6V | 00:00:00 | 00:00:00 | 00:00:00 | |
| PETON7-10 | 2026-09-01 12:09:10 | 47.39950 | 19.88225 | 141° | 16km/h | 17797m | 3.8m/s | -54.4°C | 2.5% | 83.4hPa | 2.6V | 00:00:00 | 01:14:24 | 00:00:00 | |
| OM5KV | 2026-09-01 12:09:07 | 47.39955 | 19.88218 | 128° | 15km/h | 17784m | 8.0m/s | -54.6°C | 0% | 83.6hPa | 2.6V | 00:00:00 | 00:00:00 | 00:00:00 | |
| OM5KV | 2026-09-01 12:09:06 | 47.39957 | 19.88214 | 115° | 15km/h | 17777m | 4.8m/s | -54.6°C | 0% | 83.7hPa | 2.6V | 00:00:00 | 00:00:00 | 00:00:00 | |
| OM5KV | 2026-09-01 12:09:02 | 47.39964 | 19.88191 | 113° | 18km/h | 17756m | 7.0m/s | -54.5°C | 0% | 83.9hPa | 2.6V | 00:00:00 | 00:00:00 | 00:00:00 | |
| OM5KV | 2026-09-01 12:09:01 | 47.39965 | 19.88184 | 103° | 18km/h | 17749m | 5.4m/s | -54.5°C | 0% | 84.1hPa | 2.6V | 00:00:00 | 00:00:00 | 00:00:00 | |
| PETON7-10 | 2026-09-01 12:08:56 | 47.39979 | 19.88147 | 140° | 24km/h | 17709m | 7.5m/s | -54.0°C | 2.5% | 84.5hPa | 2.6V | 00:00:00 | 00:00:00 | 08:30:00 | |
| OM5KV | 2026-09-01 12:08:50 | 47.39988 | 19.88123 | 94° | 26km/h | 17685m | 6.1m/s | -53.9°C | 0% | 84.9hPa | 2.6V | 00:00:00 | 00:00:00 | 00:00:00 | |
| OM5KV | 2026-09-01 12:08:48 | 47.39989 | 19.88103 | 97° | 29km/h | 17676m | 6.9m/s | -53.8°C | 0% | 85.0hPa | 2.6V | 00:00:00 | 00:00:00 | 00:00:00 | |
| OM5KV | 2026-09-01 12:08:45 | 47.39999 | 19.88065 | 118° | 24km/h | 17650m | 7.6m/s | -53.8°C | 0% | 85.3hPa | 2.6V | 00:00:00 | 00:00:00 | 00:00:00 | |
| OM5KV | 2026-09-01 12:08:43 | 47.40002 | 19.88058 | 120° | 22km/h | 17644m | 4.8m/s | -53.6°C | 0% | 85.4hPa | 2.6V | 00:00:00 | 00:00:00 | 00:00:00 | |
| PETON7-10 | 2026-09-01 12:08:40 | 47.40012 | 19.88027 | 106° | 27km/h | 17621m | 5.9m/s | -53.5°C | 2.4% | 85.7hPa | 2.6V | 00:00:00 | 00:00:00 | 00:00:00 | |
| OM5KV | 2026-09-01 12:08:39 | 47.40014 | 19.88019 | 93° | 22km/h | 17615m | 7.1m/s | -53.7°C | 0.0% | 85.8hPa | 2.6V | 00:00:00 | 00:00:00 | 00:00:00 | |
| OM5KV | 2026-09-01 12:08:36 | 47.40012 | 19.88003 | 83° | 22km/h | 17605m | 4.7m/s | -53.6°C | 0% | 85.9hPa | 2.6V | 00:00:00 | 00:00:00 | 00:00:00 | |
| OM5KV | 2026-09-01 12:08:32 | 47.40017 | 19.87968 | 109° | 29km/h | 17581m | 7.6m/s | -53.6°C | 0% | 86.3hPa | 2.6V | 00:00:00 | 00:00:00 | 00:00:00 | |
| OM5KV | 2026-09-01 12:08:30 | 47.40021 | 19.87945 | 108° | 33km/h | 17567m | 7.6m/s | -53.6°C | 0.0% | 86.5hPa | 2.6V | 00:00:00 | 00:00:00 | 00:00:00 | |
| OM5KV | 2026-09-01 12:08:27 | 47.40029 | 19.87910 | 105° | 33km/h | 17549m | 5.1m/s | -53.8°C | 0% | 86.7hPa | 2.6V | 00:00:00 | 00:00:00 | 00:00:00 | |
| PETON7-10 | 2026-09-01 12:08:25 | 47.40032 | 19.87875 | 96° | 33km/h | 17531m | 4.8m/s | -53.8°C | 2.6% | 86.9hPa | 2.6V | 00:00:00 | 01:13:39 | 00:00:00 | |
| OM5KV | 2026-09-01 12:08:24 | 47.40032 | 19.87875 | 96° | 27km/h | 17531m | 4.8m/s | -53.9°C | 0.0% | 86.9hPa | 2.6V | 00:00:00 | 00:00:00 | 00:00:00 | |
| OM5KV | 2026-09-01 12:08:18 | 47.40040 | 19.87786 | 100° | 35km/h | 17483m | 5.2m/s | -53.7°C | 0.0% | 87.6hPa | 2.6V | 00:00:00 | 00:00:00 | 00:00:00 | |
| OM5KV | 2026-09-01 12:08:12 | 47.40047 | 19.87723 | 95° | 35km/h | 17455m | 6.9m/s | -53.6°C | 0.0% | 88.0hPa | 2.6V | 00:00:00 | 00:00:00 | 00:00:00 | |
| OM5KV | 2026-09-01 12:08:10 | 47.40048 | 19.87710 | 96° | 35km/h | 17448m | 7.6m/s | -53.5°C | 0.0% | 88.1hPa | 2.6V | 00:00:00 | 00:00:00 | 00:00:00 | |
| PETON7-10 | 2026-09-01 12:08:09 | 47.40049 | 19.87682 | 93° | 38km/h | 17435m | 6.4m/s | -53.4°C | 2.4% | 88.2hPa | 2.6V | 00:00:00 | 00:00:00 | 00:00:00 | |
| OM5KV | 2026-09-01 12:08:06 | 47.40051 | 19.87641 | 99° | 37km/h | 17417m | 7.0m/s | -53.7°C | 0.0% | 88.5hPa | 2.7V | 00:00:00 | 00:00:00 | 00:00:00 | |
| OM5KV | 2026-09-01 12:08:04 | 47.40053 | 19.87627 | 104° | 37km/h | 17411m | 5.2m/s | -53.8°C | 0.1% | 88.6hPa | 2.7V | 00:00:00 | 00:00:00 | 00:00:00 | |
| OM5KV | 2026-09-01 12:07:59 | 47.40064 | 19.87562 | 107° | 38km/h | 17381m | 6.1m/s | -54.2°C | 0.1% | 89.0hPa | 2.7V | 00:00:00 | 00:00:00 | 00:00:00 | |
| PETON7-10 | 2026-09-01 12:07:54 | 47.40075 | 19.87473 | 100° | 38km/h | 17344m | 6.7m/s | -54.2°C | 2.6% | 89.5hPa | 2.7V | 00:00:00 | 00:00:00 | 00:00:00 | |
| OM5KV | 2026-09-01 12:07:53 | 47.40075 | 19.87473 | 101° | 40km/h | 17344m | 6.8m/s | -54.2°C | 0.1% | 89.5hPa | 2.7V | 00:00:00 | 00:00:00 | 00:00:00 | |
| OM5KV | 2026-09-01 12:07:48 | 47.40088 | 19.87404 | 106° | 38km/h | 17313m | 5.5m/s | -54.3°C | 0.1% | 89.9hPa | 2.7V | 00:00:00 | 00:00:00 | 00:00:00 | |
| OM5KV | 2026-09-01 12:07:42 | 47.40097 | 19.87319 | 91° | 38km/h | 17276m | 6.9m/s | -54.1°C | 0.1% | 90.5hPa | 2.7V | 00:00:00 | 00:00:00 | 00:00:00 | |
| PETON7-10 | 2026-09-01 12:07:39 | 47.40098 | 19.87266 | 89° | 37km/h | 17252m | 4.7m/s | -54.2°C | 2.7% | 90.8hPa | 2.7V | 00:00:00 | 01:12:53 | 00:00:00 | |
| OM5KV | 2026-09-01 12:07:36 | 47.40098 | 19.87242 | 97° | 35km/h | 17239m | 6.7m/s | -54.2°C | 0.2% | 91.0hPa | 2.7V | 00:00:00 | 00:00:00 | 00:00:00 | |
| OM5KV | 2026-09-01 12:07:32 | 47.40101 | 19.87188 | 93° | 37km/h | 17217m | 6.9m/s | -54.1°C | 0.1% | 91.3hPa | 2.7V | 00:00:00 | 00:00:00 | 00:00:00 | |
| OM5KV | 2026-09-01 12:07:29 | 47.40102 | 19.87147 | 87° | 37km/h | 17199m | 5.9m/s | -54.0°C | 0.1% | 91.5hPa | 2.7V | 00:00:00 | 00:00:00 | 00:00:00 | |
| OM5KV | 2026-09-01 12:07:26 | 47.40100 | 19.87104 | 91° | 42km/h | 17181m | 5.3m/s | -53.9°C | 0.2% | 91.8hPa | 2.7V | 00:00:00 | 00:00:00 | 00:00:00 | |
| PETON7-10 | 2026-09-01 12:07:24 | 47.40101 | 19.87056 | 92° | 46km/h | 17163m | 5.7m/s | -53.8°C | 2.7% | 92.0hPa | 2.7V | 00:00:00 | 00:00:00 | 00:00:00 | |
| OM5KV | 2026-09-01 12:07:21 | 47.40102 | 19.87024 | 96° | 44km/h | 17151m | 5.4m/s | -53.8°C | 0.2% | 92.2hPa | 2.7V | 00:00:00 | 00:00:00 | 00:00:00 | |
| OM5KV | 2026-09-01 12:07:19 | 47.40103 | 19.86991 | 89° | 44km/h | 17140m | 4.2m/s | -53.8°C | 0.2% | 92.4hPa | 2.7V | 00:00:00 | 00:00:00 | 00:00:00 | |
| OM5KV | 2026-09-01 12:07:15 | 47.40099 | 19.86930 | 84° | 42km/h | 17115m | 7.2m/s | -54.4°C | 0.2% | 92.7hPa | 2.7V | 00:00:00 | 00:00:00 | 00:00:00 | |
| OM5KV | 2026-09-01 12:07:14 | 47.40098 | 19.86914 | 84° | 46km/h | 17108m | 4.9m/s | -54.5°C | 0.2% | 92.8hPa | 2.7V | 00:00:00 | 00:00:00 | 00:00:00 | |
| OM5KV | 2026-09-01 12:07:11 | 47.40094 | 19.86844 | 90° | 51km/h | 17084m | 7.2m/s | -54.8°C | 0.2% | 93.2hPa | 2.7V | 00:00:00 | 00:00:00 | 00:00:00 | |
| PETON7-10 | 2026-09-01 12:07:09 | 47.40093 | 19.86804 | 88° | 49km/h | 17073m | 5.2m/s | -54.9°C | 2.8% | 93.3hPa | 2.7V | 00:00:00 | 00:00:00 | 00:00:00 | |
| OM5KV | 2026-09-01 12:07:08 | 47.40093 | 19.86804 | 89° | 55km/h | 17073m | 5.3m/s | -54.9°C | 0.2% | 93.3hPa | 2.7V | 00:00:00 | 00:00:00 | 00:00:00 | |
| OM5KV | 2026-09-01 12:07:06 | 47.40090 | 19.86730 | 81° | 49km/h | 17049m | 5.3m/s | -54.9°C | 0.2% | 93.7hPa | 2.7V | 00:00:00 | 00:00:00 | 00:00:00 | |
| OM5KV | 2026-09-01 12:07:04 | 47.40087 | 19.86712 | 76° | 49km/h | 17044m | 5.3m/s | -54.8°C | 0.2% | 93.8hPa | 2.7V | 00:00:00 | 00:00:00 | 00:00:00 | |
| OM5KV | 2026-09-01 12:06:57 | 47.40056 | 19.86612 | 66° | 49km/h | 17010m | 6.9m/s | -55.1°C | 0.2% | 94.3hPa | 2.7V | 00:00:00 | 00:00:00 | 00:00:00 | |
| PETON7-10 | 2026-09-01 12:06:53 | 47.40041 | 19.86529 | 82° | 42km/h | 16979m | 5.0m/s | -55.5°C | 3.0% | 94.7hPa | 2.7V | 00:00:00 | 01:12:07 | 00:00:00 | |
| OM5KV | 2026-09-01 12:06:52 | 47.40041 | 19.86529 | 83° | 44km/h | 16979m | 5.1m/s | -55.5°C | 0.3% | 94.7hPa | 2.7V | 00:00:00 | 00:00:00 | 00:00:00 | |
| OM5KV | 2026-09-01 12:06:47 | 47.40026 | 19.86448 | 67° | 46km/h | 16950m | 5.1m/s | -55.5°C | 0.3% | 95.2hPa | 2.7V | 00:00:00 | 00:00:00 | 00:00:00 | |
| OM5KV | 2026-09-01 12:06:46 | 47.40021 | 19.86433 | 66° | 46km/h | 16944m | 6.0m/s | -55.6°C | 0.3% | 95.2hPa | 2.7V | 00:00:00 | 00:00:00 | 00:00:00 | |
| OM5KV | 2026-09-01 12:06:41 | 47.40000 | 19.86360 | 71° | 37km/h | 16915m | 7.0m/s | -55.3°C | 0.3% | 95.7hPa | 2.7V | 00:00:00 | 00:00:00 | 00:00:00 | |
| OM5KV | 2026-09-01 12:06:40 | 47.39997 | 19.86348 | 78° | 33km/h | 16908m | 4.8m/s | -55.3°C | 0.3% | 95.8hPa | 2.7V | 00:00:00 | 00:00:00 | 00:00:00 | |
| PETON7-10 | 2026-09-01 12:06:38 | 47.39993 | 19.86314 | 80° | 37km/h | 16891m | 5.4m/s | -55.1°C | 3.0% | 96.0hPa | 2.7V | 00:00:00 | 00:00:00 | 08:30:00 | |
| OM5KV | 2026-09-01 12:06:36 | 47.39992 | 19.86304 | 80° | 31km/h | 16885m | 7.0m/s | -55.1°C | 0.3% | 96.1hPa | 2.7V | 00:00:00 | 00:00:00 | 00:00:00 | |
| OM5KV | 2026-09-01 12:06:35 | 47.39990 | 19.86292 | 76° | 35km/h | 16879m | 4.8m/s | -55.1°C | 0.3% | 96.2hPa | 2.7V | 00:00:00 | 00:00:00 | 00:00:00 | |
| OM5KV | 2026-09-01 12:06:30 | 47.39973 | 19.86227 | 68° | 42km/h | 16851m | 5.4m/s | -55.2°C | 0.3% | 96.6hPa | 2.7V | 00:00:00 | 00:00:00 | 00:00:00 | |
| OM5KV | 2026-09-01 12:06:29 | 47.39968 | 19.86212 | 66° | 44km/h | 16845m | 7.6m/s | -55.2°C | 0.3% | 96.7hPa | 2.7V | 00:00:00 | 00:00:00 | 00:00:00 | |
| OM5KV | 2026-09-01 12:06:25 | 47.39953 | 19.86157 | 76° | 37km/h | 16823m | 6.1m/s | -55.0°C | 0.3% | 97.1hPa | 2.7V | 00:00:00 | 00:00:00 | 00:00:00 | |
| PETON7-10 | 2026-09-01 12:06:23 | 47.39948 | 19.86125 | 79° | 31km/h | 16804m | 6.7m/s | -54.6°C | 2.9% | 97.3hPa | 2.7V | 00:00:00 | 00:00:00 | 00:00:00 | |
| OM5KV | 2026-09-01 12:06:20 | 47.39944 | 19.86098 | 74° | 26km/h | 16786m | 6.0m/s | -54.6°C | 0.3% | 97.6hPa | 2.7V | 00:00:00 | 00:00:00 | 00:00:00 | |
| OM5KV | 2026-09-01 12:06:18 | 47.39942 | 19.86088 | 71° | 27km/h | 16781m | 5.1m/s | -54.7°C | 0.3% | 97.7hPa | 2.7V | 00:00:00 | 00:00:00 | 00:00:00 | |
| OM5KV | 2026-09-01 12:06:16 | 47.39932 | 19.86042 | 73° | 35km/h | 16757m | 6.8m/s | -54.8°C | 0.3% | 98.1hPa | 2.7V | 00:00:00 | 00:00:00 | 00:00:00 | |
| OM5KV | 2026-09-01 12:06:12 | 47.39927 | 19.86018 | 72° | 37km/h | 16744m | 6.9m/s | -54.9°C | 0.3% | 98.2hPa | 2.7V | 00:00:00 | 00:00:00 | 00:00:00 | |
| PETON7-10 | 2026-09-01 12:06:08 | 47.39915 | 19.85960 | 76° | 27km/h | 16714m | 6.7m/s | -55.4°C | 2.9% | 98.7hPa | 2.7V | 00:00:00 | 01:11:22 | 00:00:00 | |
| OM5KV | 2026-09-01 12:06:06 | 47.39914 | 19.85951 | 80° | 26km/h | 16708m | 5.1m/s | -56.0°C | 0.4% | 98.8hPa | 2.7V | 00:00:00 | 00:00:00 | 00:00:00 | |
| OM5KV | 2026-09-01 12:05:56 | 47.39910 | 19.85847 | 98° | 27km/h | 16650m | 6.4m/s | -56.1°C | 0.4% | 99.7hPa | 2.7V | 00:00:00 | 00:00:00 | 00:00:00 | |
| OM5KV | 2026-09-01 12:05:54 | 47.39911 | 19.85828 | 95° | 26km/h | 16639m | 5.6m/s | -56.0°C | 0.4% | 99.9hPa | 2.7V | 00:00:00 | 00:00:00 | 00:00:00 | |
| PETON7-10 | 2026-09-01 12:05:53 | 47.39912 | 19.85808 | 95° | 29km/h | 16629m | 5.3m/s | -56.2°C | 3.2% | 100.0hPa | 2.7V | 00:00:00 | 00:00:00 | 00:00:00 | |
| OM5KV | 2026-09-01 12:05:50 | 47.39914 | 19.85777 | 95° | 29km/h | 16611m | 5.8m/s | -56.1°C | 0.4% | 100.3hPa | 2.7V | 00:00:00 | 00:00:00 | 00:00:00 | |
| OM5KV | 2026-09-01 12:05:45 | 47.39916 | 19.85730 | 91° | 31km/h | 16588m | 5.7m/s | -56.0°C | 0.4% | 100.7hPa | 2.7V | 00:00:00 | 00:00:00 | 00:00:00 | |
| OM5KV | 2026-09-01 12:05:44 | 47.39916 | 19.85707 | 91° | 29km/h | 16577m | 6.4m/s | -56.0°C | 0.4% | 100.8hPa | 2.7V | 00:00:00 | 00:00:00 | 00:00:00 | |
| OM5KV | 2026-09-01 12:05:40 | 47.39912 | 19.85667 | 80° | 27km/h | 16552m | 4.4m/s | -55.8°C | 0.5% | 101.3hPa | 2.7V | 00:00:00 | 00:00:00 | 00:00:00 | |
| PETON7-10 | 2026-09-01 12:05:38 | 47.39909 | 19.85647 | 73° | 33km/h | 16541m | 6.8m/s | -55.8°C | 3.2% | 101.4hPa | 2.7V | 00:00:00 | 00:00:00 | 00:00:00 | |
| OM5KV | 2026-09-01 12:05:31 | 47.39893 | 19.85562 | 84° | 33km/h | 16502m | 6.5m/s | -56.1°C | 0.5% | 102.0hPa | 2.7V | 00:00:00 | 00:00:00 | 00:00:00 | |
| OM5KV | 2026-09-01 12:05:28 | 47.39892 | 19.85540 | 86° | 29km/h | 16491m | 4.8m/s | -56.0°C | 0.5% | 102.2hPa | 2.7V | 00:00:00 | 00:00:00 | 00:00:00 | |
| OM5KV | 2026-09-01 12:05:25 | 47.39888 | 19.85506 | 79° | 35km/h | 16475m | 5.7m/s | -55.9°C | 0.5% | 102.5hPa | 2.7V | 00:00:00 | 00:00:00 | 00:00:00 | |
| PETON7-10 | 2026-09-01 12:05:23 | 47.39882 | 19.85464 | 80° | 44km/h | 16459m | 5.8m/s | -55.7°C | 3.4% | 102.7hPa | 2.7V | 00:00:00 | 01:10:37 | 00:00:00 | |
| OM5KV | 2026-09-01 12:05:17 | 47.39870 | 19.85381 | 78° | 49km/h | 16430m | 6.0m/s | -55.5°C | 0.5% | 103.2hPa | 2.7V | 00:00:00 | 00:00:00 | 00:00:00 | |
| OM5KV | 2026-09-01 12:05:14 | 47.39862 | 19.85329 | 74° | 46km/h | 16412m | 6.0m/s | -55.4°C | 0.5% | 103.5hPa | 2.7V | 00:00:00 | 00:00:00 | 00:00:00 | |
| OM5KV | 2026-09-01 12:05:08 | 47.39845 | 19.85236 | 79° | 40km/h | 16377m | 6.9m/s | -55.2°C | 0.6% | 104.1hPa | 2.7V | 00:00:00 | 00:00:00 | 00:00:00 | |
| OM5KV | 2026-09-01 12:05:05 | 47.39841 | 19.85189 | 83° | 44km/h | 16359m | 7.7m/s | -55.0°C | 0.6% | 104.4hPa | 2.7V | 00:00:00 | 00:00:00 | 00:00:00 | |
| OM5KV | 2026-09-01 12:05:00 | 47.39832 | 19.85109 | 82° | 44km/h | 16331m | 7.4m/s | -54.8°C | 0.6% | 104.8hPa | 2.7V | 00:00:00 | 00:00:00 | 00:00:00 | |
| OM5KV | 2026-09-01 12:04:57 | 47.39825 | 19.85046 | 84° | 44km/h | 16309m | 6.4m/s | -54.7°C | 0.6% | 105.2hPa | 2.7V | 00:00:00 | 00:00:00 | 00:00:00 | |
| OM5KV | 2026-09-01 12:04:55 | 47.39824 | 19.85030 | 84° | 42km/h | 16301m | 7.9m/s | -54.7°C | 0.6% | 105.3hPa | 2.7V | 00:00:00 | 00:00:00 | 00:00:00 | |
| PETON7-10 | 2026-09-01 12:04:53 | 47.39821 | 19.84983 | 86° | 46km/h | 16283m | 6.3m/s | -54.5°C | 3.3% | 105.6hPa | 2.7V | 00:00:00 | 00:00:00 | 00:00:00 | |
| OM5KV | 2026-09-01 12:04:50 | 47.39819 | 19.84950 | 85° | 44km/h | 16272m | 5.6m/s | -54.5°C | 0.6% | 105.8hPa | 2.7V | 00:00:00 | 00:00:00 | 00:00:00 | |
| OM5KV | 2026-09-01 12:04:45 | 47.39812 | 19.84869 | 84° | 44km/h | 16242m | 6.7m/s | -54.5°C | 0.6% | 106.3hPa | 2.7V | 00:00:00 | 00:00:00 | 00:00:00 | |
| OM5KV | 2026-09-01 12:04:44 | 47.39811 | 19.84853 | 84° | 42km/h | 16236m | 5.7m/s | -54.6°C | 0.6% | 106.4hPa | 2.7V | 00:00:00 | 00:00:00 | 00:00:00 | |
| OM5KV | 2026-09-01 12:04:40 | 47.39807 | 19.84786 | 87° | 46km/h | 16211m | 6.2m/s | -54.5°C | 0.6% | 106.8hPa | 2.7V | 00:00:00 | 00:00:00 | 00:00:00 | |
| PETON7-10 | 2026-09-01 12:04:38 | 47.39804 | 19.84731 | 87° | 53km/h | 16194m | 5.5m/s | -54.3°C | 3.2% | 107.0hPa | 2.7V | 00:00:00 | 01:09:52 | 00:00:00 | |
| OM5KV | 2026-09-01 12:04:23 | 47.39796 | 19.84433 | 85° | 53km/h | 16106m | 6.3m/s | -55.4°C | 0.7% | 108.6hPa | 2.7V | 00:00:00 | 00:00:00 | 00:00:00 | |
| OM5KV | 2026-09-01 12:04:21 | 47.39795 | 19.84414 | 82° | 55km/h | 16101m | 5.2m/s | -55.4°C | 0.7% | 108.7hPa | 2.7V | 00:00:00 | 00:00:00 | 00:00:00 | |
| OM5KV | 2026-09-01 12:04:17 | 47.39783 | 19.84327 | 80° | 60km/h | 16077m | 6.1m/s | -55.4°C | 0.7% | 109.1hPa | 2.7V | 00:00:00 | 00:00:00 | 00:00:00 | |
| OM5KV | 2026-09-01 12:04:16 | 47.39781 | 19.84306 | 82° | 60km/h | 16071m | 6.2m/s | -55.5°C | 0.7% | 109.2hPa | 2.7V | 00:00:00 | 00:00:00 | 00:00:00 | |
| OM5KV | 2026-09-01 12:04:12 | 47.39776 | 19.84212 | 89° | 62km/h | 16046m | 5.7m/s | -55.6°C | 0.8% | 109.6hPa | 2.7V | 00:00:00 | 00:00:00 | 00:00:00 | |
| OM5KV | 2026-09-01 12:04:10 | 47.39775 | 19.84165 | 90° | 66km/h | 16034m | 5.3m/s | -55.8°C | 0.8% | 109.8hPa | 2.7V | 00:00:00 | 00:00:00 | 00:00:00 | |
| PETON7-10 | 2026-09-01 12:04:08 | 47.39773 | 19.84092 | 86° | 64km/h | 16016m | 6.3m/s | -55.6°C | 3.6% | 110.1hPa | 2.7V | 00:00:00 | 00:00:00 | 00:00:00 | |
| OM5KV | 2026-09-01 12:04:06 | 47.39771 | 19.84068 | 87° | 66km/h | 16010m | 5.8m/s | -55.7°C | 0.8% | 110.2hPa | 2.7V | 00:00:00 | 00:00:00 | 00:00:00 | |
| OM5KV | 2026-09-01 12:04:00 | 47.39764 | 19.83920 | 90° | 64km/h | 15974m | 5.7m/s | -55.8°C | 0.8% | 110.8hPa | 2.7V | 00:00:00 | 00:00:00 | 00:00:00 | |
| OM5KV | 2026-09-01 12:03:59 | 47.39763 | 19.83896 | 88° | 62km/h | 15969m | 5.5m/s | -55.9°C | 0.8% | 110.9hPa | 2.7V | 00:00:00 | 00:00:00 | 00:00:00 | |
| OM5KV | 2026-09-01 12:03:55 | 47.39756 | 19.83804 | 81° | 62km/h | 15946m | 8.0m/s | -55.9°C | 0.9% | 111.3hPa | 2.7V | 00:00:00 | 00:00:00 | 00:00:00 | |
| PETON7-10 | 2026-09-01 12:03:53 | 47.39746 | 19.83737 | 77° | 62km/h | 15925m | 7.6m/s | -55.5°C | 3.6% | 111.6hPa | 2.7V | 00:00:00 | 01:09:07 | 00:00:00 | |
| OM5KV | 2026-09-01 12:03:49 | 47.39734 | 19.83669 | 74° | 66km/h | 15909m | 4.3m/s | -55.6°C | 0.8% | 112.0hPa | 2.7V | 00:00:00 | 00:00:00 | 00:00:00 | |
| OM5KV | 2026-09-01 12:03:47 | 47.39724 | 19.83622 | 75° | 66km/h | 15897m | 6.9m/s | -55.6°C | 0.8% | 112.2hPa | 2.7V | 00:00:00 | 00:00:00 | 00:00:00 | |
| OM5KV | 2026-09-01 12:03:43 | 47.39710 | 19.83533 | 82° | 58km/h | 15873m | 7.1m/s | -55.6°C | 0.9% | 112.6hPa | 2.7V | 00:00:00 | 00:00:00 | 00:00:00 | |
| PETON7-10 | 2026-09-01 12:03:38 | 47.39701 | 19.83400 | 83° | 64km/h | 15837m | 5.4m/s | -55.4°C | 3.8% | 113.1hPa | 2.7V | 00:00:00 | 00:00:00 | 00:00:00 | |
| OM5KV | 2026-09-01 12:03:35 | 47.39695 | 19.83354 | 77° | 62km/h | 15825m | 5.3m/s | -55.5°C | 0.9% | 113.4hPa | 2.7V | 00:00:00 | 00:00:00 | 00:00:00 | |
| OM5KV | 2026-09-01 12:03:33 | 47.39687 | 19.83311 | 75° | 57km/h | 15814m | 5.0m/s | -55.4°C | 0.9% | 113.6hPa | 2.7V | 00:00:00 | 00:00:00 | 00:00:00 | |
| OM5KV | 2026-09-01 12:03:30 | 47.39675 | 19.83250 | 74° | 58km/h | 15797m | 5.8m/s | -55.4°C | 1.0% | 113.9hPa | 2.7V | 00:00:00 | 00:00:00 | 00:00:00 | |
| OM5KV | 2026-09-01 12:03:26 | 47.39660 | 19.83158 | 78° | 69km/h | 15773m | 5.0m/s | -55.4°C | 1.0% | 114.4hPa | 2.7V | 00:00:00 | 00:00:00 | 00:00:00 | |
| PETON7-10 | 2026-09-01 12:03:23 | 47.39645 | 19.83057 | 78° | 66km/h | 15751m | 6.4m/s | -55.3°C | 3.8% | 114.7hPa | 2.7V | 00:00:00 | 00:00:00 | 00:00:00 | |
| OM5KV | 2026-09-01 12:03:19 | 47.39633 | 19.82982 | 77° | 64km/h | 15733m | 5.1m/s | -55.2°C | 1.0% | 115.1hPa | 2.7V | 00:00:00 | 00:00:00 | 00:00:00 | |
| OM5KV | 2026-09-01 12:03:16 | 47.39615 | 19.82891 | 74° | 62km/h | 15710m | 5.0m/s | -55.1°C | 1.1% | 115.5hPa | 2.7V | 00:00:00 | 00:00:00 | 00:00:00 | |
| OM5KV | 2026-09-01 12:03:13 | 47.39606 | 19.82845 | 75° | 66km/h | 15698m | 6.6m/s | -54.9°C | 1.1% | 115.7hPa | 2.7V | 00:00:00 | 00:00:00 | 00:00:00 | |
| OM5KV | 2026-09-01 12:03:11 | 47.39587 | 19.82749 | 74° | 66km/h | 15676m | 6.1m/s | -54.8°C | 1.0% | 116.1hPa | 2.7V | 00:00:00 | 00:00:00 | 00:00:00 | |
| PETON7-10 | 2026-09-01 12:03:08 | 47.39577 | 19.82703 | 71° | 62km/h | 15665m | 6.0m/s | -54.6°C | 3.8% | 116.3hPa | 2.7V | 00:00:00 | 01:08:22 | 00:00:00 | |
| OM5KV | 2026-09-01 12:03:06 | 47.39571 | 19.82681 | 72° | 62km/h | 15658m | 6.0m/s | -54.6°C | 1.1% | 116.4hPa | 2.7V | 00:00:00 | 00:00:00 | 00:00:00 | |
| OM5KV | 2026-09-01 12:02:58 | 47.39530 | 19.82511 | 74° | 62km/h | 15614m | 6.4m/s | -54.7°C | 1.2% | 117.2hPa | 2.7V | 00:00:00 | 00:00:00 | 00:00:00 | |
| OM5KV | 2026-09-01 12:02:54 | 47.39512 | 19.82421 | 72° | 64km/h | 15591m | 4.8m/s | -54.6°C | 1.2% | 117.6hPa | 2.7V | 00:00:00 | 00:00:00 | 00:00:00 | |
| PETON7-10 | 2026-09-01 12:02:53 | 47.39502 | 19.82377 | 72° | 58km/h | 15580m | 5.4m/s | -54.7°C | 4.0% | 117.8hPa | 2.7V | 00:00:00 | 00:00:00 | 00:00:00 | |
| OM5KV | 2026-09-01 12:02:52 | 47.39502 | 19.82377 | 72° | 60km/h | 15580m | 5.4m/s | -54.7°C | 1.2% | 117.9hPa | 2.7V | 00:00:00 | 00:00:00 | 00:00:00 | |
| OM5KV | 2026-09-01 12:02:48 | 47.39477 | 19.82275 | 75° | 57km/h | 15553m | 4.6m/s | -54.7°C | 1.2% | 118.3hPa | 2.7V | 00:00:00 | 00:00:00 | 00:00:00 | |
| OM5KV | 2026-09-01 12:02:43 | 47.39455 | 19.82174 | 75° | 57km/h | 15526m | 5.5m/s | -54.8°C | 1.2% | 118.8hPa | 2.7V | 00:00:00 | 00:00:00 | 00:00:00 | |
| OM5KV | 2026-09-01 12:02:41 | 47.39451 | 19.82153 | 76° | 57km/h | 15520m | 4.9m/s | -54.8°C | 1.2% | 119.0hPa | 2.7V | 00:00:00 | 00:00:00 | 00:00:00 | |
| OM5KV | 2026-09-01 12:02:38 | 47.39440 | 19.82066 | 84° | 64km/h | 15499m | 6.0m/s | -55.0°C | 1.2% | 119.4hPa | 2.7V | 00:00:00 | 00:00:00 | 00:00:00 | |
| OM5KV | 2026-09-01 12:02:32 | 47.39428 | 19.81920 | 82° | 66km/h | 15464m | 4.9m/s | -55.1°C | 1.3% | 120.0hPa | 2.7V | 00:00:00 | 00:00:00 | 00:00:00 | |
| OM5KV | 2026-09-01 12:02:30 | 47.39425 | 19.81895 | 83° | 66km/h | 15459m | 6.2m/s | -55.0°C | 1.3% | 120.1hPa | 2.7V | 00:00:00 | 00:00:00 | 00:00:00 | |
| PETON7-10 | 2026-09-01 12:02:23 | 47.39410 | 19.81682 | 83° | 77km/h | 15415m | 5.3m/s | -55.3°C | 4.1% | 120.9hPa | 2.7V | 00:00:00 | 01:07:37 | 00:00:00 | |
| OM5KV | 2026-09-01 12:02:19 | 47.39403 | 19.81598 | 84° | 75km/h | 15398m | 6.4m/s | -55.8°C | 1.4% | 121.2hPa | 2.7V | 00:00:00 | 00:00:00 | 00:00:00 | |
| OM5KV | 2026-09-01 12:02:13 | 47.39393 | 19.81429 | 87° | 80km/h | 15366m | 4.3m/s | -55.7°C | 1.4% | 121.8hPa | 2.7V | 00:00:00 | 00:00:00 | 00:00:00 | |
| OM5KV | 2026-09-01 12:02:12 | 47.39391 | 19.81399 | 87° | 80km/h | 15360m | 7.1m/s | -55.8°C | 1.5% | 122.0hPa | 2.7V | 00:00:00 | 00:00:00 | 00:00:00 | |
| PETON7-10 | 2026-09-01 12:02:09 | 47.39380 | 19.81252 | 81° | 77km/h | 15332m | 7.2m/s | -55.7°C | 4.3% | 122.5hPa | 2.7V | 00:00:00 | 00:00:00 | 08:30:00 | |
| OM5KV | 2026-09-01 12:02:07 | 47.39376 | 19.81223 | 82° | 80km/h | 15326m | 4.6m/s | -55.7°C | 1.5% | 122.6hPa | 2.7V | 00:00:00 | 00:00:00 | 00:00:00 | |
| OM5KV | 2026-09-01 12:02:02 | 47.39364 | 19.81110 | 86° | 73km/h | 15304m | 5.4m/s | -55.9°C | 1.5% | 123.0hPa | 2.7V | 00:00:00 | 00:00:00 | 00:00:00 | |
| OM5KV | 2026-09-01 12:02:01 | 47.39363 | 19.81083 | 88° | 71km/h | 15298m | 6.2m/s | -55.8°C | 1.5% | 123.1hPa | 2.7V | 00:00:00 | 00:00:00 | 00:00:00 | |
| OM5KV | 2026-09-01 12:01:56 | 47.39359 | 19.80944 | 87° | 78km/h | 15270m | 6.0m/s | -55.7°C | 1.5% | 123.7hPa | 2.7V | 00:00:00 | 00:00:00 | 00:00:00 | |
| PETON7-10 | 2026-09-01 12:01:53 | 47.39352 | 19.80830 | 84° | 73km/h | 15248m | 6.4m/s | -55.9°C | 4.3% | 124.0hPa | 2.7V | 00:00:00 | 00:00:00 | 00:00:00 | |
| OM5KV | 2026-09-01 12:01:51 | 47.39350 | 19.80804 | 82° | 68km/h | 15242m | 5.3m/s | -55.9°C | 1.5% | 124.2hPa | 2.7V | 00:00:00 | 00:00:00 | 00:00:00 | |
| OM5KV | 2026-09-01 12:01:50 | 47.39347 | 19.80780 | 82° | 66km/h | 15236m | 5.5m/s | -56.1°C | 1.5% | 124.3hPa | 2.7V | 00:00:00 | 00:00:00 | 00:00:00 | |
| OM5KV | 2026-09-01 12:01:45 | 47.39340 | 19.80653 | 91° | 75km/h | 15208m | 5.8m/s | -56.3°C | 1.6% | 124.9hPa | 2.7V | 00:00:00 | 00:00:00 | 00:00:00 | |
| OM5KV | 2026-09-01 12:01:44 | 47.39341 | 19.80625 | 94° | 77km/h | 15203m | 5.6m/s | -56.4°C | 1.6% | 125.0hPa | 2.7V | 00:00:00 | 00:00:00 | 00:00:00 | |
| OM5KV | 2026-09-01 12:01:39 | 47.39348 | 19.80479 | 94° | 77km/h | 15174m | 5.5m/s | -56.5°C | 1.6% | 125.6hPa | 2.7V | 00:00:00 | 00:00:00 | 00:00:00 | |
| PETON7-10 | 2026-09-01 12:01:38 | 47.39348 | 19.80421 | 86° | 80km/h | 15162m | 4.7m/s | -56.8°C | 4.7% | 125.8hPa | 2.7V | 00:00:00 | 01:06:52 | 00:00:00 | |
| OM5KV | 2026-09-01 12:01:33 | 47.39338 | 19.80308 | 83° | 78km/h | 15139m | 5.1m/s | -56.8°C | 1.8% | 126.3hPa | 2.7V | 00:00:00 | 00:00:00 | 00:00:00 | |
| OM5KV | 2026-09-01 12:01:28 | 47.39333 | 19.80125 | 92° | 86km/h | 15105m | 6.9m/s | -56.5°C | 1.7% | 127.0hPa | 2.7V | 00:00:00 | 00:00:00 | 00:00:00 | |
| PETON7-10 | 2026-09-01 12:01:23 | 47.39328 | 19.79974 | 85° | 77km/h | 15076m | 6.7m/s | -56.6°C | 4.8% | 127.5hPa | 2.7V | 00:00:00 | 00:00:00 | 00:00:00 | |
| OM5KV | 2026-09-01 12:01:22 | 47.39326 | 19.79946 | 86° | 75km/h | 15070m | 5.3m/s | -56.5°C | 1.8% | 127.7hPa | 2.7V | 00:00:00 | 00:00:00 | 00:00:00 | |
| OM5KV | 2026-09-01 12:01:16 | 47.39325 | 19.79808 | 95° | 73km/h | 15042m | 6.4m/s | -56.8°C | 1.9% | 128.2hPa | 2.7V | 00:00:00 | 00:00:00 | 00:00:00 | |
| OM5KV | 2026-09-01 12:01:15 | 47.39326 | 19.79780 | 97° | 77km/h | 15035m | 5.5m/s | -56.7°C | 1.9% | 128.4hPa | 2.7V | 00:00:00 | 00:00:00 | 00:00:00 | |
| OM5KV | 2026-09-01 12:01:10 | 47.39335 | 19.79636 | 92° | 80km/h | 15007m | 5.4m/s | -56.8°C | 1.9% | 128.9hPa | 2.7V | 00:00:00 | 00:00:00 | 00:00:00 | |
| PETON7-10 | 2026-09-01 12:01:08 | 47.39335 | 19.79548 | 89° | 80km/h | 14989m | 5.8m/s | -56.7°C | 4.9% | 129.2hPa | 2.7V | 00:00:00 | 00:00:00 | 00:00:00 | |
| OM5KV | 2026-09-01 12:01:05 | 47.39335 | 19.79462 | 93° | 75km/h | 14973m | 5.5m/s | -56.8°C | 1.9% | 129.6hPa | 2.7V | 00:00:00 | 00:00:00 | 00:00:00 | |
| OM5KV | 2026-09-01 12:01:02 | 47.39338 | 19.79406 | 97° | 78km/h | 14961m | 5.5m/s | -56.7°C | 1.9% | 129.9hPa | 2.7V | 00:00:00 | 00:00:00 | 00:00:00 | |
| OM5KV | 2026-09-01 12:00:58 | 47.39353 | 19.79289 | 104° | 84km/h | 14939m | 6.2m/s | -56.6°C | 2.0% | 130.3hPa | 2.7V | 00:00:00 | 00:00:00 | 00:00:00 | |
| PETON7-10 | 2026-09-01 12:00:54 | 47.39371 | 19.79107 | 96° | 82km/h | 14904m | 6.7m/s | -56.4°C | 5.3% | 131.0hPa | 2.7V | 00:00:00 | 01:06:07 | 00:00:00 | |
| OM5KV | 2026-09-01 12:00:53 | 47.39371 | 19.79107 | 96° | 78km/h | 14904m | 6.7m/s | -56.5°C | 2.1% | 131.0hPa | 2.7V | 00:00:00 | 00:00:00 | 00:00:00 | |
| OM5KV | 2026-09-01 12:00:51 | 47.39373 | 19.79079 | 96° | 77km/h | 14898m | 5.7m/s | -56.4°C | 2.1% | 131.2hPa | 2.7V | 00:00:00 | 00:00:00 | 00:00:00 | |
| OM5KV | 2026-09-01 12:00:46 | 47.39386 | 19.78935 | 102° | 80km/h | 14868m | 6.9m/s | -56.4°C | 2.0% | 131.7hPa | 2.7V | 00:00:00 | 00:00:00 | 00:00:00 | |
| OM5KV | 2026-09-01 12:00:45 | 47.39390 | 19.78905 | 102° | 84km/h | 14862m | 5.0m/s | -56.4°C | 2.0% | 131.9hPa | 2.7V | 00:00:00 | 00:00:00 | 00:00:00 | |
| OM5KV | 2026-09-01 12:00:40 | 47.39405 | 19.78749 | 95° | 88km/h | 14834m | 5.0m/s | -56.3°C | 2.0% | 132.5hPa | 2.7V | 00:00:00 | 00:00:00 | 00:00:00 | |
| PETON7-10 | 2026-09-01 12:00:38 | 47.39407 | 19.78653 | 91° | 86km/h | 14816m | 5.6m/s | -56.2°C | 5.1% | 132.8hPa | 2.7V | 00:00:00 | 00:00:00 | 00:00:00 | |
| OM5KV | 2026-09-01 12:00:35 | 47.39408 | 19.78558 | 90° | 84km/h | 14797m | 5.9m/s | -56.2°C | 2.2% | 133.2hPa | 2.7V | 00:00:00 | 00:00:00 | 00:00:00 | |
| OM5KV | 2026-09-01 12:00:28 | 47.39405 | 19.78370 | 90° | 84km/h | 14763m | 7.0m/s | -56.3°C | 2.2% | 134.0hPa | 2.7V | 00:00:00 | 00:00:00 | 00:00:00 | |
| PETON7-10 | 2026-09-01 12:00:23 | 47.39397 | 19.78173 | 86° | 88km/h | 14732m | 5.0m/s | -56.4°C | 5.4% | 134.6hPa | 2.7V | 00:00:00 | 00:00:00 | 00:00:00 | |
| OM5KV | 2026-09-01 12:00:21 | 47.39395 | 19.78139 | 86° | 91km/h | 14727m | 5.9m/s | -56.5°C | 2.3% | 134.7hPa | 2.7V | 00:00:00 | 00:00:00 | 00:00:00 | |
| OM5KV | 2026-09-01 12:00:18 | 47.39393 | 19.77975 | 92° | 84km/h | 14701m | 5.7m/s | -56.2°C | 2.3% | 135.3hPa | 2.7V | 00:00:00 | 00:00:00 | 00:00:00 | |
| PETON7-10 | 2026-09-01 12:00:08 | 47.39399 | 19.77684 | 88° | 91km/h | 14656m | 4.3m/s | -55.9°C | 5.5% | 136.2hPa | 2.7V | 00:00:00 | 01:05:22 | 00:00:00 | |
| OM5KV | 2026-09-01 12:00:06 | 47.39398 | 19.77648 | 89° | 97km/h | 14651m | 6.2m/s | -55.9°C | 2.4% | 136.4hPa | 2.7V | 00:00:00 | 00:00:00 | 00:00:00 | |
| OM5KV | 2026-09-01 12:00:00 | 47.39391 | 19.77447 | 88° | 86km/h | 14619m | 6.7m/s | -55.9°C | 2.5% | 137.0hPa | 2.7V | 00:00:00 | 00:00:00 | 00:00:00 | |
| OM5KV | 2026-09-01 11:59:59 | 47.39390 | 19.77414 | 86° | 88km/h | 14612m | 6.4m/s | -55.9°C | 2.5% | 137.2hPa | 2.7V | 00:00:00 | 00:00:00 | 00:00:00 | |
| OM5KV | 2026-09-01 11:59:55 | 47.39380 | 19.77245 | 86° | 97km/h | 14584m | 4.8m/s | -55.8°C | 2.6% | 137.8hPa | 2.7V | 00:00:00 | 00:00:00 | 00:00:00 | |
| OM5KV | 2026-09-01 11:59:54 | 47.39379 | 19.77208 | 87° | 97km/h | 14578m | 6.7m/s | -55.8°C | 2.6% | 137.9hPa | 2.7V | 00:00:00 | 00:00:00 | 00:00:00 | |
| PETON7-10 | 2026-09-01 11:59:53 | 47.39377 | 19.77172 | 88° | 95km/h | 14572m | 4.3m/s | -55.8°C | 5.7% | 138.0hPa | 2.7V | 00:00:00 | 00:00:00 | 08:30:00 | |
| OM5KV | 2026-09-01 11:59:48 | 47.39367 | 19.76990 | 85° | 93km/h | 14545m | 5.5m/s | -55.9°C | 2.6% | 138.6hPa | 2.7V | 00:00:00 | 00:00:00 | 00:00:00 | |
| OM5KV | 2026-09-01 11:59:42 | 47.39352 | 19.76821 | 84° | 93km/h | 14517m | 5.2m/s | -55.7°C | 2.7% | 139.2hPa | 2.7V | 00:00:00 | 00:00:00 | 00:00:00 | |
| PETON7-10 | 2026-09-01 11:59:38 | 47.39335 | 19.76645 | 82° | 93km/h | 14490m | 5.5m/s | -55.6°C | 5.8% | 139.8hPa | 2.7V | 00:00:00 | 00:00:00 | 00:00:00 | |
| OM5KV | 2026-09-01 11:59:37 | 47.39331 | 19.76609 | 81° | 97km/h | 14484m | 5.6m/s | -55.5°C | 2.8% | 139.9hPa | 2.7V | 00:00:00 | 00:00:00 | 00:00:00 | |
| OM5KV | 2026-09-01 11:59:35 | 47.39327 | 19.76574 | 81° | 95km/h | 14479m | 4.1m/s | -55.4°C | 2.7% | 140.1hPa | 2.7V | 00:00:00 | 00:00:00 | 00:00:00 | |
| OM5KV | 2026-09-01 11:59:31 | 47.39314 | 19.76440 | 82° | 89km/h | 14458m | 6.4m/s | -55.6°C | 2.8% | 140.5hPa | 2.7V | 00:00:00 | 00:00:00 | 00:00:00 | |
| OM5KV | 2026-09-01 11:59:30 | 47.39310 | 19.76407 | 83° | 89km/h | 14453m | 3.9m/s | -55.5°C | 2.7% | 140.6hPa | 2.7V | 00:00:00 | 00:00:00 | 00:00:00 | |
| OM5KV | 2026-09-01 11:59:26 | 47.39301 | 19.76270 | 86° | 97km/h | 14433m | 4.6m/s | -55.5°C | 2.8% | 141.1hPa | 2.7V | 00:00:00 | 00:00:00 | 00:00:00 | |
| OM5KV | 2026-09-01 11:59:25 | 47.39299 | 19.76234 | 87° | 97km/h | 14427m | 5.4m/s | -55.6°C | 2.8% | 141.2hPa | 2.7V | 00:00:00 | 00:00:00 | 00:00:00 | |
| PETON7-10 | 2026-09-01 11:59:23 | 47.39295 | 19.76129 | 86° | 88km/h | 14413m | 5.4m/s | -55.5°C | 6.0% | 141.4hPa | 2.7V | 00:00:00 | 01:04:37 | 00:00:00 | |
| OM5KV | 2026-09-01 11:59:15 | 47.39267 | 19.75877 | 82° | 86km/h | 14372m | 4.3m/s | -55.4°C | 3.0% | 142.4hPa | 2.7V | 00:00:00 | 00:00:00 | 00:00:00 | |
| OM5KV | 2026-09-01 11:59:09 | 47.39254 | 19.75712 | 84° | 93km/h | 14344m | 5.3m/s | -55.7°C | 2.9% | 143.0hPa | 2.7V | 00:00:00 | 00:00:00 | 00:00:00 | |
| PETON7-10 | 2026-09-01 11:59:08 | 47.39250 | 19.75644 | 86° | 93km/h | 14332m | 5.7m/s | -55.6°C | 6.0% | 143.3hPa | 2.7V | 00:00:00 | 00:00:00 | 00:00:00 | |
| OM5KV | 2026-09-01 11:59:04 | 47.39247 | 19.75517 | 93° | 88km/h | 14307m | 5.4m/s | -55.6°C | 3.1% | 143.8hPa | 2.7V | 00:00:00 | 00:00:00 | 00:00:00 | |
| OM5KV | 2026-09-01 11:59:02 | 47.39248 | 19.75484 | 93° | 89km/h | 14302m | 6.0m/s | -55.6°C | 3.2% | 143.9hPa | 2.7V | 00:00:00 | 00:00:00 | 00:00:00 | |
| OM5KV | 2026-09-01 11:58:57 | 47.39249 | 19.75305 | 90° | 97km/h | 14274m | 4.1m/s | -55.8°C | 3.2% | 144.6hPa | 2.7V | 00:00:00 | 00:00:00 | 00:00:00 | |
| PETON7-10 | 2026-09-01 11:58:53 | 47.39244 | 19.75123 | 88° | 95km/h | 14247m | 4.5m/s | -55.7°C | 6.0% | 145.2hPa | 2.7V | 00:00:00 | 00:00:00 | 00:00:00 | |
| OM5KV | 2026-09-01 11:58:51 | 47.39243 | 19.75087 | 90° | 97km/h | 14241m | 6.9m/s | -55.7°C | 3.0% | 145.3hPa | 2.7V | 00:00:00 | 00:00:00 | 00:00:00 | |
| OM5KV | 2026-09-01 11:58:47 | 47.39241 | 19.74908 | 87° | 97km/h | 14214m | 5.1m/s | -55.7°C | 3.2% | 146.0hPa | 2.7V | 00:00:00 | 00:00:00 | 00:00:00 | |
| OM5KV | 2026-09-01 11:58:45 | 47.39240 | 19.74873 | 85° | 95km/h | 14208m | 7.2m/s | -55.8°C | 3.2% | 146.1hPa | 2.7V | 00:00:00 | 00:00:00 | 00:00:00 | |
| OM5KV | 2026-09-01 11:58:40 | 47.39224 | 19.74700 | 84° | 93km/h | 14179m | 5.1m/s | -56.1°C | 3.2% | 146.7hPa | 2.7V | 00:00:00 | 00:00:00 | 00:00:00 | |
| PETON7-10 | 2026-09-01 11:58:39 | 47.39217 | 19.74595 | 86° | 91km/h | 14162m | 5.9m/s | -56.2°C | 6.3% | 147.1hPa | 2.7V | 00:00:00 | 01:03:52 | 00:00:00 | |
| OM5KV | 2026-09-01 11:58:34 | 47.39209 | 19.74456 | 85° | 93km/h | 14141m | 6.0m/s | -56.5°C | 3.4% | 147.7hPa | 2.7V | 00:00:00 | 00:00:00 | 00:00:00 | |
| OM5KV | 2026-09-01 11:58:33 | 47.39209 | 19.74456 | 85° | 93km/h | 14141m | 6.0m/s | -56.5°C | 3.4% | 147.7hPa | 2.7V | 00:00:00 | 00:00:00 | 00:00:00 | |
| OM5KV | 2026-09-01 11:58:27 | 47.39184 | 19.74260 | 78° | 88km/h | 14107m | 6.0m/s | -56.4°C | 3.7% | 148.4hPa | 2.7V | 00:00:00 | 00:00:00 | 00:00:00 | |
| PETON7-10 | 2026-09-01 11:58:23 | 47.39164 | 19.74099 | 82° | 93km/h | 14080m | 6.1m/s | -56.5°C | 6.9% | 149.0hPa | 2.7V | 00:00:00 | 00:00:00 | 00:00:00 | |
| OM5KV | 2026-09-01 11:58:22 | 47.39164 | 19.74099 | 82° | 88km/h | 14080m | 6.1m/s | -56.6°C | 3.6% | 149.1hPa | 2.7V | 00:00:00 | 00:00:00 | 00:00:00 | |
| OM5KV | 2026-09-01 11:58:17 | 47.39140 | 19.73893 | 80° | 93km/h | 14045m | 5.8m/s | -56.8°C | 3.8% | 149.9hPa | 2.7V | 00:00:00 | 00:00:00 | 00:00:00 | |
| OM5KV | 2026-09-01 11:58:16 | 47.39136 | 19.73859 | 82° | 91km/h | 14039m | 5.0m/s | -56.6°C | 3.8% | 150.0hPa | 2.7V | 00:00:00 | 00:00:00 | 00:00:00 | |
| ATIDSZ-14 | 2026-09-01 11:58:14 | 47.39130 | 19.73793 | 85° | 89km/h | 14029m | 4.5m/s | -56.5°C | 3.7% | 150.3hPa | 2.7V | 00:00:00 | 00:00:00 | 00:00:00 | |
| OM5KV | 2026-09-01 11:58:12 | 47.39126 | 19.73725 | 89° | 93km/h | 14017m | 6.3m/s | -56.4°C | 3.8% | 150.6hPa | 2.7V | 00:00:00 | 00:00:00 | 00:00:00 | |
| PETON7-10 | 2026-09-01 11:58:08 | 47.39123 | 19.73583 | 89° | 91km/h | 13995m | 5.8m/s | -56.2°C | 7.1% | 151.1hPa | 2.7V | 00:00:00 | 00:00:00 | 00:00:00 | |
| OM5KV | 2026-09-01 11:58:06 | 47.39121 | 19.73515 | 87° | 89km/h | 13983m | 6.5m/s | -56.1°C | 3.7% | 151.4hPa | 2.7V | 00:00:00 | 00:00:00 | 00:00:00 | |
| OM5KV | 2026-09-01 11:58:03 | 47.39117 | 19.73449 | 86° | 89km/h | 13971m | 6.7m/s | -56.2°C | 3.8% | 151.7hPa | 2.7V | 00:00:00 | 00:00:00 | 00:00:00 | |
| OM5KV | 2026-09-01 11:57:58 | 47.39111 | 19.73243 | 93° | 97km/h | 13936m | 6.6m/s | -56.2°C | 3.8% | 152.5hPa | 2.7V | 00:00:00 | 00:00:00 | 00:00:00 | |
| OM5KV | 2026-09-01 11:57:53 | 47.39112 | 19.73069 | 88° | 88km/h | 13906m | 4.5m/s | -56.3°C | 4.0% | 153.2hPa | 2.7V | 00:00:00 | 00:00:00 | 00:00:00 | |
| ATIDSZ-14 | 2026-09-01 11:57:52 | 47.39112 | 19.73069 | 88° | 88km/h | 13906m | 4.5m/s | -56.3°C | 4.0% | 153.2hPa | 2.7V | 00:00:00 | 00:00:00 | 00:00:00 | |
| OM5KV | 2026-09-01 11:57:48 | 47.39111 | 19.72907 | 93° | 91km/h | 13879m | 4.8m/s | -56.4°C | 4.1% | 153.9hPa | 2.7V | 00:00:00 | 00:00:00 | 00:00:00 | |
| OM5KV | 2026-09-01 11:57:41 | 47.39116 | 19.72706 | 92° | 91km/h | 13845m | 6.5m/s | -56.4°C | 4.2% | 154.7hPa | 2.7V | 00:00:00 | 00:00:00 | 00:00:00 | |
| OM5KV | 2026-09-01 11:57:40 | 47.39116 | 19.72672 | 91° | 93km/h | 13839m | 5.4m/s | -56.3°C | 4.2% | 154.9hPa | 2.7V | 00:00:00 | 00:00:00 | 00:00:00 | |
| PETON7-10 | 2026-09-01 11:57:38 | 47.39116 | 19.72566 | 91° | 95km/h | 13821m | 6.6m/s | -56.5°C | 7.5% | 155.2hPa | 2.7V | 00:00:00 | 00:00:00 | 08:30:00 | |
| OM5KV | 2026-09-01 11:57:36 | 47.39117 | 19.72496 | 93° | 93km/h | 13809m | 6.4m/s | -56.5°C | 4.2% | 155.5hPa | 2.7V | 00:00:00 | 00:00:00 | 00:00:00 | |
| OM5KV | 2026-09-01 11:57:31 | 47.39125 | 19.72324 | 96° | 93km/h | 13782m | 4.8m/s | -56.5°C | 4.4% | 156.3hPa | 2.7V | 00:00:00 | 00:00:00 | 00:00:00 | |
| ATIDSZ-14 | 2026-09-01 11:57:29 | 47.39126 | 19.72290 | 95° | 91km/h | 13776m | 6.9m/s | -56.5°C | 4.3% | 156.4hPa | 2.7V | 00:00:00 | 00:00:00 | 00:00:00 | |
| OM5KV | 2026-09-01 11:57:28 | 47.39129 | 19.72221 | 93° | 95km/h | 13764m | 6.2m/s | -56.3°C | 4.4% | 156.7hPa | 2.7V | 00:00:00 | 00:00:00 | 00:00:00 | |
| OM5KV | 2026-09-01 11:57:24 | 47.39130 | 19.72111 | 90° | 99km/h | 13747m | 5.5m/s | -56.5°C | 4.5% | 157.1hPa | 2.7V | 00:00:00 | 00:00:00 | 00:00:00 | |
| PETON7-10 | 2026-09-01 11:57:23 | 47.39129 | 19.72037 | 91° | 97km/h | 13736m | 4.9m/s | -56.3°C | 7.8% | 157.4hPa | 2.7V | 00:00:00 | 00:00:00 | 00:00:00 | |
| OM5KV | 2026-09-01 11:57:22 | 47.39129 | 19.72037 | 92° | 100km/h | 13736m | 5.0m/s | -56.3°C | 4.4% | 157.4hPa | 2.7V | 00:00:00 | 00:00:00 | 00:00:00 | |
| OM5KV | 2026-09-01 11:57:19 | 47.39130 | 19.71925 | 91° | 100km/h | 13719m | 6.3m/s | -56.5°C | 4.5% | 157.8hPa | 2.7V | 00:00:00 | 00:00:00 | 00:00:00 | |
| OM5KV | 2026-09-01 11:57:17 | 47.39131 | 19.71815 | 91° | 95km/h | 13702m | 5.3m/s | -56.7°C | 4.7% | 158.2hPa | 2.7V | 00:00:00 | 00:00:00 | 00:00:00 | |
| OM5KV | 2026-09-01 11:57:13 | 47.39131 | 19.71712 | 90° | 91km/h | 13683m | 5.0m/s | -56.8°C | 5.1% | 158.7hPa | 2.7V | 00:00:00 | 00:00:00 | 00:00:00 | |
| OM5KV | 2026-09-01 11:57:12 | 47.39129 | 19.71643 | 87° | 93km/h | 13673m | 5.4m/s | -56.8°C | 5.0% | 159.0hPa | 2.7V | 00:00:00 | 00:00:00 | 00:00:00 | |
| PETON7-10 | 2026-09-01 11:57:08 | 47.39122 | 19.71499 | 86° | 95km/h | 13650m | 5.2m/s | -56.8°C | 8.8% | 159.5hPa | 2.7V | 00:00:00 | 01:02:22 | 00:00:00 | |
| OM5KV | 2026-09-01 11:57:06 | 47.39121 | 19.71464 | 88° | 95km/h | 13643m | 6.9m/s | -56.8°C | 5.1% | 159.7hPa | 2.7V | 00:00:00 | 00:00:00 | 00:00:00 | |
| ATIDSZ-14 | 2026-09-01 11:57:01 | 47.39121 | 19.71293 | 92° | 91km/h | 13614m | 5.8m/s | -56.7°C | 4.9% | 160.4hPa | 2.7V | 00:00:00 | 00:00:00 | 00:00:00 | |
| OM5KV | 2026-09-01 11:57:00 | 47.39121 | 19.71260 | 92° | 89km/h | 13607m | 7.6m/s | -56.7°C | 4.9% | 160.6hPa | 2.7V | 00:00:00 | 00:00:00 | 00:00:00 | |
| OM5KV | 2026-09-01 11:56:57 | 47.39121 | 19.71123 | 90° | 97km/h | 13583m | 6.6m/s | -56.6°C | 5.4% | 161.2hPa | 2.7V | 00:00:00 | 00:00:00 | 00:00:00 | |
| OM5KV | 2026-09-01 11:56:55 | 47.39120 | 19.71049 | 88° | 104km/h | 13571m | 6.6m/s | -56.5°C | 5.5% | 161.5hPa | 2.7V | 00:00:00 | 00:00:00 | 00:00:00 | |
| PETON7-10 | 2026-09-01 11:56:53 | 47.39117 | 19.70970 | 89° | 102km/h | 13559m | 5.0m/s | -56.4°C | 9.2% | 161.8hPa | 2.7V | 00:00:00 | 00:00:00 | 00:00:00 | |
| OM5KV | 2026-09-01 11:56:48 | 47.39117 | 19.70818 | 93° | 95km/h | 13536m | 8.1m/s | -56.5°C | 5.5% | 162.4hPa | 2.7V | 00:00:00 | 00:00:00 | 00:00:00 | |
| OM5KV | 2026-09-01 11:56:46 | 47.39119 | 19.70747 | 93° | 95km/h | 13523m | 7.1m/s | -56.5°C | 5.5% | 162.7hPa | 2.7V | 00:00:00 | 00:00:00 | 00:00:00 | |
| OM5KV | 2026-09-01 11:56:43 | 47.39121 | 19.70635 | 93° | 104km/h | 13505m | 7.7m/s | -56.5°C | 5.4% | 163.2hPa | 2.7V | 00:00:00 | 00:00:00 | 00:00:00 | |
| OM5KV | 2026-09-01 11:56:40 | 47.39128 | 19.70477 | 94° | 108km/h | 13477m | 7.6m/s | -56.3°C | 5.8% | 163.9hPa | 2.7V | 00:00:00 | 00:00:00 | 00:00:00 | |
| PETON7-10 | 2026-09-01 11:56:38 | 47.39129 | 19.70395 | 91° | 110km/h | 13465m | 4.1m/s | -56.1°C | 9.4% | 164.2hPa | 2.7V | 00:00:00 | 00:00:00 | 00:00:00 | |
| OM5KV | 2026-09-01 11:56:37 | 47.39129 | 19.70395 | 92° | 110km/h | 13465m | 4.1m/s | -56.2°C | 5.8% | 164.2hPa | 2.7V | 00:00:00 | 00:00:00 | 00:00:00 | |
| ATIDSZ-14 | 2026-09-01 11:56:35 | 47.39130 | 19.70314 | 92° | 110km/h | 13453m | 5.6m/s | -56.3°C | 5.8% | 164.5hPa | 2.7V | 00:00:00 | 00:00:00 | 00:00:00 | |
| OM5KV | 2026-09-01 11:56:34 | 47.39132 | 19.70232 | 93° | 111km/h | 13440m | 6.6m/s | -56.3°C | 5.8% | 164.9hPa | 2.7V | 00:00:00 | 00:00:00 | 00:00:00 | |
| OM5KV | 2026-09-01 11:56:32 | 47.39133 | 19.70191 | 93° | 111km/h | 13434m | 5.3m/s | -56.4°C | 5.9% | 165.0hPa | 2.7V | 00:00:00 | 00:00:00 | 00:00:00 | |
| OM5KV | 2026-09-01 11:56:28 | 47.39134 | 19.69985 | 92° | 110km/h | 13405m | 5.4m/s | -56.0°C | 5.9% | 165.8hPa | 2.7V | 00:00:00 | 00:00:00 | 00:00:00 | |
| PETON7-10 | 2026-09-01 11:56:23 | 47.39143 | 19.69782 | 93° | 102km/h | 13375m | 4.4m/s | -55.9°C | 9.8% | 166.5hPa | 2.7V | 00:00:00 | 01:01:37 | 00:00:00 | |
| OM5KV | 2026-09-01 11:56:21 | 47.39144 | 19.69743 | 93° | 106km/h | 13370m | 5.6m/s | -56.0°C | 6.1% | 166.7hPa | 2.7V | 00:00:00 | 00:00:00 | 00:00:00 | |
| OM5KV | 2026-09-01 11:56:16 | 47.39149 | 19.69516 | 91° | 100km/h | 13334m | 5.8m/s | -56.0°C | 6.4% | 167.6hPa | 2.7V | 00:00:00 | 00:00:00 | 00:00:00 | |
| ATIDSZ-14 | 2026-09-01 11:56:13 | 47.39149 | 19.69440 | 91° | 102km/h | 13322m | 4.8m/s | -55.9°C | 6.5% | 167.9hPa | 2.7V | 00:00:00 | 00:00:00 | 00:00:00 | |
| OM5KV | 2026-09-01 11:56:12 | 47.39148 | 19.69364 | 91° | 100km/h | 13310m | 5.7m/s | -55.9°C | 6.6% | 168.2hPa | 2.7V | 00:00:00 | 00:00:00 | 00:00:00 | |
| OM5KV | 2026-09-01 11:56:09 | 47.39149 | 19.69288 | 92° | 102km/h | 13299m | 5.5m/s | -55.8°C | 6.7% | 168.5hPa | 2.7V | 00:00:00 | 00:00:00 | 00:00:00 | |
| PETON7-10 | 2026-09-01 11:56:08 | 47.39150 | 19.69214 | 93° | 102km/h | 13287m | 5.7m/s | -55.6°C | 10.4% | 168.8hPa | 2.7V | 00:00:00 | 00:00:00 | 00:00:00 | |
| OM5KV | 2026-09-01 11:56:07 | 47.39152 | 19.69177 | 95° | 99km/h | 13281m | 6.1m/s | -55.7°C | 6.8% | 169.0hPa | 2.7V | 00:00:00 | 00:00:00 | 00:00:00 | |
| OM5KV | 2026-09-01 11:56:01 | 47.39157 | 19.68947 | 90° | 106km/h | 13246m | 5.5m/s | -55.7°C | 7.1% | 170.0hPa | 2.7V | 00:00:00 | 00:00:00 | 00:00:00 | |
| OM5KV | 2026-09-01 11:55:54 | 47.39157 | 19.68718 | 92° | 99km/h | 13212m | 7.0m/s | -55.4°C | 7.4% | 170.9hPa | 2.7V | 00:00:00 | 00:00:00 | 00:00:00 | |
| PETON7-10 | 2026-09-01 11:55:53 | 47.39158 | 19.68646 | 92° | 99km/h | 13201m | 6.9m/s | -55.4°C | 11.1% | 171.1hPa | 2.7V | 00:00:00 | 00:00:00 | 00:00:00 | |
| OM5KV | 2026-09-01 11:55:50 | 47.39160 | 19.68542 | 92° | 91km/h | 13184m | 3.9m/s | -55.2°C | 7.4% | 171.6hPa | 2.7V | 00:00:00 | 00:00:00 | 00:00:00 | |
| OM5KV | 2026-09-01 11:55:49 | 47.39160 | 19.68508 | 91° | 93km/h | 13179m | 5.8m/s | -55.3°C | 7.4% | 171.7hPa | 2.7V | 00:00:00 | 00:00:00 | 00:00:00 | |
| OM5KV | 2026-09-01 11:55:43 | 47.39160 | 19.68285 | 92° | 102km/h | 13149m | 3.5m/s | -55.1°C | 7.8% | 172.5hPa | 2.7V | 00:00:00 | 00:00:00 | 00:00:00 | |
| PETON7-10 | 2026-09-01 11:55:38 | 47.39171 | 19.68099 | 94° | 106km/h | 13124m | 4.3m/s | -54.8°C | 11.7% | 173.2hPa | 2.7V | 00:00:00 | 01:00:52 | 00:00:00 | |
| OM5KV | 2026-09-01 11:55:35 | 47.39172 | 19.68024 | 92° | 100km/h | 13115m | 5.2m/s | -54.8°C | 8.0% | 173.5hPa | 2.7V | 00:00:00 | 00:00:00 | 00:00:00 | |
| OM5KV | 2026-09-01 11:55:30 | 47.39174 | 19.67830 | 92° | 106km/h | 13089m | 5.9m/s | -54.9°C | 8.4% | 174.2hPa | 2.7V | 00:00:00 | 00:00:00 | 00:00:00 | |
| ATIDSZ-14 | 2026-09-01 11:55:29 | 47.39174 | 19.67791 | 92° | 106km/h | 13084m | 4.6m/s | -54.9°C | 8.5% | 174.4hPa | 2.7V | 00:00:00 | 00:00:00 | 00:00:00 | |
| OM5KV | 2026-09-01 11:55:25 | 47.39173 | 19.67630 | 90° | 110km/h | 13063m | 6.7m/s | -54.8°C | 8.8% | 174.9hPa | 2.7V | 00:00:00 | 00:00:00 | 00:00:00 | |
| PETON7-10 | 2026-09-01 11:55:23 | 47.39171 | 19.67511 | 89° | 108km/h | 13048m | 4.9m/s | -54.6°C | 12.8% | 175.3hPa | 2.7V | 00:00:00 | 00:00:00 | 08:30:00 | |
| OM5KV | 2026-09-01 11:55:20 | 47.39172 | 19.67434 | 93° | 104km/h | 13038m | 5.9m/s | -54.7°C | 9.0% | 175.6hPa | 2.7V | 00:00:00 | 00:00:00 | 00:00:00 | |
| ATIDSZ-14 | 2026-09-01 11:55:09 | 47.39188 | 19.66949 | 98° | 95km/h | 12973m | 5.7m/s | -54.9°C | 9.7% | 177.4hPa | 2.7V | 00:00:00 | 00:00:00 | 00:00:00 | |
| PETON7-10 | 2026-09-01 11:55:08 | 47.39191 | 19.66914 | 98° | 100km/h | 12967m | 5.9m/s | -54.7°C | 13.6% | 177.5hPa | 2.7V | 00:00:00 | 00:00:00 | 00:00:00 | |
| OM5KV | 2026-09-01 11:55:07 | 47.39191 | 19.66914 | 99° | 97km/h | 12967m | 6.0m/s | -54.7°C | 9.7% | 177.5hPa | 2.7V | 00:00:00 | 00:00:00 | 00:00:00 | |
| OM5KV | 2026-09-01 11:55:00 | 47.39223 | 19.66650 | 99° | 102km/h | 12929m | 4.8m/s | -54.6°C | 10.6% | 178.6hPa | 2.7V | 00:00:00 | 00:00:00 | 00:00:00 | |
| OM5KV | 2026-09-01 11:54:59 | 47.39226 | 19.66612 | 96° | 100km/h | 12924m | 5.7m/s | -54.7°C | 10.7% | 178.7hPa | 2.7V | 00:00:00 | 00:00:00 | 00:00:00 | |
| PETON7-10 | 2026-09-01 11:54:53 | 47.39232 | 19.66360 | 92° | 99km/h | 12886m | 5.3m/s | -54.9°C | 15.5% | 179.8hPa | 2.7V | 00:00:00 | 01:00:07 | 00:00:00 | |
| OM5KV | 2026-09-01 11:54:52 | 47.39232 | 19.66360 | 93° | 97km/h | 12886m | 5.3m/s | -55.0°C | 11.3% | 179.8hPa | 2.7V | 00:00:00 | 00:00:00 | 00:00:00 | |
| ATIDSZ-14 | 2026-09-01 11:54:48 | 47.39236 | 19.66216 | 94° | 99km/h | 12861m | 7.0m/s | -54.9°C | 11.7% | 180.5hPa | 2.7V | 00:00:00 | 00:00:00 | 00:00:00 | |
| OM5KV | 2026-09-01 11:54:44 | 47.39240 | 19.66064 | 91° | 102km/h | 12839m | 5.6m/s | -54.6°C | 11.8% | 181.1hPa | 2.7V | 00:00:00 | 00:00:00 | 00:00:00 | |
| OM5KV | 2026-09-01 11:54:40 | 47.39251 | 19.65880 | 104° | 93km/h | 12813m | 4.2m/s | -54.4°C | 12.2% | 181.9hPa | 2.7V | 00:00:00 | 00:00:00 | 00:00:00 | |
| PETON7-10 | 2026-09-01 11:54:37 | 47.39266 | 19.65776 | 100° | 100km/h | 12796m | 4.7m/s | -54.3°C | 16.9% | 182.3hPa | 2.7V | 00:00:00 | 00:00:00 | 00:00:00 | |
| OM5KV | 2026-09-01 11:54:33 | 47.39276 | 19.65663 | 97° | 102km/h | 12775m | 7.4m/s | -54.6°C | 13.2% | 182.9hPa | 2.7V | 00:00:00 | 00:00:00 | 00:00:00 | |
| OM5KV | 2026-09-01 11:54:27 | 47.39275 | 19.65411 | 89° | 95km/h | 12735m | 6.6m/s | -54.8°C | 13.7% | 184.1hPa | 2.7V | 00:00:00 | 00:00:00 | 00:00:00 | |
| ATIDSZ-14 | 2026-09-01 11:54:23 | 47.39280 | 19.65299 | 98° | 104km/h | 12717m | 6.1m/s | -54.9°C | 14.6% | 184.6hPa | 2.7V | 00:00:00 | 00:00:00 | 00:00:00 | |
| PETON7-10 | 2026-09-01 11:54:22 | 47.39289 | 19.65222 | 102° | 111km/h | 12704m | 5.1m/s | -54.8°C | 19.8% | 184.9hPa | 2.7V | 00:00:00 | 00:00:00 | 00:00:00 | |
| OM5KV | 2026-09-01 11:54:21 | 47.39289 | 19.65222 | 102° | 108km/h | 12704m | 5.2m/s | -54.9°C | 15.2% | 184.9hPa | 2.7V | 00:00:00 | 00:00:00 | 00:00:00 | |
| OM5KV | 2026-09-01 11:54:18 | 47.39309 | 19.65062 | 97° | 111km/h | 12685m | 5.4m/s | -54.8°C | 15.8% | 185.5hPa | 2.7V | 00:00:00 | 00:00:00 | 00:00:00 | |
| OM5KV | 2026-09-01 11:54:16 | 47.39312 | 19.65021 | 94° | 115km/h | 12677m | 10.1m/s | -54.8°C | 15.7% | 185.7hPa | 2.7V | 00:00:00 | 00:00:00 | 00:00:00 | |
| OM5KV | 2026-09-01 11:54:11 | 47.39307 | 19.64801 | 92° | 108km/h | 12638m | 5.8m/s | -55.0°C | 15.3% | 186.9hPa | 2.7V | 00:00:00 | 00:00:00 | 00:00:00 | |
| OM5KV | 2026-09-01 11:54:10 | 47.39308 | 19.64762 | 94° | 106km/h | 12631m | 8.9m/s | -55.1°C | 15.5% | 187.1hPa | 2.7V | 00:00:00 | 00:00:00 | 00:00:00 | |
| PETON7-10 | 2026-09-01 11:54:07 | 47.39313 | 19.64601 | 91° | 119km/h | 12605m | 5.4m/s | -54.7°C | 19.9% | 187.8hPa | 2.7V | 00:00:00 | 00:59:21 | 00:00:00 | |
| OM5KV | 2026-09-01 11:54:05 | 47.39313 | 19.64559 | 91° | 113km/h | 12599m | 6.1m/s | -54.8°C | 15.5% | 188.0hPa | 2.7V | 00:00:00 | 00:00:00 | 00:00:00 | |
| OM5KV | 2026-09-01 11:54:01 | 47.39312 | 19.64343 | 88° | 117km/h | 12569m | 7.6m/s | -55.0°C | 16.4% | 188.9hPa | 2.7V | 00:00:00 | 00:00:00 | 00:00:00 | |
| OM5KV | 2026-09-01 11:53:59 | 47.39310 | 19.64299 | 87° | 119km/h | 12563m | 4.2m/s | -54.9°C | 16.6% | 189.1hPa | 2.7V | 00:00:00 | 00:00:00 | 00:00:00 | |
| ATIDSZ-14 | 2026-09-01 11:53:58 | 47.39308 | 19.64254 | 87° | 120km/h | 12558m | 6.2m/s | -55.0°C | 16.7% | 189.2hPa | 2.7V | 00:00:00 | 00:00:00 | 00:00:00 | |
| OM5KV | 2026-09-01 11:53:55 | 47.39300 | 19.64070 | 87° | 122km/h | 12536m | 5.3m/s | -55.4°C | 17.4% | 189.9hPa | 2.7V | 00:00:00 | 00:00:00 | 00:00:00 | |
| PETON7-10 | 2026-09-01 11:53:52 | 47.39293 | 19.63933 | 86° | 122km/h | 12519m | 6.3m/s | -56.0°C | 22.9% | 190.4hPa | 2.7V | 00:00:00 | 00:00:00 | 00:00:00 | |
| OM5KV | 2026-09-01 11:53:49 | 47.39288 | 19.63803 | 90° | 113km/h | 12501m | 4.8m/s | -56.8°C | 19.9% | 191.0hPa | 2.7V | 00:00:00 | 00:00:00 | 00:00:00 | |
| OM5KV | 2026-09-01 11:53:39 | 47.39293 | 19.63344 | 93° | 131km/h | 12443m | 5.5m/s | -58.1°C | 22.2% | 192.7hPa | 2.7V | 00:00:00 | 00:00:00 | 00:00:00 | |
| PETON7-10 | 2026-09-01 11:53:37 | 47.39295 | 19.63247 | 93° | 122km/h | 12432m | 5.6m/s | -58.2°C | 29.0% | 193.0hPa | 2.7V | 00:00:00 | 00:00:00 | 00:00:00 | |
| OM5KV | 2026-09-01 11:53:32 | 47.39299 | 19.63068 | 92° | 115km/h | 12407m | 4.8m/s | -58.0°C | 23.7% | 193.9hPa | 2.7V | 00:00:00 | 00:00:00 | 00:00:00 | |
| OM5KV | 2026-09-01 11:53:30 | 47.39298 | 19.62982 | 89° | 117km/h | 12397m | 7.1m/s | -58.1°C | 23.8% | 194.2hPa | 2.7V | 00:00:00 | 00:00:00 | 00:00:00 | |
| OM5KV | 2026-09-01 11:53:26 | 47.39289 | 19.62801 | 88° | 124km/h | 12372m | 8.3m/s | -58.2°C | 23.3% | 194.9hPa | 2.7V | 00:00:00 | 00:00:00 | 00:00:00 | |
| OM5KV | 2026-09-01 11:53:25 | 47.39288 | 19.62709 | 90° | 122km/h | 12358m | 6.6m/s | -58.5°C | 24.0% | 195.3hPa | 2.7V | 00:00:00 | 00:00:00 | 00:00:00 | |
| PETON7-10 | 2026-09-01 11:53:22 | 47.39286 | 19.62572 | 88° | 120km/h | 12338m | 7.1m/s | -58.7°C | 32.2% | 195.9hPa | 2.7V | 00:00:00 | 00:58:36 | 00:00:00 | |
| OM5KV | 2026-09-01 11:53:15 | 47.39270 | 19.62303 | 84° | 122km/h | 12303m | 6.7m/s | -58.9°C | 26.3% | 197.0hPa | 2.7V | 00:00:00 | 00:00:00 | 00:00:00 | |
| ATIDSZ-14 | 2026-09-01 11:53:12 | 47.39264 | 19.62127 | 90° | 117km/h | 12280m | 4.8m/s | -59.0°C | 26.8% | 197.7hPa | 2.7V | 00:00:00 | 00:00:00 | 00:00:00 | |
| OM5KV | 2026-09-01 11:53:09 | 47.39262 | 19.62039 | 88° | 120km/h | 12268m | 5.7m/s | -59.0°C | 26.9% | 198.1hPa | 2.7V | 00:00:00 | 00:00:00 | 00:00:00 | |
| OM5KV | 2026-09-01 11:53:07 | 47.39258 | 19.61949 | 88° | 120km/h | 12258m | 5.7m/s | -59.1°C | 27.3% | 198.4hPa | 2.7V | 00:00:00 | 00:00:00 | 00:00:00 | |
| OM5KV | 2026-09-01 11:53:04 | 47.39253 | 19.61820 | 87° | 113km/h | 12242m | 5.6m/s | -59.1°C | 27.5% | 198.9hPa | 2.7V | 00:00:00 | 00:00:00 | 00:00:00 | |
| OM5KV | 2026-09-01 11:52:59 | 47.39237 | 19.61557 | 82° | 113km/h | 12208m | 4.4m/s | -59.1°C | 27.2% | 200.0hPa | 2.7V | 00:00:00 | 00:00:00 | 00:00:00 | |
| ATIDSZ-14 | 2026-09-01 11:52:52 | 47.39199 | 19.61279 | 83° | 100km/h | 12163m | 6.8m/s | -59.1°C | 27.3% | 201.4hPa | 2.7V | 00:00:00 | 00:00:00 | 00:00:00 | |
| OM5KV | 2026-09-01 11:52:49 | 47.39194 | 19.61203 | 88° | 102km/h | 12151m | 4.9m/s | -59.0°C | 27.0% | 201.8hPa | 2.7V | 00:00:00 | 00:00:00 | 00:00:00 | |
| OM5KV | 2026-09-01 11:52:43 | 47.39176 | 19.60965 | 81° | 104km/h | 12112m | 5.8m/s | -59.2°C | 28.2% | 203.1hPa | 2.7V | 00:00:00 | 00:00:00 | 00:00:00 | |
| OM5KV | 2026-09-01 11:52:38 | 47.39141 | 19.60746 | 78° | 102km/h | 12076m | 7.4m/s | -59.6°C | 27.4% | 204.2hPa | 2.7V | 00:00:00 | 00:00:00 | 00:00:00 | |
| PETON7-10 | 2026-09-01 11:52:37 | 47.39136 | 19.60708 | 77° | 93km/h | 12069m | 7.6m/s | -59.6°C | 34.3% | 204.3hPa | 2.7V | 00:00:00 | 00:57:51 | 00:00:00 | |
| OM5KV | 2026-09-01 11:52:35 | 47.39129 | 19.60671 | 76° | 104km/h | 12062m | 6.4m/s | -59.7°C | 27.6% | 204.7hPa | 2.7V | 00:00:00 | 00:00:00 | 00:00:00 | |
| ATIDSZ-14 | 2026-09-01 11:52:31 | 47.39108 | 19.60530 | 83° | 91km/h | 12038m | 6.6m/s | -59.3°C | 27.2% | 205.5hPa | 2.7V | 00:00:00 | 00:00:00 | 00:00:00 | |
| OM5KV | 2026-09-01 11:52:25 | 47.39079 | 19.60292 | 77° | 89km/h | 11996m | 4.7m/s | -59.0°C | 28.5% | 206.9hPa | 2.7V | 00:00:00 | 00:00:00 | 00:00:00 | |
| PETON7-10 | 2026-09-01 11:52:22 | 47.39065 | 19.60195 | 79° | 88km/h | 11980m | 4.7m/s | -58.9°C | 35.1% | 207.4hPa | 2.7V | 00:00:00 | 00:00:00 | 00:00:00 | |
| OM5KV | 2026-09-01 11:52:20 | 47.39056 | 19.60130 | 78° | 89km/h | 11969m | 4.6m/s | -58.7°C | 27.6% | 207.8hPa | 2.9V | 00:00:00 | 00:00:00 | 00:00:00 | |
| OM5KV | 2026-09-01 11:52:19 | 47.39051 | 19.60098 | 78° | 89km/h | 11963m | 7.1m/s | -58.7°C | 27.2% | 208.0hPa | 2.9V | 00:00:00 | 00:00:00 | 00:00:00 | |
| OM5KV | 2026-09-01 11:52:13 | 47.39029 | 19.59935 | 80° | 91km/h | 11930m | 6.8m/s | -58.6°C | 27.2% | 209.1hPa | 2.9V | 00:00:00 | 00:00:00 | 00:00:00 | |
| ATIDSZ-14 | 2026-09-01 11:52:11 | 47.39012 | 19.59810 | 78° | 78km/h | 11903m | 6.4m/s | -58.5°C | 27.0% | 209.9hPa | 2.9V | 00:00:00 | 00:00:00 | 00:00:00 | |
| PETON7-10 | 2026-09-01 11:52:08 | 47.38997 | 19.59722 | 78° | 86km/h | 11888m | 5.1m/s | -58.5°C | 34.1% | 210.4hPa | 2.9V | 00:00:00 | 00:00:00 | 00:00:00 | |
| OM5KV | 2026-09-01 11:52:00 | 47.38973 | 19.59519 | 82° | 91km/h | 11852m | 5.3m/s | -58.3°C | 28.6% | 211.6hPa | 2.9V | 00:00:00 | 00:00:00 | 00:00:00 | |
| OM5KV | 2026-09-01 11:51:56 | 47.38960 | 19.59399 | 82° | 78km/h | 11828m | 6.5m/s | -58.0°C | 27.2% | 212.4hPa | 2.9V | 00:00:00 | 00:00:00 | 00:00:00 | |
| OM5KV | 2026-09-01 11:51:54 | 47.38954 | 19.59340 | 83° | 80km/h | 11816m | 6.0m/s | -58.0°C | 26.4% | 212.8hPa | 2.9V | 00:00:00 | 00:00:00 | 00:00:00 | |
| PETON7-10 | 2026-09-01 11:51:52 | 47.38948 | 19.59248 | 86° | 86km/h | 11792m | 6.3m/s | -57.8°C | 32.3% | 213.6hPa | 2.9V | 00:00:00 | 00:57:06 | 00:00:00 | |
| OM5KV | 2026-09-01 11:51:51 | 47.38948 | 19.59248 | 86° | 89km/h | 11792m | 6.3m/s | -57.9°C | 26.0% | 213.6hPa | 2.9V | 00:00:00 | 00:00:00 | 00:00:00 | |
| OM5KV | 2026-09-01 11:51:48 | 47.38938 | 19.59112 | 85° | 88km/h | 11766m | 5.1m/s | -57.6°C | 26.2% | 214.6hPa | 2.9V | 00:00:00 | 00:00:00 | 00:00:00 | |
| OM5KV | 2026-09-01 11:51:46 | 47.38935 | 19.59050 | 88° | 80km/h | 11754m | 4.5m/s | -57.6°C | 26.3% | 214.9hPa | 2.9V | 00:00:00 | 00:00:00 | 00:00:00 | |
| ATIDSZ-14 | 2026-09-01 11:51:45 | 47.38935 | 19.59050 | 88° | 80km/h | 11754m | 4.5m/s | -57.6°C | 26.3% | 214.9hPa | 2.9V | 00:00:00 | 00:00:00 | 00:00:00 | |
| OM5KV | 2026-09-01 11:51:42 | 47.38931 | 19.58958 | 87° | 86km/h | 11738m | 5.2m/s | -57.5°C | 26.5% | 215.5hPa | 2.9V | 00:00:00 | 00:00:00 | 00:00:00 | |
| OM5KV | 2026-09-01 11:51:40 | 47.38928 | 19.58894 | 86° | 88km/h | 11728m | 4.3m/s | -57.4°C | 26.4% | 215.8hPa | 2.9V | 00:00:00 | 00:00:00 | 00:00:00 | |
| PETON7-10 | 2026-09-01 11:51:38 | 47.38918 | 19.58766 | 84° | 84km/h | 11707m | 4.3m/s | -57.3°C | 33.1% | 216.5hPa | 2.9V | 00:00:00 | 00:00:00 | 00:00:00 | |
| OM5KV | 2026-09-01 11:51:37 | 47.38918 | 19.58766 | 84° | 88km/h | 11707m | 4.4m/s | -57.3°C | 26.8% | 216.5hPa | 2.9V | 00:00:00 | 00:00:00 | 00:00:00 | |
| OM5KV | 2026-09-01 11:51:30 | 47.38902 | 19.58551 | 85° | 86km/h | 11671m | 7.3m/s | -57.1°C | 27.7% | 217.8hPa | 2.9V | 00:00:00 | 00:00:00 | 00:00:00 | |
| OM5KV | 2026-09-01 11:51:25 | 47.38884 | 19.58389 | 79° | 88km/h | 11645m | 6.2m/s | -56.9°C | 28.0% | 218.6hPa | 2.9V | 00:00:00 | 00:00:00 | 00:00:00 | |
| PETON7-10 | 2026-09-01 11:51:22 | 47.38875 | 19.58299 | 85° | 84km/h | 11628m | 5.5m/s | -56.7°C | 33.6% | 219.2hPa | 2.9V | 00:00:00 | 00:00:00 | 00:00:00 | |
| OM5KV | 2026-09-01 11:51:18 | 47.38875 | 19.58175 | 95° | 86km/h | 11604m | 6.4m/s | -56.5°C | 27.8% | 220.0hPa | 2.9V | 00:00:00 | 00:00:00 | 00:00:00 | |
| OM5KV | 2026-09-01 11:51:12 | 47.38874 | 19.58015 | 82° | 86km/h | 11574m | 6.3m/s | -56.2°C | 27.4% | 221.1hPa | 2.9V | 00:00:00 | 00:00:00 | 00:00:00 | |
| PETON7-10 | 2026-09-01 11:51:07 | 47.38853 | 19.57832 | 88° | 84km/h | 11539m | 5.0m/s | -55.9°C | 34.7% | 222.3hPa | 2.9V | 00:00:00 | 00:56:21 | 00:00:00 | |
| OM5KV | 2026-09-01 11:51:06 | 47.38853 | 19.57832 | 88° | 84km/h | 11539m | 5.0m/s | -56.0°C | 28.5% | 222.3hPa | 2.9V | 00:00:00 | 00:00:00 | 00:00:00 | |
| ATIDSZ-14 | 2026-09-01 11:51:04 | 47.38852 | 19.57771 | 90° | 82km/h | 11527m | 5.6m/s | -55.8°C | 28.9% | 222.8hPa | 2.9V | 00:00:00 | 00:00:00 | 00:00:00 | |
| OM5KV | 2026-09-01 11:51:01 | 47.38849 | 19.57677 | 86° | 84km/h | 11512m | 4.4m/s | -55.6°C | 28.5% | 223.3hPa | 2.9V | 00:00:00 | 00:00:00 | 00:00:00 | |
| OM5KV | 2026-09-01 11:51:00 | 47.38847 | 19.57645 | 83° | 84km/h | 11507m | 5.9m/s | -55.7°C | 28.4% | 223.5hPa | 2.9V | 00:00:00 | 00:00:00 | 00:00:00 | |
| OE3JTB-15 | 2026-09-01 11:50:55 | 47.38831 | 19.57364 | 93° | 82km/h | 11458m | 6.9m/s | -55.3°C | 35.3% | 225.1hPa | 2.9V | 00:00:00 | 00:56:06 | 00:00:00 | |
| PETON7-10 | 2026-09-01 11:50:52 | 47.38831 | 19.57364 | 93° | 86km/h | 11458m | 6.9m/s | -55.3°C | 35.3% | 225.1hPa | 2.9V | 00:00:00 | 00:00:00 | 08:30:00 | |
| OM5KV | 2026-09-01 11:50:50 | 47.38832 | 19.57332 | 95° | 86km/h | 11452m | 4.4m/s | -55.2°C | 29.8% | 225.4hPa | 2.7V | 00:00:00 | 00:00:00 | 00:00:00 | |
| OM5KV | 2026-09-01 11:50:45 | 47.38828 | 19.57145 | 85° | 86km/h | 11423m | 3.9m/s | -55.0°C | 30.7% | 226.4hPa | 2.7V | 00:00:00 | 00:00:00 | 00:00:00 | |
| ATIDSZ-14 | 2026-09-01 11:50:44 | 47.38828 | 19.57145 | 85° | 86km/h | 11423m | 3.9m/s | -55.0°C | 30.7% | 226.4hPa | 2.7V | 00:00:00 | 00:00:00 | 00:00:00 | |
| OM5KV | 2026-09-01 11:50:40 | 47.38832 | 19.56987 | 99° | 91km/h | 11393m | 5.0m/s | -54.9°C | 29.9% | 227.4hPa | 2.7V | 00:00:00 | 00:00:00 | 00:00:00 | |
| PETON7-10 | 2026-09-01 11:50:37 | 47.38837 | 19.56884 | 89° | 82km/h | 11377m | 7.9m/s | -54.6°C | 35.5% | 228.0hPa | 2.7V | 00:00:00 | 00:00:00 | 00:00:00 | |
| PETON7-10 | 2026-09-01 11:50:22 | 47.38814 | 19.56425 | 87° | 89km/h | 11277m | 6.0m/s | -53.7°C | 36.6% | 231.7hPa | 2.7V | 00:00:00 | 00:55:36 | 00:00:00 | |
| ATIDSZ-14 | 2026-09-01 11:50:21 | 47.38814 | 19.56425 | 87° | 91km/h | 11277m | 6.1m/s | -53.7°C | 30.7% | 231.7hPa | 2.7V | 00:00:00 | 00:00:00 | 00:00:00 | |
| OM5KV | 2026-09-01 11:50:20 | 47.38812 | 19.56390 | 86° | 95km/h | 11270m | 8.0m/s | -53.7°C | 30.7% | 231.9hPa | 2.7V | 00:00:00 | 00:00:00 | 00:00:00 | |
| OM5KV | 2026-09-01 11:50:14 | 47.38806 | 19.56175 | 88° | 84km/h | 11233m | 8.3m/s | -53.5°C | 29.9% | 233.3hPa | 2.7V | 00:00:00 | 00:00:00 | 00:00:00 | |
| OM5KV | 2026-09-01 11:50:11 | 47.38803 | 19.56086 | 88° | 78km/h | 11211m | 8.6m/s | -53.3°C | 30.3% | 234.1hPa | 2.7V | 00:00:00 | 00:00:00 | 00:00:00 | |
| OM5KV | 2026-09-01 11:50:09 | 47.38800 | 19.56023 | 85° | 88km/h | 11198m | 5.8m/s | -53.2°C | 30.6% | 234.5hPa | 2.7V | 00:00:00 | 00:00:00 | 00:00:00 | |
| PETON7-10 | 2026-09-01 11:50:07 | 47.38792 | 19.55926 | 82° | 80km/h | 11180m | 5.7m/s | -53.0°C | 37.2% | 235.2hPa | 2.7V | 00:00:00 | 00:00:00 | 00:00:00 | |
| OM5KV | 2026-09-01 11:50:06 | 47.38789 | 19.55894 | 85° | 86km/h | 11175m | 4.6m/s | -53.0°C | 31.4% | 235.4hPa | 2.9V | 00:00:00 | 00:00:00 | 00:00:00 | |
| OM5KV | 2026-09-01 11:50:02 | 47.38787 | 19.55801 | 92° | 82km/h | 11161m | 3.4m/s | -52.9°C | 32.4% | 235.9hPa | 2.9V | 00:00:00 | 00:00:00 | 00:00:00 | |
| ATIDSZ-14 | 2026-09-01 11:50:01 | 47.38786 | 19.55738 | 88° | 84km/h | 11152m | 5.2m/s | -52.9°C | 32.9% | 236.2hPa | 2.9V | 00:00:00 | 00:00:00 | 00:00:00 | |
| OM5KV | 2026-09-01 11:49:58 | 47.38780 | 19.55648 | 84° | 77km/h | 11136m | 8.5m/s | -52.8°C | 32.5% | 236.8hPa | 2.9V | 00:00:00 | 00:00:00 | 00:00:00 | |
| OM5KV | 2026-09-01 11:49:56 | 47.38774 | 19.55595 | 79° | 71km/h | 11124m | 5.2m/s | -52.7°C | 33.4% | 237.3hPa | 2.9V | 00:00:00 | 00:00:00 | 00:00:00 | |
| PETON7-10 | 2026-09-01 11:49:52 | 47.38757 | 19.55477 | 82° | 86km/h | 11101m | 5.9m/s | -52.6°C | 40.9% | 238.1hPa | 2.9V | 00:00:00 | 00:00:00 | 00:00:00 | |
| OM5KV | 2026-09-01 11:49:51 | 47.38757 | 19.55477 | 82° | 91km/h | 11101m | 5.9m/s | -52.7°C | 34.9% | 238.2hPa | 2.9V | 00:00:00 | 00:00:00 | 00:00:00 | |
| OM5KV | 2026-09-01 11:49:50 | 47.38754 | 19.55443 | 85° | 93km/h | 11094m | 8.1m/s | -52.7°C | 35.7% | 238.4hPa | 2.9V | 00:00:00 | 00:00:00 | 00:00:00 | |
| OM5KV | 2026-09-01 11:49:46 | 47.38754 | 19.55302 | 97° | 89km/h | 11073m | 5.1m/s | -52.7°C | 38.0% | 239.2hPa | 2.9V | 00:00:00 | 00:00:00 | 00:00:00 | |
| OM5KV | 2026-09-01 11:49:45 | 47.38756 | 19.55271 | 97° | 82km/h | 11069m | 3.1m/s | -52.7°C | 38.4% | 239.3hPa | 2.9V | 00:00:00 | 00:00:00 | 00:00:00 | |
| OM5KV | 2026-09-01 11:49:41 | 47.38757 | 19.55153 | 86° | 80km/h | 11044m | 8.3m/s | -52.6°C | 37.5% | 240.3hPa | 2.9V | 00:00:00 | 00:00:00 | 00:00:00 | |
| OM5KV | 2026-09-01 11:49:39 | 47.38752 | 19.55094 | 83° | 80km/h | 11026m | 8.6m/s | -52.5°C | 37.3% | 240.9hPa | 2.9V | 00:00:00 | 00:00:00 | 00:00:00 | |
| PETON7-10 | 2026-09-01 11:49:37 | 47.38745 | 19.55007 | 88° | 82km/h | 11004m | 6.6m/s | -52.3°C | 43.4% | 241.6hPa | 2.9V | 00:00:00 | 00:54:51 | 00:00:00 | |
| ATIDSZ-14 | 2026-09-01 11:49:36 | 47.38745 | 19.55007 | 88° | 78km/h | 11004m | 6.7m/s | -52.3°C | 37.3% | 241.7hPa | 2.9V | 00:00:00 | 00:00:00 | 00:00:00 | |
| OM5KV | 2026-09-01 11:49:35 | 47.38745 | 19.54977 | 90° | 82km/h | 10997m | 6.2m/s | -52.3°C | 37.6% | 242.0hPa | 2.9V | 00:00:00 | 00:00:00 | 00:00:00 | |
| OM5KV | 2026-09-01 11:49:33 | 47.38744 | 19.54912 | 90° | 93km/h | 10986m | 5.0m/s | -52.1°C | 37.8% | 242.5hPa | 2.9V | 00:00:00 | 00:00:00 | 00:00:00 | |
| OM5KV | 2026-09-01 11:49:29 | 47.38736 | 19.54773 | 84° | 89km/h | 10961m | 7.1m/s | -51.9°C | 38.6% | 243.3hPa | 2.9V | 00:00:00 | 00:00:00 | 00:00:00 | |
| OM5KV | 2026-09-01 11:49:24 | 47.38726 | 19.54630 | 88° | 69km/h | 10933m | 4.7m/s | -51.7°C | 40.1% | 244.4hPa | 2.9V | 00:00:00 | 00:00:00 | 00:00:00 | |
| PETON7-10 | 2026-09-01 11:49:22 | 47.38721 | 19.54551 | 85° | 82km/h | 10917m | 4.5m/s | -51.6°C | 46.1% | 244.9hPa | 2.9V | 00:00:00 | 00:00:00 | 00:00:00 | |
| OM5KV | 2026-09-01 11:49:19 | 47.38717 | 19.54464 | 88° | 77km/h | 10895m | 8.3m/s | -51.5°C | 39.2% | 245.8hPa | 2.7V | 00:00:00 | 00:00:00 | 00:00:00 | |
| ATIDSZ-14 | 2026-09-01 11:49:17 | 47.38714 | 19.54406 | 84° | 78km/h | 10880m | 6.8m/s | -51.3°C | 38.6% | 246.3hPa | 2.7V | 00:00:00 | 00:00:00 | 00:00:00 | |
| OM5KV | 2026-09-01 11:49:11 | 47.38694 | 19.54262 | 80° | 88km/h | 10847m | 7.2m/s | -51.0°C | 38.5% | 247.5hPa | 2.7V | 00:00:00 | 00:00:00 | 00:00:00 | |
| PETON7-10 | 2026-09-01 11:49:07 | 47.38676 | 19.54100 | 87° | 86km/h | 10816m | 5.0m/s | -50.7°C | 46.0% | 248.7hPa | 2.7V | 00:00:00 | 00:00:00 | 00:00:00 | |
| OM5KV | 2026-09-01 11:49:06 | 47.38676 | 19.54071 | 90° | 78km/h | 10811m | 6.3m/s | -50.7°C | 40.2% | 248.9hPa | 2.7V | 00:00:00 | 00:00:00 | 00:00:00 | |
| OM5KV | 2026-09-01 11:49:02 | 47.38675 | 19.53949 | 84° | 88km/h | 10787m | 4.6m/s | -50.5°C | 39.4% | 249.8hPa | 2.7V | 00:00:00 | 00:00:00 | 00:00:00 | |
| OM5KV | 2026-09-01 11:48:59 | 47.38669 | 19.53882 | 82° | 91km/h | 10776m | 5.4m/s | -50.4°C | 39.5% | 250.3hPa | 2.7V | 00:00:00 | 00:00:00 | 00:00:00 | |
| ATIDSZ-14 | 2026-09-01 11:48:56 | 47.38660 | 19.53751 | 88° | 86km/h | 10749m | 5.9m/s | -50.2°C | 39.9% | 251.3hPa | 2.7V | 00:00:00 | 00:00:00 | 00:00:00 | |
| OM5KV | 2026-09-01 11:48:55 | 47.38660 | 19.53751 | 88° | 86km/h | 10749m | 5.9m/s | -50.2°C | 39.9% | 251.3hPa | 2.7V | 00:00:00 | 00:00:00 | 00:00:00 | |
| OM5KV | 2026-09-01 11:48:54 | 47.38658 | 19.53686 | 89° | 86km/h | 10738m | 5.0m/s | -50.1°C | 40.0% | 251.8hPa | 2.7V | 00:00:00 | 00:00:00 | 00:00:00 | |
| PETON7-10 | 2026-09-01 11:48:52 | 47.38657 | 19.53626 | 90° | 77km/h | 10727m | 5.3m/s | -49.9°C | 45.3% | 252.2hPa | 2.7V | 00:00:00 | 00:54:06 | 00:00:00 | |
| OM5KV | 2026-09-01 11:48:49 | 47.38657 | 19.53574 | 92° | 68km/h | 10715m | 8.8m/s | -49.9°C | 39.4% | 252.7hPa | 2.7V | 00:00:00 | 00:00:00 | 00:00:00 | |
| OM5KV | 2026-09-01 11:48:48 | 47.38657 | 19.53549 | 87° | 68km/h | 10707m | 6.5m/s | -49.8°C | 39.5% | 252.9hPa | 2.7V | 00:00:00 | 00:00:00 | 00:00:00 | |
| OM5KV | 2026-09-01 11:48:43 | 47.38644 | 19.53386 | 91° | 86km/h | 10673m | 7.0m/s | -49.5°C | 38.6% | 254.3hPa | 2.7V | 00:00:00 | 00:00:00 | 00:00:00 | |
| PETON7-10 | 2026-09-01 11:48:37 | 47.38645 | 19.53203 | 92° | 78km/h | 10630m | 5.9m/s | -49.1°C | 44.8% | 255.9hPa | 2.7V | 00:00:00 | 00:00:00 | 08:30:00 | |
| OM5KV | 2026-09-01 11:48:36 | 47.38645 | 19.53203 | 93° | 71km/h | 10630m | 5.9m/s | -49.1°C | 39.2% | 256.0hPa | 2.7V | 00:00:00 | 00:00:00 | 00:00:00 | |
| ATIDSZ-14 | 2026-09-01 11:48:35 | 47.38645 | 19.53147 | 90° | 77km/h | 10619m | 5.1m/s | -49.0°C | 39.1% | 256.4hPa | 2.7V | 00:00:00 | 00:00:00 | 00:00:00 | |
| OM5KV | 2026-09-01 11:48:31 | 47.38643 | 19.53057 | 90° | 82km/h | 10601m | 6.4m/s | -48.9°C | 38.0% | 257.1hPa | 2.7V | 00:00:00 | 00:00:00 | 00:00:00 | |
| OM5KV | 2026-09-01 11:48:30 | 47.38643 | 19.53026 | 93° | 84km/h | 10594m | 8.1m/s | -48.8°C | 38.0% | 257.4hPa | 2.7V | 00:00:00 | 00:00:00 | 00:00:00 | |
| OM5KV | 2026-09-01 11:48:26 | 47.38658 | 19.52869 | 93° | 77km/h | 10566m | 3.5m/s | -48.5°C | 39.5% | 258.4hPa | 2.7V | 00:00:00 | 00:00:00 | 00:00:00 | |
| OM5KV | 2026-09-01 11:48:25 | 47.38658 | 19.52869 | 93° | 77km/h | 10566m | 3.5m/s | -48.5°C | 39.5% | 258.4hPa | 2.7V | 00:00:00 | 00:00:00 | 00:00:00 | |
| PETON7-10 | 2026-09-01 11:48:22 | 47.38652 | 19.52762 | 81° | 80km/h | 10540m | 9.5m/s | -48.3°C | 42.8% | 259.3hPa | 2.7V | 00:00:00 | 00:00:00 | 00:00:00 | |
| OM5KV | 2026-09-01 11:48:20 | 47.38649 | 19.52732 | 85° | 84km/h | 10531m | 7.1m/s | -48.3°C | 37.8% | 259.8hPa | 2.7V | 00:00:00 | 00:00:00 | 00:00:00 | |
| OM5KV | 2026-09-01 11:48:15 | 47.38651 | 19.52573 | 100° | 77km/h | 10500m | 6.9m/s | -48.0°C | 37.9% | 261.1hPa | 2.7V | 00:00:00 | 00:00:00 | 00:00:00 | |
| OM5KV | 2026-09-01 11:48:14 | 47.38653 | 19.52546 | 100° | 69km/h | 10494m | 5.1m/s | -48.0°C | 37.7% | 261.3hPa | 2.7V | 00:00:00 | 00:00:00 | 00:00:00 | |
| ATIDSZ-14 | 2026-09-01 11:48:13 | 47.38656 | 19.52520 | 99° | 69km/h | 10488m | 7.3m/s | -47.9°C | 37.8% | 261.5hPa | 2.7V | 00:00:00 | 00:00:00 | 00:00:00 | |
| OM5KV | 2026-09-01 11:48:09 | 47.38661 | 19.52380 | 93° | 86km/h | 10453m | 7.7m/s | -47.6°C | 37.5% | 262.9hPa | 2.7V | 00:00:00 | 00:00:00 | 00:00:00 | |
| OM5KV | 2026-09-01 11:48:08 | 47.38662 | 19.52348 | 93° | 89km/h | 10446m | 5.8m/s | -47.6°C | 37.7% | 263.2hPa | 2.7V | 00:00:00 | 00:00:00 | 00:00:00 | |
| PETON7-10 | 2026-09-01 11:48:07 | 47.38662 | 19.52314 | 94° | 80km/h | 10440m | 5.7m/s | -47.4°C | 43.0% | 263.4hPa | 2.7V | 00:00:00 | 00:53:21 | 00:00:00 | |
| OM5KV | 2026-09-01 11:48:03 | 47.38667 | 19.52186 | 90° | 86km/h | 10415m | 8.4m/s | -47.4°C | 37.5% | 264.4hPa | 2.7V | 00:00:00 | 00:00:00 | 00:00:00 | |
| OM5KV | 2026-09-01 11:48:01 | 47.38666 | 19.52155 | 90° | 80km/h | 10407m | 7.1m/s | -47.3°C | 37.5% | 264.7hPa | 2.7V | 00:00:00 | 00:00:00 | 00:00:00 | |
| OM5KV | 2026-09-01 11:47:56 | 47.38670 | 19.52020 | 97° | 75km/h | 10374m | 6.3m/s | -47.1°C | 37.8% | 266.0hPa | 2.7V | 00:00:00 | 00:00:00 | 00:00:00 | |
| OM5KV | 2026-09-01 11:47:55 | 47.38671 | 19.51992 | 94° | 75km/h | 10367m | 6.5m/s | -47.1°C | 38.1% | 266.3hPa | 2.7V | 00:00:00 | 00:00:00 | 00:00:00 | |
| PETON7-10 | 2026-09-01 11:47:52 | 47.38673 | 19.51869 | 90° | 77km/h | 10344m | 4.7m/s | -46.8°C | 43.3% | 267.1hPa | 2.7V | 00:00:00 | 00:00:00 | 00:00:00 | |
| OM5KV | 2026-09-01 11:47:50 | 47.38671 | 19.51837 | 86° | 86km/h | 10339m | 5.6m/s | -46.8°C | 38.2% | 267.4hPa | 2.9V | 00:00:00 | 00:00:00 | 00:00:00 | |
| OM5KV | 2026-09-01 11:47:49 | 47.38669 | 19.51806 | 84° | 82km/h | 10334m | 3.7m/s | -46.7°C | 37.9% | 267.6hPa | 2.9V | 00:00:00 | 00:00:00 | 00:00:00 | |
| OM5KV | 2026-09-01 11:47:44 | 47.38667 | 19.51663 | 93° | 71km/h | 10302m | 8.5m/s | -46.5°C | 36.3% | 268.9hPa | 2.9V | 00:00:00 | 00:00:00 | 00:00:00 | |
| OM5KV | 2026-09-01 11:47:40 | 47.38678 | 19.51530 | 95° | 75km/h | 10270m | 4.9m/s | -46.1°C | 35.7% | 270.2hPa | 2.9V | 00:00:00 | 00:00:00 | 00:00:00 | |
| OM5KV | 2026-09-01 11:47:38 | 47.38680 | 19.51502 | 92° | 78km/h | 10264m | 5.7m/s | -46.1°C | 35.5% | 270.4hPa | 2.9V | 00:00:00 | 00:00:00 | 00:00:00 | |
| PETON7-10 | 2026-09-01 11:47:37 | 47.38679 | 19.51440 | 90° | 80km/h | 10253m | 4.9m/s | -45.9°C | 39.6% | 270.7hPa | 2.9V | 00:00:00 | 00:00:00 | 00:00:00 | |
| OM5KV | 2026-09-01 11:47:34 | 47.38680 | 19.51378 | 94° | 80km/h | 10243m | 4.1m/s | -45.9°C | 35.3% | 271.3hPa | 2.9V | 00:00:00 | 00:00:00 | 00:00:00 | |
| ATIDSZ-14 | 2026-09-01 11:47:33 | 47.38682 | 19.51321 | 95° | 75km/h | 10234m | 6.0m/s | -45.8°C | 35.1% | 271.7hPa | 2.9V | 00:00:00 | 00:00:00 | 00:00:00 | |
| OM5KV | 2026-09-01 11:47:28 | 47.38688 | 19.51209 | 95° | 73km/h | 10213m | 5.5m/s | -45.6°C | 37.0% | 272.6hPa | 2.9V | 00:00:00 | 00:00:00 | 00:00:00 | |
| PETON7-10 | 2026-09-01 11:47:23 | 47.38686 | 19.50990 | 86° | 80km/h | 10182m | 4.0m/s | -45.3°C | 40.1% | 273.8hPa | 2.9V | 00:00:00 | 00:52:36 | 00:00:00 | |
| OM5KV | 2026-09-01 11:47:16 | 47.38684 | 19.50812 | 95° | 80km/h | 10139m | 10.8m/s | -45.0°C | 34.2% | 275.5hPa | 2.9V | 00:00:00 | 00:00:00 | 00:00:00 | |
| OM5KV | 2026-09-01 11:47:12 | 47.38692 | 19.50693 | 98° | 82km/h | 10113m | 6.2m/s | -44.7°C | 35.9% | 276.6hPa | 2.9V | 00:00:00 | 00:00:00 | 00:00:00 | |
| OM5KV | 2026-09-01 11:47:09 | 47.38697 | 19.50634 | 96° | 78km/h | 10103m | 6.0m/s | -44.6°C | 35.9% | 277.0hPa | 2.9V | 00:00:00 | 00:00:00 | 00:00:00 | |
| PETON7-10 | 2026-09-01 11:47:07 | 47.38696 | 19.50546 | 87° | 82km/h | 10086m | 4.4m/s | -44.4°C | 38.6% | 277.7hPa | 2.9V | 00:00:00 | 00:00:00 | 00:00:00 | |
| OM5KV | 2026-09-01 11:47:05 | 47.38696 | 19.50446 | 93° | 91km/h | 10067m | 5.1m/s | -44.3°C | 33.4% | 278.5hPa | 2.7V | 00:00:00 | 00:00:00 | 00:00:00 | |
| OM5KV | 2026-09-01 11:46:57 | 47.38709 | 19.50262 | 95° | 77km/h | 10031m | 6.1m/s | -44.0°C | 33.5% | 280.0hPa | 2.7V | 00:00:00 | 00:00:00 | 00:00:00 | |
| OM5KV | 2026-09-01 11:46:53 | 47.38708 | 19.50119 | 89° | 78km/h | 10003m | 6.8m/s | -43.7°C | 33.5% | 281.2hPa | 2.7V | 00:00:00 | 00:00:00 | 00:00:00 | |
| PETON7-10 | 2026-09-01 11:46:52 | 47.38708 | 19.50090 | 89° | 78km/h | 9997m | 4.6m/s | -43.6°C | 38.2% | 281.4hPa | 2.7V | 00:00:00 | 00:00:00 | 00:00:00 | |
| ATIDSZ-14 | 2026-09-01 11:46:51 | 47.38708 | 19.50090 | 90° | 80km/h | 9997m | 4.6m/s | -43.7°C | 33.8% | 281.4hPa | 2.7V | 00:00:00 | 00:00:00 | 00:00:00 | |
| OM5KV | 2026-09-01 11:46:48 | 47.38710 | 19.49998 | 96° | 86km/h | 9982m | 5.2m/s | -43.6°C | 34.2% | 282.0hPa | 2.7V | 00:00:00 | 00:00:00 | 00:00:00 | |
| OM5KV | 2026-09-01 11:46:47 | 47.38714 | 19.49934 | 98° | 86km/h | 9972m | 4.6m/s | -43.5°C | 34.3% | 282.4hPa | 2.7V | 00:00:00 | 00:00:00 | 00:00:00 | |
| PETON7-10 | 2026-09-01 11:46:37 | 47.38739 | 19.49658 | 97° | 77km/h | 9918m | 5.6m/s | -42.9°C | 38.3% | 284.7hPa | 2.7V | 00:00:00 | 00:51:51 | 00:00:00 | |
| OM5KV | 2026-09-01 11:46:34 | 47.38740 | 19.49606 | 90° | 71km/h | 9908m | 4.5m/s | -42.9°C | 33.6% | 285.2hPa | 2.7V | 00:00:00 | 00:00:00 | 00:00:00 | |
| ATIDSZ-14 | 2026-09-01 11:46:32 | 47.38740 | 19.49523 | 92° | 78km/h | 9886m | 6.0m/s | -42.7°C | 33.1% | 286.1hPa | 2.7V | 00:00:00 | 00:00:00 | 00:00:00 | |
| PETON7-10 | 2026-09-01 11:46:22 | 47.38744 | 19.49226 | 92° | 73km/h | 9822m | 4.0m/s | -42.1°C | 39.7% | 288.8hPa | 2.7V | 00:00:00 | 00:00:00 | 08:30:00 | |
| OM5KV | 2026-09-01 11:46:21 | 47.38744 | 19.49226 | 93° | 82km/h | 9822m | 4.1m/s | -42.2°C | 35.5% | 288.8hPa | 2.7V | 00:00:00 | 00:00:00 | 00:00:00 | |
| OM5KV | 2026-09-01 11:46:15 | 47.38750 | 19.49068 | 93° | 68km/h | 9794m | 4.3m/s | -42.0°C | 36.1% | 290.0hPa | 2.7V | 00:00:00 | 00:00:00 | 00:00:00 | |
| OM5KV | 2026-09-01 11:46:12 | 47.38751 | 19.48986 | 88° | 75km/h | 9777m | 8.5m/s | -41.9°C | 35.1% | 290.7hPa | 2.7V | 00:00:00 | 00:00:00 | 00:00:00 | |
| ATIDSZ-14 | 2026-09-01 11:46:11 | 47.38748 | 19.48930 | 85° | 77km/h | 9762m | 7.4m/s | -41.8°C | 35.4% | 291.3hPa | 2.7V | 00:00:00 | 00:00:00 | 00:00:00 | |
| OM5KV | 2026-09-01 11:46:10 | 47.38748 | 19.48930 | 85° | 77km/h | 9762m | 7.4m/s | -41.8°C | 35.4% | 291.3hPa | 2.7V | 00:00:00 | 00:00:00 | 00:00:00 | |
| OM5KV | 2026-09-01 11:46:07 | 47.38742 | 19.48814 | 90° | 82km/h | 9737m | 5.4m/s | -41.6°C | 36.7% | 292.4hPa | 2.7V | 00:00:00 | 00:00:00 | 00:00:00 | |
| OM5KV | 2026-09-01 11:46:04 | 47.38742 | 19.48752 | 92° | 84km/h | 9726m | 4.9m/s | -41.5°C | 37.0% | 292.9hPa | 2.7V | 00:00:00 | 00:00:00 | 00:00:00 | |
| OM5KV | 2026-09-01 11:46:00 | 47.38740 | 19.48635 | 83° | 71km/h | 9696m | 5.9m/s | -41.3°C | 36.9% | 294.1hPa | 2.7V | 00:00:00 | 00:00:00 | 00:00:00 | |
| OM5KV | 2026-09-01 11:45:59 | 47.38737 | 19.48609 | 80° | 73km/h | 9691m | 4.2m/s | -41.3°C | 37.3% | 294.4hPa | 2.7V | 00:00:00 | 00:00:00 | 00:00:00 | |
| PETON7-10 | 2026-09-01 11:45:52 | 47.38734 | 19.48356 | 91° | 78km/h | 9643m | 4.4m/s | -40.8°C | 40.6% | 296.4hPa | 2.7V | 00:00:00 | 00:51:06 | 00:00:00 | |
| OM5KV | 2026-09-01 11:45:50 | 47.38735 | 19.48253 | 94° | 88km/h | 9626m | 5.8m/s | -40.8°C | 37.0% | 297.1hPa | 2.7V | 00:00:00 | 00:00:00 | 00:00:00 | |
| OM5KV | 2026-09-01 11:45:48 | 47.38736 | 19.48222 | 94° | 82km/h | 9620m | 6.1m/s | -40.7°C | 36.8% | 297.3hPa | 2.7V | 00:00:00 | 00:00:00 | 00:00:00 | |
| OM5KV | 2026-09-01 11:45:43 | 47.38737 | 19.48108 | 91° | 73km/h | 9595m | 7.7m/s | -40.5°C | 36.6% | 298.6hPa | 2.7V | 00:00:00 | 00:00:00 | 00:00:00 | |
| OM5KV | 2026-09-01 11:45:42 | 47.38740 | 19.48056 | 100° | 68km/h | 9584m | 6.0m/s | -40.4°C | 36.6% | 299.1hPa | 2.7V | 00:00:00 | 00:00:00 | 00:00:00 | |
| PETON7-10 | 2026-09-01 11:45:36 | 47.38751 | 19.47889 | 90° | 77km/h | 9551m | 4.2m/s | -40.1°C | 41.5% | 300.6hPa | 2.7V | 00:00:00 | 00:00:00 | 00:00:00 | |
| ATIDSZ-14 | 2026-09-01 11:45:30 | 47.38739 | 19.47748 | 82° | 77km/h | 9527m | 4.3m/s | -40.0°C | 36.7% | 301.7hPa | 2.7V | 00:00:00 | 00:00:00 | 00:00:00 | |
| OM5KV | 2026-09-01 11:45:28 | 47.38736 | 19.47660 | 94° | 78km/h | 9511m | 4.1m/s | -39.8°C | 36.2% | 302.4hPa | 2.7V | 00:00:00 | 00:00:00 | 00:00:00 | |
| OM5KV | 2026-09-01 11:45:26 | 47.38739 | 19.47601 | 96° | 78km/h | 9495m | 8.0m/s | -39.7°C | 36.9% | 303.1hPa | 2.7V | 00:00:00 | 00:00:00 | 00:00:00 | |
| OM5KV | 2026-09-01 11:45:23 | 47.38743 | 19.47519 | 92° | 71km/h | 9478m | 6.1m/s | -39.6°C | 38.7% | 303.8hPa | 2.7V | 00:00:00 | 00:00:00 | 00:00:00 | |
| OM5KV | 2026-09-01 11:45:21 | 47.38741 | 19.47468 | 83° | 66km/h | 9469m | 5.0m/s | -39.6°C | 39.3% | 304.3hPa | 2.7V | 00:00:00 | 00:00:00 | 00:00:00 | |
| OM5KV | 2026-09-01 11:45:18 | 47.38737 | 19.47376 | 93° | 64km/h | 9450m | 4.7m/s | -39.5°C | 41.0% | 305.0hPa | 2.7V | 00:00:00 | 00:00:00 | 00:00:00 | |
| OM5KV | 2026-09-01 11:45:14 | 47.38738 | 19.47323 | 92° | 78km/h | 9439m | 7.3m/s | -39.4°C | 40.8% | 305.5hPa | 2.7V | 00:00:00 | 00:00:00 | 00:00:00 | |
| ATIDSZ-14 | 2026-09-01 11:45:10 | 47.38740 | 19.47166 | 97° | 77km/h | 9409m | 7.3m/s | -39.3°C | 40.0% | 306.9hPa | 2.7V | 00:00:00 | 00:00:00 | 00:00:00 | |
| OM5KV | 2026-09-01 11:45:09 | 47.38740 | 19.47166 | 97° | 77km/h | 9409m | 7.3m/s | -39.3°C | 40.0% | 306.9hPa | 2.7V | 00:00:00 | 00:00:00 | 00:00:00 | |
| PETON7-10 | 2026-09-01 11:45:07 | 47.38750 | 19.47060 | 92° | 71km/h | 9385m | 3.1m/s | -39.0°C | 44.8% | 307.9hPa | 2.7V | 00:00:00 | 00:50:20 | 00:00:00 | |
| OM5KV | 2026-09-01 11:45:06 | 47.38750 | 19.47010 | 89° | 66km/h | 9375m | 5.6m/s | -39.0°C | 40.1% | 308.4hPa | 2.7V | 00:00:00 | 00:00:00 | 00:00:00 | |
| OM5KV | 2026-09-01 11:44:59 | 47.38752 | 19.46908 | 98° | 75km/h | 9352m | 4.7m/s | -38.7°C | 39.6% | 309.4hPa | 2.7V | 00:00:00 | 00:00:00 | 00:00:00 | |
| OM5KV | 2026-09-01 11:44:54 | 47.38755 | 19.46769 | 84° | 71km/h | 9325m | 4.3m/s | -38.5°C | 38.5% | 310.7hPa | 2.7V | 00:00:00 | 00:00:00 | 00:00:00 | |
| OM5KV | 2026-09-01 11:44:52 | 47.38749 | 19.46719 | 82° | 64km/h | 9315m | 3.8m/s | -38.4°C | 38.2% | 311.2hPa | 2.7V | 00:00:00 | 00:00:00 | 00:00:00 | |
| PETON7-10 | 2026-09-01 11:44:51 | 47.38743 | 19.46671 | 80° | 77km/h | 9306m | 3.6m/s | -38.2°C | 41.3% | 311.6hPa | 2.7V | 00:00:00 | 00:00:00 | 00:00:00 | |
| OM5KV | 2026-09-01 11:44:49 | 47.38738 | 19.46620 | 87° | 68km/h | 9295m | 9.3m/s | -38.2°C | 35.8% | 312.0hPa | 2.9V | 00:00:00 | 00:00:00 | 00:00:00 | |
| OM5KV | 2026-09-01 11:44:48 | 47.38738 | 19.46595 | 89° | 68km/h | 9286m | 8.0m/s | -38.1°C | 35.9% | 312.4hPa | 2.9V | 00:00:00 | 00:00:00 | 00:00:00 | |
| OM5KV | 2026-09-01 11:44:42 | 47.38745 | 19.46424 | 94° | 95km/h | 9252m | 4.4m/s | -37.8°C | 36.6% | 314.0hPa | 2.9V | 00:00:00 | 00:00:00 | 00:00:00 | |
| OM5KV | 2026-09-01 11:44:38 | 47.38739 | 19.46287 | 81° | 84km/h | 9235m | 5.4m/s | -37.6°C | 35.9% | 314.8hPa | 2.9V | 00:00:00 | 00:00:00 | 00:00:00 | |
| PETON7-10 | 2026-09-01 11:44:37 | 47.38732 | 19.46230 | 81° | 75km/h | 9222m | 8.4m/s | -37.5°C | 39.1% | 315.3hPa | 2.9V | 00:00:00 | 00:00:00 | 00:00:00 | |
| OM5KV | 2026-09-01 11:44:35 | 47.38732 | 19.46230 | 81° | 71km/h | 9222m | 8.4m/s | -37.5°C | 35.5% | 315.3hPa | 2.9V | 00:00:00 | 00:00:00 | 00:00:00 | |
| OE3JTB-15 | 2026-09-01 11:44:29 | 47.38713 | 19.45995 | 92° | 73km/h | 9160m | 7.5m/s | -37.0°C | 39.9% | 318.2hPa | 2.9V | 00:00:00 | 00:00:00 | 00:00:00 | |
| OM5KV | 2026-09-01 11:44:27 | 47.38713 | 19.45995 | 92° | 82km/h | 9160m | 7.6m/s | -37.0°C | 36.3% | 318.2hPa | 2.7V | 00:00:00 | 00:00:00 | 00:00:00 | |
| OM5KV | 2026-09-01 11:44:21 | 47.38719 | 19.45809 | 88° | 88km/h | 9124m | 6.7m/s | -36.8°C | 36.9% | 319.9hPa | 2.7V | 00:00:00 | 00:00:00 | 00:00:00 | |
| OM5KV | 2026-09-01 11:44:17 | 47.38710 | 19.45708 | 83° | 88km/h | 9107m | 4.3m/s | -36.6°C | 37.7% | 320.7hPa | 2.7V | 00:00:00 | 00:00:00 | 00:00:00 | |
| OM5KV | 2026-09-01 11:44:15 | 47.38705 | 19.45644 | 86° | 84km/h | 9094m | 5.5m/s | -36.5°C | 38.9% | 321.2hPa | 2.7V | 00:00:00 | 00:00:00 | 00:00:00 | |
| OM5KV | 2026-09-01 11:44:10 | 47.38697 | 19.45508 | 83° | 68km/h | 9058m | 5.8m/s | -36.3°C | 40.1% | 322.8hPa | 2.7V | 00:00:00 | 00:00:00 | 00:00:00 | |
| ATIDSZ-14 | 2026-09-01 11:44:08 | 47.38693 | 19.45433 | 86° | 64km/h | 9038m | 5.3m/s | -36.1°C | 41.3% | 323.7hPa | 2.7V | 00:00:00 | 00:00:00 | 00:00:00 | |
| OM5KV | 2026-09-01 11:44:07 | 47.38691 | 19.45410 | 86° | 62km/h | 9034m | 3.5m/s | -36.1°C | 41.6% | 324.0hPa | 2.7V | 00:00:00 | 00:00:00 | 00:00:00 | |
| PETON7-10 | 2026-09-01 11:44:06 | 47.38690 | 19.45386 | 83° | 71km/h | 9029m | 4.5m/s | -36.0°C | 45.1% | 324.1hPa | 2.7V | 00:00:00 | 00:00:00 | 08:30:00 | |
| OM5KV | 2026-09-01 11:44:01 | 47.38674 | 19.45290 | 74° | 66km/h | 9007m | 7.7m/s | -35.8°C | 40.9% | 325.1hPa | 2.9V | 00:00:00 | 00:00:00 | 00:00:00 | |
| OE3JTB-15 | 2026-09-01 11:43:58 | 47.38663 | 19.45185 | 89° | 75km/h | 8982m | 8.7m/s | -35.6°C | 44.4% | 326.3hPa | 2.9V | 00:00:00 | 00:00:00 | 00:00:00 | |
| OM5KV | 2026-09-01 11:43:55 | 47.38664 | 19.45122 | 95° | 86km/h | 8966m | 7.8m/s | -35.5°C | 41.0% | 327.2hPa | 2.9V | 00:00:00 | 00:00:00 | 00:00:00 | |
| OM5KV | 2026-09-01 11:43:53 | 47.38673 | 19.45032 | 101° | 77km/h | 8946m | 4.9m/s | -35.3°C | 42.0% | 328.0hPa | 2.9V | 00:00:00 | 00:00:00 | 00:00:00 | |
| OM5KV | 2026-09-01 11:43:47 | 47.38678 | 19.44872 | 93° | 75km/h | 8909m | 7.9m/s | -35.0°C | 42.6% | 329.8hPa | 2.9V | 00:00:00 | 00:00:00 | 00:00:00 | |
| ATIDSZ-14 | 2026-09-01 11:43:46 | 47.38678 | 19.44843 | 92° | 78km/h | 8902m | 6.4m/s | -34.9°C | 42.8% | 330.1hPa | 2.9V | 00:00:00 | 00:00:00 | 00:00:00 | |
| OM5KV | 2026-09-01 11:43:43 | 47.38677 | 19.44784 | 86° | 78km/h | 8889m | 5.7m/s | -34.9°C | 43.7% | 330.7hPa | 2.9V | 00:00:00 | 00:00:00 | 00:00:00 | |
| OM5KV | 2026-09-01 11:43:41 | 47.38673 | 19.44730 | 85° | 69km/h | 8879m | 4.6m/s | -34.7°C | 44.1% | 331.2hPa | 2.9V | 00:00:00 | 00:00:00 | 00:00:00 | |
| PETON7-10 | 2026-09-01 11:43:38 | 47.38674 | 19.44623 | 97° | 73km/h | 8859m | 4.2m/s | -34.5°C | 47.4% | 332.2hPa | 2.9V | 00:00:00 | 00:00:00 | 00:00:00 | |
| OM5KV | 2026-09-01 11:43:35 | 47.38677 | 19.44567 | 92° | 73km/h | 8847m | 7.2m/s | -34.5°C | 43.8% | 332.7hPa | 2.9V | 00:00:00 | 00:00:00 | 00:00:00 | |
| OM5KV | 2026-09-01 11:43:33 | 47.38676 | 19.44514 | 87° | 71km/h | 8835m | 6.6m/s | -34.4°C | 43.0% | 333.2hPa | 2.9V | 00:00:00 | 00:00:00 | 00:00:00 | |
| OE3JTB-15 | 2026-09-01 11:43:29 | 47.38675 | 19.44380 | 86° | 77km/h | 8805m | 5.7m/s | -34.1°C | 46.7% | 334.7hPa | 2.9V | 00:00:00 | 00:48:43 | 00:00:00 | |
| OM5KV | 2026-09-01 11:43:28 | 47.38673 | 19.44352 | 82° | 75km/h | 8800m | 3.9m/s | -34.1°C | 43.3% | 335.0hPa | 2.9V | 00:00:00 | 00:00:00 | 00:00:00 | |
| ATIDSZ-14 | 2026-09-01 11:43:25 | 47.38664 | 19.44296 | 78° | 77km/h | 8788m | 6.2m/s | -34.0°C | 43.5% | 335.6hPa | 2.9V | 00:00:00 | 00:00:00 | 00:00:00 | |
| PETON7-10 | 2026-09-01 11:43:23 | 47.38656 | 19.44214 | 86° | 77km/h | 8772m | 5.6m/s | -33.8°C | 48.2% | 336.3hPa | 2.9V | 00:00:00 | 00:48:37 | 00:00:00 | |
| OM5KV | 2026-09-01 11:43:22 | 47.38655 | 19.44185 | 86° | 78km/h | 8767m | 5.9m/s | -33.8°C | 44.8% | 336.6hPa | 2.9V | 00:00:00 | 00:00:00 | 00:00:00 | |
| OM5KV | 2026-09-01 11:43:16 | 47.38657 | 19.44023 | 94° | 71km/h | 8740m | 3.3m/s | -33.6°C | 44.7% | 338.0hPa | 2.9V | 00:00:00 | 00:00:00 | 00:00:00 | |
| OM5KV | 2026-09-01 11:43:14 | 47.38658 | 19.43996 | 90° | 73km/h | 8736m | 4.9m/s | -33.6°C | 44.3% | 338.1hPa | 2.9V | 00:00:00 | 00:00:00 | 00:00:00 | |
| PETON7-10 | 2026-09-01 11:43:08 | 47.38640 | 19.43788 | 83° | 75km/h | 8693m | 4.2m/s | -33.2°C | 48.2% | 340.2hPa | 2.9V | 00:00:00 | 00:00:00 | 00:00:00 | |
| OM5KV | 2026-09-01 11:43:03 | 47.38623 | 19.43644 | 81° | 75km/h | 8667m | 7.0m/s | -33.0°C | 44.3% | 341.4hPa | 2.7V | 00:00:00 | 00:00:00 | 00:00:00 | |
| OE3JTB-15 | 2026-09-01 11:43:00 | 47.38612 | 19.43557 | 78° | 77km/h | 8649m | 7.7m/s | -32.8°C | 46.5% | 342.3hPa | 2.7V | 00:00:00 | 00:00:00 | 08:30:00 | |
| OM5KV | 2026-09-01 11:42:58 | 47.38606 | 19.43530 | 74° | 73km/h | 8641m | 8.1m/s | -32.8°C | 42.7% | 342.7hPa | 2.9V | 00:00:00 | 00:00:00 | 00:00:00 | |
| OM5KV | 2026-09-01 11:42:56 | 47.38595 | 19.43482 | 72° | 66km/h | 8630m | 5.4m/s | -32.7°C | 42.9% | 343.3hPa | 2.9V | 00:00:00 | 00:00:00 | 00:00:00 | |
| PETON7-10 | 2026-09-01 11:42:53 | 47.38582 | 19.43384 | 85° | 82km/h | 8612m | 5.7m/s | -32.5°C | 45.8% | 344.1hPa | 2.9V | 00:00:00 | 00:00:00 | 00:00:00 | |
| OM5KV | 2026-09-01 11:42:52 | 47.38582 | 19.43384 | 85° | 73km/h | 8612m | 5.8m/s | -32.5°C | 42.5% | 344.1hPa | 2.9V | 00:00:00 | 00:00:00 | 00:00:00 | |
| OM5KV | 2026-09-01 11:42:50 | 47.38579 | 19.43328 | 85° | 78km/h | 8599m | 7.5m/s | -32.4°C | 42.4% | 344.8hPa | 2.9V | 00:00:00 | 00:00:00 | 00:00:00 | |
| OM5KV | 2026-09-01 11:42:47 | 47.38575 | 19.43238 | 91° | 78km/h | 8581m | 6.0m/s | -32.2°C | 43.0% | 345.7hPa | 2.9V | 00:00:00 | 00:00:00 | 00:00:00 | |
| OM5KV | 2026-09-01 11:42:45 | 47.38574 | 19.43183 | 86° | 75km/h | 8571m | 3.7m/s | -32.1°C | 43.4% | 346.2hPa | 2.9V | 00:00:00 | 00:00:00 | 00:00:00 | |
| ATIDSZ-14 | 2026-09-01 11:42:42 | 47.38567 | 19.43095 | 82° | 86km/h | 8551m | 6.1m/s | -31.9°C | 42.5% | 347.1hPa | 2.9V | 00:00:00 | 00:00:00 | 00:00:00 | |
| OM5KV | 2026-09-01 11:42:39 | 47.38552 | 19.42998 | 79° | 93km/h | 8539m | 4.2m/s | -31.8°C | 41.8% | 347.7hPa | 2.9V | 00:00:00 | 00:00:00 | 00:00:00 | |
| PETON7-10 | 2026-09-01 11:42:38 | 47.38545 | 19.42930 | 86° | 75km/h | 8529m | 4.7m/s | -31.7°C | 45.7% | 348.2hPa | 2.9V | 00:00:00 | 00:47:52 | 00:00:00 | |
| OE3JTB-15 | 2026-09-01 11:42:31 | 47.38543 | 19.42740 | 82° | 73km/h | 8487m | 4.5m/s | -31.3°C | 46.3% | 350.3hPa | 2.9V | 00:00:00 | 00:00:00 | 00:00:00 | |
| OM5KV | 2026-09-01 11:42:30 | 47.38543 | 19.42740 | 82° | 68km/h | 8487m | 4.5m/s | -31.4°C | 43.1% | 350.4hPa | 2.9V | 00:00:00 | 00:00:00 | 00:00:00 | |
| OM5KV | 2026-09-01 11:42:26 | 47.38537 | 19.42631 | 89° | 82km/h | 8463m | 5.3m/s | -31.1°C | 42.4% | 351.6hPa | 2.9V | 00:00:00 | 00:00:00 | 00:00:00 | |
| OM5KV | 2026-09-01 11:42:25 | 47.38536 | 19.42601 | 87° | 82km/h | 8457m | 7.9m/s | -31.1°C | 42.3% | 351.9hPa | 2.9V | 00:00:00 | 00:00:00 | 00:00:00 | |
| PETON7-10 | 2026-09-01 11:42:23 | 47.38527 | 19.42519 | 81° | 75km/h | 8437m | 6.9m/s | -30.9°C | 45.2% | 352.8hPa | 2.9V | 00:00:00 | 00:00:00 | 00:00:00 | |
| ATIDSZ-14 | 2026-09-01 11:42:21 | 47.38525 | 19.42495 | 88° | 66km/h | 8430m | 7.0m/s | -30.9°C | 42.0% | 353.1hPa | 2.9V | 00:00:00 | 00:00:00 | 00:00:00 | |
| OM5KV | 2026-09-01 11:42:19 | 47.38526 | 19.42442 | 94° | 78km/h | 8416m | 6.1m/s | -30.8°C | 41.6% | 353.8hPa | 2.9V | 00:00:00 | 00:00:00 | 00:00:00 | |
| OM5KV | 2026-09-01 11:42:15 | 47.38517 | 19.42316 | 77° | 80km/h | 8391m | 5.6m/s | -30.5°C | 41.3% | 355.1hPa | 2.9V | 00:00:00 | 00:00:00 | 00:00:00 | |
| OM5KV | 2026-09-01 11:42:14 | 47.38512 | 19.42289 | 78° | 73km/h | 8386m | 6.2m/s | -30.5°C | 41.3% | 355.3hPa | 2.9V | 00:00:00 | 00:00:00 | 00:00:00 | |
| OM5KV | 2026-09-01 11:42:09 | 47.38512 | 19.42161 | 96° | 77km/h | 8355m | 5.3m/s | -30.2°C | 43.1% | 356.9hPa | 2.9V | 00:00:00 | 00:00:00 | 00:00:00 | |
| PETON7-10 | 2026-09-01 11:42:08 | 47.38513 | 19.42103 | 89° | 77km/h | 8343m | 7.5m/s | -30.1°C | 45.8% | 357.4hPa | 2.9V | 00:00:00 | 00:00:00 | 00:00:00 | |
| OM5KV | 2026-09-01 11:42:04 | 47.38506 | 19.41992 | 87° | 77km/h | 8319m | 9.6m/s | -30.0°C | 40.9% | 358.6hPa | 2.9V | 00:00:00 | 00:00:00 | 00:00:00 | |
| OM5KV | 2026-09-01 11:42:03 | 47.38505 | 19.41962 | 94° | 78km/h | 8310m | 7.5m/s | -29.9°C | 40.7% | 359.1hPa | 2.9V | 00:00:00 | 00:00:00 | 00:00:00 | |
| ATIDSZ-14 | 2026-09-01 11:42:01 | 47.38507 | 19.41933 | 101° | 82km/h | 8303m | 7.4m/s | -29.8°C | 40.7% | 359.5hPa | 2.9V | 00:00:00 | 00:00:00 | 00:00:00 | |
| OM5KV | 2026-09-01 11:41:57 | 47.38519 | 19.41815 | 91° | 82km/h | 8278m | 6.2m/s | -29.5°C | 41.8% | 360.9hPa | 2.9V | 00:00:00 | 00:00:00 | 00:00:00 | |
| OM5KV | 2026-09-01 11:41:56 | 47.38518 | 19.41785 | 85° | 80km/h | 8273m | 5.2m/s | -29.5°C | 41.8% | 361.1hPa | 2.9V | 00:00:00 | 00:00:00 | 00:00:00 | |
| OM5KV | 2026-09-01 11:41:53 | 47.38504 | 19.41674 | 83° | 71km/h | 8250m | 5.2m/s | -29.3°C | 42.5% | 362.4hPa | 2.9V | 00:00:00 | 00:00:00 | 00:00:00 | |
| OM5KV | 2026-09-01 11:41:52 | 47.38502 | 19.41647 | 85° | 75km/h | 8246m | 3.2m/s | -29.2°C | 41.7% | 362.7hPa | 2.9V | 00:00:00 | 00:00:00 | 00:00:00 | |
| OM5KV | 2026-09-01 11:41:46 | 47.38496 | 19.41516 | 98° | 73km/h | 8210m | 7.9m/s | -29.0°C | 40.8% | 364.4hPa | 2.9V | 00:00:00 | 00:00:00 | 00:00:00 | |
| OM5KV | 2026-09-01 11:41:39 | 47.38518 | 19.41324 | 103° | 66km/h | 8169m | 5.4m/s | -28.6°C | 41.8% | 366.6hPa | 2.9V | 00:00:00 | 00:00:00 | 00:00:00 | |
| PETON7-10 | 2026-09-01 11:41:38 | 47.38525 | 19.41274 | 104° | 69km/h | 8156m | 8.0m/s | -28.5°C | 44.4% | 367.1hPa | 2.9V | 00:00:00 | 00:00:00 | 08:30:00 | |
| ATIDSZ-14 | 2026-09-01 11:41:36 | 47.38529 | 19.41247 | 101° | 75km/h | 8149m | 5.8m/s | -28.4°C | 41.8% | 367.6hPa | 2.9V | 00:00:00 | 00:00:00 | 00:00:00 | |
| OM5KV | 2026-09-01 11:41:34 | 47.38536 | 19.41170 | 99° | 62km/h | 8130m | 9.4m/s | -28.3°C | 39.9% | 368.5hPa | 2.9V | 00:00:00 | 00:00:00 | 00:00:00 | |
| OM5KV | 2026-09-01 11:41:28 | 47.38546 | 19.41035 | 95° | 77km/h | 8092m | 5.1m/s | -27.9°C | 40.6% | 370.5hPa | 2.9V | 00:00:00 | 00:00:00 | 00:00:00 | |
| PETON7-10 | 2026-09-01 11:41:23 | 47.38545 | 19.40888 | 92° | 73km/h | 8053m | 5.4m/s | -27.6°C | 43.9% | 372.5hPa | 2.9V | 00:00:00 | 00:00:00 | 00:00:00 | |
| OM5KV | 2026-09-01 11:41:21 | 47.38546 | 19.40858 | 96° | 84km/h | 8047m | 7.5m/s | -27.6°C | 41.0% | 372.8hPa | 2.9V | 00:00:00 | 00:00:00 | 00:00:00 | |
| OM5KV | 2026-09-01 11:41:18 | 47.38552 | 19.40765 | 97° | 77km/h | 8029m | 6.2m/s | -27.5°C | 41.4% | 373.7hPa | 2.9V | 00:00:00 | 00:00:00 | 00:00:00 | |
| ATIDSZ-14 | 2026-09-01 11:41:16 | 47.38556 | 19.40714 | 97° | 62km/h | 8017m | 5.9m/s | -27.3°C | 41.1% | 374.3hPa | 2.9V | 00:00:00 | 00:00:00 | 00:00:00 | |
| OM5KV | 2026-09-01 11:41:12 | 47.38561 | 19.40620 | 94° | 68km/h | 7990m | 6.8m/s | -27.1°C | 40.6% | 375.6hPa | 2.9V | 00:00:00 | 00:00:00 | 00:00:00 | |
| OM5KV | 2026-09-01 11:41:10 | 47.38563 | 19.40568 | 95° | 71km/h | 7978m | 4.6m/s | -27.0°C | 40.3% | 376.3hPa | 2.9V | 00:00:00 | 00:00:00 | 00:00:00 | |
| PETON7-10 | 2026-09-01 11:41:08 | 47.38574 | 19.40485 | 107° | 71km/h | 7959m | 5.5m/s | -26.8°C | 42.9% | 377.2hPa | 2.9V | 00:00:00 | 00:46:22 | 00:00:00 | |
| OM5KV | 2026-09-01 11:41:06 | 47.38580 | 19.40456 | 105° | 78km/h | 7955m | 2.5m/s | -26.8°C | 40.5% | 377.5hPa | 2.9V | 00:00:00 | 00:00:00 | 00:00:00 | |
| OM5KV | 2026-09-01 11:41:05 | 47.38584 | 19.40428 | 102° | 75km/h | 7951m | 5.7m/s | -26.8°C | 40.0% | 377.8hPa | 2.9V | 00:00:00 | 00:00:00 | 00:00:00 | |
| OM5KV | 2026-09-01 11:40:59 | 47.38581 | 19.40280 | 93° | 66km/h | 7914m | 7.1m/s | -26.4°C | 39.0% | 379.8hPa | 2.9V | 00:00:00 | 00:00:00 | 00:00:00 | |
| ATIDSZ-14 | 2026-09-01 11:40:55 | 47.38596 | 19.40177 | 109° | 77km/h | 7889m | 5.8m/s | -26.2°C | 39.1% | 380.9hPa | 2.9V | 00:00:00 | 00:00:00 | 00:00:00 | |
| PETON7-10 | 2026-09-01 11:40:53 | 47.38612 | 19.40092 | 103° | 71km/h | 7877m | 3.7m/s | 0°C | 0% | 0hPa | 2.9V | 00:00:00 | 00:00:00 | 00:00:00 | |
| OM5KV | 2026-09-01 11:40:47 | 47.38631 | 19.39959 | 99° | 55km/h | 7839m | 8.1m/s | -25.8°C | 36.0% | 383.5hPa | 2.9V | 00:00:00 | 00:00:00 | 00:00:00 | |
| OM5KV | 2026-09-01 11:40:44 | 47.38632 | 19.39871 | 90° | 69km/h | 7812m | 7.8m/s | -25.5°C | 35.5% | 384.9hPa | 2.9V | 00:00:00 | 00:00:00 | 00:00:00 | |
| OM5KV | 2026-09-01 11:40:41 | 47.38632 | 19.39815 | 91° | 78km/h | 7799m | 7.1m/s | -25.4°C | 35.1% | 385.6hPa | 2.9V | 00:00:00 | 00:00:00 | 00:00:00 | |
| OM5KV | 2026-09-01 11:40:38 | 47.38642 | 19.39702 | 107° | 73km/h | 7772m | 7.4m/s | -25.2°C | 34.1% | 387.0hPa | 2.9V | 00:00:00 | 00:00:00 | 00:00:00 | |
| ATIDSZ-14 | 2026-09-01 11:40:36 | 47.38653 | 19.39648 | 109° | 77km/h | 7761m | 3.5m/s | -25.0°C | 34.1% | 387.7hPa | 2.9V | 00:00:00 | 00:00:00 | 00:00:00 | |
| OM5KV | 2026-09-01 11:40:31 | 47.38674 | 19.39544 | 103° | 68km/h | 7740m | 7.9m/s | -24.9°C | 33.6% | 388.7hPa | 2.9V | 00:00:00 | 00:00:00 | 00:00:00 | |
| OM5KV | 2026-09-01 11:40:30 | 47.38676 | 19.39519 | 98° | 68km/h | 7733m | 5.8m/s | -24.8°C | 33.6% | 389.1hPa | 2.9V | 00:00:00 | 00:00:00 | 00:00:00 | |
| OM5KV | 2026-09-01 11:40:25 | 47.38679 | 19.39385 | 95° | 60km/h | 7697m | 4.3m/s | -24.4°C | 34.2% | 391.0hPa | 2.9V | 00:00:00 | 00:00:00 | 00:00:00 | |
| PETON7-10 | 2026-09-01 11:40:23 | 47.38682 | 19.39338 | 98° | 69km/h | 7686m | 6.3m/s | 0°C | 0% | 0hPa | 2.9V | 00:00:00 | 00:45:37 | 00:00:00 | |
| OM5KV | 2026-09-01 11:40:19 | 47.38690 | 19.39242 | 91° | 69km/h | 7658m | 7.3m/s | -24.3°C | 34.0% | 393.2hPa | 2.9V | 00:00:00 | 00:00:00 | 00:00:00 | |
| ATIDSZ-14 | 2026-09-01 11:40:14 | 47.38693 | 19.39130 | 96° | 71km/h | 7630m | 7.4m/s | -24.1°C | 33.3% | 394.8hPa | 2.9V | 00:00:00 | 00:00:00 | 00:00:00 | |
| OM5KV | 2026-09-01 11:40:12 | 47.38694 | 19.39081 | 91° | 62km/h | 7615m | 6.1m/s | -24.0°C | 32.5% | 395.5hPa | 2.9V | 00:00:00 | 00:00:00 | 00:00:00 | |
| OM5KV | 2026-09-01 11:40:11 | 47.38694 | 19.39057 | 93° | 64km/h | 7610m | 6.4m/s | -23.9°C | 31.8% | 395.8hPa | 2.9V | 00:00:00 | 00:00:00 | 00:00:00 | |
| PETON7-10 | 2026-09-01 11:40:09 | 47.38704 | 19.38951 | 103° | 75km/h | 7579m | 9.5m/s | 0°C | 0% | 0hPa | 2.9V | 00:00:00 | 00:00:00 | 00:00:00 | |
| OM5KV | 2026-09-01 11:40:07 | 47.38704 | 19.38951 | 104° | 75km/h | 7579m | 9.6m/s | -23.8°C | 31.6% | 397.4hPa | 2.9V | 00:00:00 | 00:00:00 | 00:00:00 | |
| OM5KV | 2026-09-01 11:40:05 | 47.38710 | 19.38899 | 97° | 69km/h | 7561m | 7.5m/s | -23.6°C | 31.7% | 398.4hPa | 2.9V | 00:00:00 | 00:00:00 | 00:00:00 | |
| OM5KV | 2026-09-01 11:40:03 | 47.38709 | 19.38819 | 86° | 78km/h | 7543m | 5.6m/s | -23.4°C | 31.9% | 399.4hPa | 2.9V | 00:00:00 | 00:00:00 | 00:00:00 | |
| OM5KV | 2026-09-01 11:39:56 | 47.38716 | 19.38647 | 104° | 75km/h | 7509m | 7.7m/s | -23.1°C | 32.1% | 401.2hPa | 2.9V | 00:00:00 | 00:00:00 | 00:00:00 | |
| OM5KV | 2026-09-01 11:39:54 | 47.38722 | 19.38595 | 97° | 66km/h | 7496m | 6.3m/s | -23.0°C | 32.2% | 402.0hPa | 2.9V | 00:00:00 | 00:00:00 | 00:00:00 | |
| PETON7-10 | 2026-09-01 11:39:53 | 47.38723 | 19.38546 | 89° | 68km/h | 7483m | 7.9m/s | 0°C | 0% | 0hPa | 2.9V | 00:00:00 | 00:00:00 | 00:00:00 | |
| OE3JTB-15 | 2026-09-01 11:39:51 | 47.38723 | 19.38493 | 91° | 64km/h | 7468m | 5.9m/s | -22.7°C | 33.2% | 403.5hPa | 2.9V | 00:00:00 | 00:45:05 | 00:00:00 | |
| OM5KV | 2026-09-01 11:39:50 | 47.38723 | 19.38493 | 91° | 73km/h | 7468m | 6.0m/s | -22.8°C | 31.3% | 403.5hPa | 2.9V | 00:00:00 | 00:00:00 | 00:00:00 | |
| OM5KV | 2026-09-01 11:39:45 | 47.38732 | 19.38370 | 100° | 71km/h | 7431m | 8.3m/s | -22.5°C | 30.8% | 405.6hPa | 2.9V | 00:00:00 | 00:00:00 | 00:00:00 | |
| OM5KV | 2026-09-01 11:39:43 | 47.38736 | 19.38316 | 95° | 71km/h | 7417m | 7.3m/s | -22.4°C | 31.1% | 406.4hPa | 2.9V | 00:00:00 | 00:00:00 | 00:00:00 | |
| OM5KV | 2026-09-01 11:39:39 | 47.38753 | 19.38200 | 105° | 57km/h | 7381m | 7.6m/s | -22.1°C | 30.9% | 408.3hPa | 2.9V | 00:00:00 | 00:00:00 | 00:00:00 | |
| PETON7-10 | 2026-09-01 11:39:38 | 47.38756 | 19.38180 | 98° | 69km/h | 7374m | 6.2m/s | 0°C | 0% | 0hPa | 2.9V | 00:00:00 | 00:44:52 | 00:00:00 | |
| OM5KV | 2026-09-01 11:39:35 | 47.38754 | 19.38111 | 89° | 69km/h | 7360m | 5.4m/s | -21.9°C | 28.8% | 409.4hPa | 2.9V | 00:00:00 | 00:00:00 | 00:00:00 | |
| OM5KV | 2026-09-01 11:39:33 | 47.38754 | 19.38084 | 91° | 78km/h | 7355m | 5.2m/s | -21.9°C | 28.2% | 409.7hPa | 2.9V | 00:00:00 | 00:00:00 | 00:00:00 | |
| ATIDSZ-14 | 2026-09-01 11:39:32 | 47.38755 | 19.38054 | 94° | 82km/h | 7349m | 7.2m/s | -21.8°C | 27.4% | 410.0hPa | 2.9V | 00:00:00 | 00:00:00 | 00:00:00 | |
| OM5KV | 2026-09-01 11:39:30 | 47.38767 | 19.37968 | 113° | 75km/h | 7328m | 6.8m/s | -21.7°C | 25.1% | 411.2hPa | 2.9V | 00:00:00 | 00:00:00 | 00:00:00 | |
| OM5KV | 2026-09-01 11:39:27 | 47.38781 | 19.37917 | 114° | 71km/h | 7313m | 9.2m/s | -21.6°C | 22.5% | 412.0hPa | 2.9V | 00:00:00 | 00:00:00 | 00:00:00 | |
| PETON7-10 | 2026-09-01 11:39:23 | 47.38804 | 19.37802 | 107° | 73km/h | 7276m | 9.8m/s | 0°C | 0% | 0hPa | 2.9V | 00:00:00 | 00:00:00 | 00:00:00 | |
| OE3JTB-15 | 2026-09-01 11:39:22 | 47.38809 | 19.37775 | 104° | 66km/h | 7268m | 6.4m/s | -21.2°C | 23.1% | 414.4hPa | 2.9V | 00:00:00 | 00:00:00 | 00:00:00 | |
| OM5KV | 2026-09-01 11:39:21 | 47.38809 | 19.37775 | 105° | 78km/h | 7268m | 6.4m/s | -21.2°C | 21.7% | 414.5hPa | 2.6V | 00:00:00 | 00:00:00 | 00:00:00 | |
| OM5KV | 2026-09-01 11:39:17 | 47.38822 | 19.37662 | 96° | 69km/h | 7241m | 5.4m/s | -20.9°C | 22.1% | 416.0hPa | 2.6V | 00:00:00 | 00:00:00 | 00:00:00 | |
| OM5KV | 2026-09-01 11:39:16 | 47.38823 | 19.37637 | 97° | 68km/h | 7235m | 5.9m/s | -20.9°C | 21.7% | 416.4hPa | 2.6V | 00:00:00 | 00:00:00 | 00:00:00 | |
| ATIDSZ-14 | 2026-09-01 11:39:12 | 47.38827 | 19.37527 | 88° | 77km/h | 7206m | 5.1m/s | -20.7°C | 20.5% | 418.0hPa | 2.6V | 00:00:00 | 00:00:00 | 00:00:00 | |
| OM5KV | 2026-09-01 11:39:11 | 47.38825 | 19.37500 | 85° | 71km/h | 7199m | 8.1m/s | -20.6°C | 20.2% | 418.4hPa | 2.6V | 00:00:00 | 00:00:00 | 00:00:00 | |
| OM5KV | 2026-09-01 11:39:06 | 47.38834 | 19.37389 | 105° | 58km/h | 7165m | 6.8m/s | -20.3°C | 18.8% | 420.4hPa | 2.6V | 00:00:00 | 00:00:00 | 00:00:00 | |
| OM5KV | 2026-09-01 11:39:01 | 47.38848 | 19.37285 | 104° | 62km/h | 7133m | 6.4m/s | -20.1°C | 19.6% | 422.1hPa | 2.6V | 00:00:00 | 00:00:00 | 00:00:00 | |
| OM5KV | 2026-09-01 11:39:00 | 47.38852 | 19.37261 | 102° | 68km/h | 7127m | 6.1m/s | -20.0°C | 19.8% | 422.6hPa | 2.6V | 00:00:00 | 00:00:00 | 00:00:00 | |
| OM5KV | 2026-09-01 11:38:55 | 47.38858 | 19.37131 | 96° | 60km/h | 7093m | 7.7m/s | -19.7°C | 17.5% | 424.6hPa | 2.6V | 00:00:00 | 00:00:00 | 00:00:00 | |
| OE3JTB-15 | 2026-09-01 11:38:53 | 47.38867 | 19.37069 | 108° | 68km/h | 7074m | 8.5m/s | -19.5°C | 19.1% | 425.6hPa | 2.6V | 00:00:00 | 00:00:00 | 00:00:00 | |
| ATIDSZ-14 | 2026-09-01 11:38:52 | 47.38867 | 19.37069 | 108° | 62km/h | 7074m | 8.5m/s | -19.6°C | 17.9% | 425.7hPa | 2.6V | 00:00:00 | 00:00:00 | 00:00:00 | |
| OM5KV | 2026-09-01 11:38:50 | 47.38875 | 19.37020 | 103° | 71km/h | 7060m | 9.7m/s | -19.5°C | 17.9% | 426.5hPa | 2.6V | 00:00:00 | 00:00:00 | 00:00:00 | |
| OM5KV | 2026-09-01 11:38:44 | 47.38878 | 19.36849 | 93° | 73km/h | 7016m | 4.1m/s | -19.1°C | 18.8% | 429.0hPa | 2.6V | 00:00:00 | 00:00:00 | 00:00:00 | |
| OM5KV | 2026-09-01 11:38:39 | 47.38882 | 19.36732 | 97° | 53km/h | 6981m | 7.4m/s | -18.8°C | 17.0% | 431.0hPa | 2.6V | 00:00:00 | 00:00:00 | 00:00:00 | |
| OM5KV | 2026-09-01 11:38:33 | 47.38899 | 19.36606 | 92° | 71km/h | 6945m | 9.0m/s | -18.5°C | 14.9% | 433.2hPa | 2.6V | 00:00:00 | 00:00:00 | 00:00:00 | |
| ATIDSZ-14 | 2026-09-01 11:38:32 | 47.38899 | 19.36579 | 90° | 73km/h | 6937m | 6.2m/s | -18.5°C | 14.6% | 433.6hPa | 2.6V | 00:00:00 | 00:00:00 | 00:00:00 | |
| OE3JTB-15 | 2026-09-01 11:38:24 | 47.38916 | 19.36340 | 88° | 69km/h | 6873m | 7.2m/s | -18.0°C | 17.3% | 437.2hPa | 2.6V | 00:00:00 | 00:43:38 | 00:00:00 | |
| OM5KV | 2026-09-01 11:38:23 | 47.38916 | 19.36340 | 89° | 64km/h | 6873m | 7.3m/s | -18.1°C | 16.2% | 437.3hPa | 2.6V | 00:00:00 | 00:00:00 | 00:00:00 | |
| OM5KV | 2026-09-01 11:38:19 | 47.38915 | 19.36225 | 93° | 66km/h | 6841m | 6.1m/s | -17.8°C | 16.9% | 439.1hPa | 2.6V | 00:00:00 | 00:00:00 | 00:00:00 | |
| OM5KV | 2026-09-01 11:38:16 | 47.38917 | 19.36176 | 96° | 62km/h | 6828m | 8.5m/s | -17.7°C | 17.4% | 439.8hPa | 2.6V | 00:00:00 | 00:00:00 | 00:00:00 | |
| OM5KV | 2026-09-01 11:38:12 | 47.38919 | 19.36078 | 90° | 77km/h | 6802m | 5.3m/s | -17.5°C | 18.0% | 441.4hPa | 2.6V | 00:00:00 | 00:00:00 | 00:00:00 | |
| ATIDSZ-14 | 2026-09-01 11:38:11 | 47.38920 | 19.36049 | 94° | 80km/h | 6796m | 6.4m/s | -17.4°C | 18.0% | 441.7hPa | 2.6V | 00:00:00 | 00:00:00 | 00:00:00 | |
| OM5KV | 2026-09-01 11:38:06 | 47.38932 | 19.35915 | 95° | 66km/h | 6764m | 7.7m/s | -17.1°C | 15.8% | 443.6hPa | 2.6V | 00:00:00 | 00:00:00 | 00:00:00 | |
| OM5KV | 2026-09-01 11:38:05 | 47.38933 | 19.35890 | 94° | 69km/h | 6757m | 5.4m/s | -17.1°C | 15.3% | 444.0hPa | 2.6V | 00:00:00 | 00:00:00 | 00:00:00 | |
| OM5KV | 2026-09-01 11:38:00 | 47.38949 | 19.35752 | 102° | 64km/h | 6715m | 7.4m/s | -16.7°C | 14.3% | 446.5hPa | 2.6V | 00:00:00 | 00:00:00 | 00:00:00 | |
| OE3JTB-15 | 2026-09-01 11:37:54 | 47.38963 | 19.35572 | 96° | 69km/h | 6672m | 4.2m/s | 0°C | 0% | 0hPa | 2.6V | 00:00:00 | 00:00:00 | 00:00:00 | |
| ATIDSZ-14 | 2026-09-01 11:37:50 | 47.38971 | 19.35495 | 102° | 64km/h | 6654m | 6.6m/s | -16.3°C | 19.3% | 450.0hPa | 2.6V | 00:00:00 | 00:00:00 | 00:00:00 | |
| OM5KV | 2026-09-01 11:37:48 | 47.38979 | 19.35448 | 105° | 68km/h | 6637m | 8.0m/s | -16.1°C | 20.2% | 450.9hPa | 2.6V | 00:00:00 | 00:00:00 | 00:00:00 | |
| OM5KV | 2026-09-01 11:37:42 | 47.38988 | 19.35304 | 88° | 60km/h | 6600m | 4.5m/s | -15.8°C | 23.7% | 453.2hPa | 2.6V | 00:00:00 | 00:00:00 | 00:00:00 | |
| OM5KV | 2026-09-01 11:37:37 | 47.38983 | 19.35167 | 89° | 84km/h | 6573m | 5.4m/s | -15.6°C | 23.9% | 454.9hPa | 2.6V | 00:00:00 | 00:00:00 | 00:00:00 | |
| OM5KV | 2026-09-01 11:37:36 | 47.38982 | 19.35136 | 87° | 82km/h | 6568m | 4.5m/s | -15.6°C | 24.1% | 455.2hPa | 2.6V | 00:00:00 | 00:00:00 | 00:00:00 | |
| ATIDSZ-14 | 2026-09-01 11:37:30 | 47.38993 | 19.34971 | 107° | 68km/h | 6537m | 6.5m/s | -15.3°C | 24.2% | 457.1hPa | 2.6V | 00:00:00 | 00:00:00 | 00:00:00 | |
| OE3JTB-15 | 2026-09-01 11:37:25 | 47.39000 | 19.34832 | 90° | 68km/h | 6498m | 3.9m/s | 0°C | 0% | 0hPa | 2.6V | 00:00:00 | 00:00:00 | 00:00:00 | |
| OM5KV | 2026-09-01 11:37:20 | 47.39006 | 19.34733 | 100° | 71km/h | 6477m | 9.1m/s | -14.8°C | 25.3% | 460.7hPa | 2.6V | 00:00:00 | 00:00:00 | 00:00:00 | |
| OM5KV | 2026-09-01 11:37:14 | 47.39016 | 19.34589 | 100° | 77km/h | 6438m | 6.8m/s | -14.5°C | 23.3% | 463.1hPa | 2.6V | 00:00:00 | 00:00:00 | 00:00:00 | |
| OM5KV | 2026-09-01 11:37:13 | 47.39021 | 19.34560 | 104° | 80km/h | 6432m | 5.6m/s | -14.5°C | 23.3% | 463.4hPa | 2.6V | 00:00:00 | 00:00:00 | 00:00:00 | |
| ATIDSZ-14 | 2026-09-01 11:37:10 | 47.39040 | 19.34450 | 99° | 71km/h | 6408m | 6.2m/s | -14.2°C | 23.9% | 464.9hPa | 2.6V | 00:00:00 | 00:00:00 | 00:00:00 | |
| OM5KV | 2026-09-01 11:37:09 | 47.39040 | 19.34450 | 99° | 71km/h | 6408m | 6.2m/s | -14.2°C | 23.9% | 464.9hPa | 2.6V | 00:00:00 | 00:00:00 | 00:00:00 | |
| OM5KV | 2026-09-01 11:37:08 | 47.39042 | 19.34400 | 90° | 62km/h | 6397m | 5.0m/s | -14.2°C | 24.1% | 465.6hPa | 2.6V | 00:00:00 | 00:00:00 | 00:00:00 | |
| OM5KV | 2026-09-01 11:37:03 | 47.39051 | 19.34315 | 113° | 64km/h | 6370m | 4.9m/s | -14.0°C | 23.8% | 467.2hPa | 2.6V | 00:00:00 | 00:00:00 | 00:00:00 | |
| OM5KV | 2026-09-01 11:37:02 | 47.39057 | 19.34293 | 112° | 66km/h | 6365m | 6.8m/s | -13.9°C | 23.6% | 467.5hPa | 2.6V | 00:00:00 | 00:00:00 | 00:00:00 | |
| OM5KV | 2026-09-01 11:36:57 | 47.39066 | 19.34168 | 86° | 68km/h | 6332m | 7.6m/s | -13.6°C | 23.1% | 469.6hPa | 2.6V | 00:00:00 | 00:00:00 | 00:00:00 | |
| OE3JTB-15 | 2026-09-01 11:36:56 | 47.39063 | 19.34119 | 90° | 68km/h | 6321m | 3.2m/s | 0°C | 0% | 0hPa | 2.6V | 00:00:00 | 00:42:10 | 00:00:00 | |
| OM5KV | 2026-09-01 11:36:52 | 47.39066 | 19.34045 | 98° | 71km/h | 6309m | 4.9m/s | -13.3°C | 23.7% | 471.1hPa | 2.6V | 00:00:00 | 00:00:00 | 00:00:00 | |
| OM5KV | 2026-09-01 11:36:51 | 47.39068 | 19.34019 | 100° | 71km/h | 6305m | 4.1m/s | -13.3°C | 23.7% | 471.4hPa | 2.6V | 00:00:00 | 00:00:00 | 00:00:00 | |
| OM5KV | 2026-09-01 11:36:47 | 47.39071 | 19.33906 | 91° | 55km/h | 6272m | 8.8m/s | -13.0°C | 22.7% | 473.3hPa | 2.6V | 00:00:00 | 00:00:00 | 00:00:00 | |
| OM5KV | 2026-09-01 11:36:41 | 47.39087 | 19.33789 | 101° | 71km/h | 6240m | 5.7m/s | -12.7°C | 23.0% | 475.3hPa | 2.6V | 00:00:00 | 00:00:00 | 00:00:00 | |
| OM5KV | 2026-09-01 11:36:39 | 47.39092 | 19.33737 | 100° | 71km/h | 6229m | 7.4m/s | -12.6°C | 22.6% | 475.9hPa | 2.6V | 00:00:00 | 00:00:00 | 00:00:00 | |
| OM5KV | 2026-09-01 11:36:35 | 47.39102 | 19.33638 | 94° | 69km/h | 6201m | 6.5m/s | -12.4°C | 22.7% | 477.6hPa | 2.6V | 00:00:00 | 00:00:00 | 00:00:00 | |
| OM5KV | 2026-09-01 11:36:29 | 47.39124 | 19.33472 | 106° | 68km/h | 6165m | 5.9m/s | -12.0°C | 22.1% | 479.9hPa | 2.6V | 00:00:00 | 00:00:00 | 00:00:00 | |
| OM5KV | 2026-09-01 11:36:28 | 47.39128 | 19.33448 | 99° | 64km/h | 6159m | 6.4m/s | -12.0°C | 22.1% | 480.3hPa | 2.6V | 00:00:00 | 00:00:00 | 00:00:00 | |
| ATIDSZ-14 | 2026-09-01 11:36:26 | 47.39129 | 19.33401 | 88° | 62km/h | 6148m | 6.7m/s | -11.9°C | 21.8% | 481.0hPa | 2.6V | 00:00:00 | 00:00:00 | 00:00:00 | |
| OM5KV | 2026-09-01 11:36:23 | 47.39126 | 19.33325 | 85° | 73km/h | 6131m | 5.5m/s | -11.7°C | 21.6% | 482.2hPa | 2.6V | 00:00:00 | 00:00:00 | 00:00:00 | |
| OM5KV | 2026-09-01 11:36:18 | 47.39114 | 19.33190 | 87° | 73km/h | 6111m | 4.2m/s | -11.8°C | 26.2% | 483.6hPa | 2.6V | 00:00:00 | 00:00:00 | 00:00:00 | |
| OM5KV | 2026-09-01 11:36:17 | 47.39113 | 19.33163 | 93° | 73km/h | 6106m | 5.4m/s | -11.9°C | 27.9% | 483.9hPa | 2.6V | 00:00:00 | 00:00:00 | 00:00:00 | |
| OM5KV | 2026-09-01 11:36:13 | 47.39128 | 19.33061 | 109° | 64km/h | 6083m | 8.2m/s | -11.9°C | 0% | 0hPa | 2.6V | 00:00:00 | 00:00:00 | 00:00:00 | |
| OM5KV | 2026-09-01 11:36:12 | 47.39132 | 19.33039 | 102° | 58km/h | 6076m | 6.9m/s | -11.9°C | 29.6% | 485.8hPa | 2.6V | 00:00:00 | 00:00:00 | 00:00:00 | |
| OM5KV | 2026-09-01 11:36:08 | 47.39132 | 19.32949 | 86° | 62km/h | 6052m | 8.5m/s | -11.7°C | 0% | 0hPa | 2.6V | 00:00:00 | 00:00:00 | 00:00:00 | |
| ATIDSZ-14 | 2026-09-01 11:36:05 | 47.39129 | 19.32875 | 89° | 73km/h | 6034m | 5.0m/s | -11.6°C | 29.4% | 488.4hPa | 2.6V | 00:00:00 | 00:00:00 | 00:00:00 | |
| OM5KV | 2026-09-01 11:36:02 | 47.39127 | 19.32792 | 88° | 71km/h | 6021m | 6.3m/s | -11.5°C | 0% | 0hPa | 2.6V | 00:00:00 | 00:00:00 | 00:00:00 | |
| OM5KV | 2026-09-01 11:36:01 | 47.39126 | 19.32767 | 88° | 64km/h | 6015m | 6.4m/s | -11.5°C | 30.0% | 489.7hPa | 2.6V | 00:00:00 | 00:00:00 | 00:00:00 | |
| OM5KV | 2026-09-01 11:35:57 | 47.39136 | 19.32682 | 110° | 64km/h | 5993m | 7.3m/s | -11.4°C | 0% | 0hPa | 2.6V | 00:00:00 | 00:00:00 | 00:00:00 | |
| OM5KV | 2026-09-01 11:35:55 | 47.39145 | 19.32633 | 104° | 71km/h | 5981m | 5.6m/s | -11.3°C | 30.4% | 491.9hPa | 2.6V | 00:00:00 | 00:00:00 | 00:00:00 | |
| OM5KV | 2026-09-01 11:35:52 | 47.39154 | 19.32531 | 96° | 66km/h | 5962m | 4.5m/s | -11.1°C | 0% | 0hPa | 2.6V | 00:00:00 | 00:00:00 | 00:00:00 | |
| OM5KV | 2026-09-01 11:35:49 | 47.39158 | 19.32480 | 101° | 73km/h | 5949m | 7.4m/s | -11.1°C | 31.2% | 493.9hPa | 2.6V | 00:00:00 | 00:00:00 | 00:00:00 | |
| ATIDSZ-14 | 2026-09-01 11:35:46 | 47.39173 | 19.32382 | 100° | 60km/h | 5923m | 5.5m/s | -11.0°C | 31.9% | 495.6hPa | 2.6V | 00:00:00 | 00:00:00 | 00:00:00 | |
| OM5KV | 2026-09-01 11:35:43 | 47.39175 | 19.32335 | 95° | 69km/h | 5912m | 6.9m/s | -10.9°C | 31.0% | 496.3hPa | 2.6V | 00:00:00 | 00:00:00 | 00:00:00 | |
| OM5KV | 2026-09-01 11:35:39 | 47.39192 | 19.32235 | 115° | 66km/h | 5886m | 5.2m/s | 0°C | 0% | 0hPa | 2.6V | 00:00:00 | 00:00:00 | 00:00:00 | |
| OM5KV | 2026-09-01 11:35:37 | 47.39204 | 19.32192 | 112° | 62km/h | 5877m | 6.9m/s | -10.6°C | 28.8% | 498.5hPa | 2.6V | 00:00:00 | 00:00:00 | 00:00:00 | |
| OM5KV | 2026-09-01 11:35:32 | 47.39222 | 19.32076 | 93° | 53km/h | 5847m | 5.5m/s | 0°C | 0% | 0hPa | 2.6V | 00:00:00 | 00:00:00 | 00:00:00 | |
| OM5KV | 2026-09-01 11:35:31 | 47.39223 | 19.32056 | 99° | 51km/h | 5842m | 3.7m/s | -10.3°C | 27.3% | 500.6hPa | 2.6V | 00:00:00 | 00:00:00 | 00:00:00 | |
| ATIDSZ-14 | 2026-09-01 11:35:24 | 47.39250 | 19.31898 | 92° | 69km/h | 5804m | 5.0m/s | -10.0°C | 25.4% | 503.3hPa | 2.6V | 00:00:00 | 00:00:00 | 00:00:00 | |
| OM5KV | 2026-09-01 11:35:19 | 47.39247 | 19.31787 | 96° | 55km/h | 5779m | 5.0m/s | -9.8°C | 24.9% | 504.8hPa | 2.6V | 00:00:00 | 00:00:00 | 00:00:00 | |
| OM5KV | 2026-09-01 11:35:14 | 47.39258 | 19.31677 | 101° | 57km/h | 5749m | 6.2m/s | -9.6°C | 24.1% | 506.8hPa | 2.6V | 00:00:00 | 00:00:00 | 00:00:00 | |
| ATIDSZ-14 | 2026-09-01 11:35:04 | 47.39286 | 19.31440 | 101° | 57km/h | 5688m | 7.1m/s | -9.1°C | 0% | 0hPa | 2.6V | 00:00:00 | 00:00:00 | 00:00:00 | |
| OM5KV | 2026-09-01 11:34:51 | 47.39330 | 19.31147 | 90° | 66km/h | 5618m | 6.4m/s | -8.6°C | 0% | 515.2hPa | 2.6V | 00:00:00 | 00:00:00 | 00:00:00 | |
| OM5KV | 2026-09-01 11:34:47 | 47.39336 | 19.31035 | 111° | 55km/h | 5589m | 4.4m/s | 0°C | 0% | 517.2hPa | 2.6V | 00:00:00 | 00:00:00 | 00:00:00 | |
| ATIDSZ-14 | 2026-09-01 11:34:44 | 47.39348 | 19.30995 | 117° | 64km/h | 5581m | 5.4m/s | -8.4°C | 0% | 0hPa | 2.6V | 00:00:00 | 00:00:00 | 00:00:00 | |
| OM5KV | 2026-09-01 11:34:41 | 47.39363 | 19.30923 | 100° | 69km/h | 5564m | 5.7m/s | 0°C | 0% | 518.8hPa | 2.6V | 00:00:00 | 00:00:00 | 00:00:00 | |
| OM5KV | 2026-09-01 11:34:36 | 47.39375 | 19.30799 | 109° | 69km/h | 5535m | 4.4m/s | 0°C | 0% | 520.8hPa | 2.6V | 00:00:00 | 00:00:00 | 00:00:00 | |
| OM5KV | 2026-09-01 11:34:30 | 47.39407 | 19.30660 | 105° | 68km/h | 5504m | 5.5m/s | 0°C | 0% | 0hPa | 2.6V | 00:00:00 | 00:00:00 | 00:00:00 | |
| OM5KV | 2026-09-01 11:34:24 | 47.39429 | 19.30527 | 97° | 66km/h | 5470m | 5.5m/s | 0°C | 0% | 0hPa | 2.6V | 00:00:00 | 00:00:00 | 00:00:00 | |
| ATIDSZ-14 | 2026-09-01 11:34:22 | 47.39435 | 19.30477 | 105° | 69km/h | 5458m | 6.6m/s | -7.6°C | 0% | 0hPa | 2.6V | 00:00:00 | 00:00:00 | 00:00:00 | |
| OM5KV | 2026-09-01 11:34:19 | 47.39449 | 19.30410 | 109° | 58km/h | 5443m | 3.9m/s | 0°C | 0% | 0hPa | 2.6V | 00:00:00 | 00:00:00 | 00:00:00 | |
| OM5KV | 2026-09-01 11:34:14 | 47.39466 | 19.30292 | 109° | 75km/h | 5418m | 7.2m/s | 0°C | 0% | 0hPa | 2.6V | 00:00:00 | 00:00:00 | 00:00:00 | |
| OM5KV | 2026-09-01 11:34:09 | 47.39501 | 19.30177 | 111° | 64km/h | 5390m | 6.3m/s | 0°C | 0% | 0hPa | 2.6V | 00:00:00 | 00:00:00 | 00:00:00 | |
| ATIDSZ-14 | 2026-09-01 11:33:59 | 47.39540 | 19.29926 | 98° | 77km/h | 5334m | 4.4m/s | -7.3°C | 0% | 0hPa | 2.6V | 00:00:00 | 00:00:00 | 00:00:00 | |
| ATIDSZ-14 | 2026-09-01 11:33:39 | 47.39599 | 19.29480 | 103° | 58km/h | 5222m | 7.4m/s | 0°C | 0% | 0hPa | 2.6V | 00:00:00 | 00:00:00 | 00:00:00 | |
| ATIDSZ-14 | 2026-09-01 11:33:15 | 47.39675 | 19.28995 | 105° | 53km/h | 5083m | 5.5m/s | 0°C | 0% | 0hPa | 2.6V | 00:00:00 | 00:00:00 | 00:00:00 | |
| ATIDSZ-14 | 2026-09-01 11:32:54 | 47.39743 | 19.28534 | 111° | 58km/h | 4969m | 6.0m/s | 0°C | 0% | 0hPa | 2.6V | 00:00:00 | 00:00:00 | 00:00:00 | |
| ATIDSZ-14 | 2026-09-01 11:32:29 | 47.39813 | 19.28015 | 98° | 51km/h | 4830m | 7.2m/s | 0°C | 0% | 0hPa | 2.6V | 00:00:00 | 00:00:00 | 00:00:00 | |
| ATIDSZ-14 | 2026-09-01 11:31:46 | 47.39884 | 19.27260 | 96° | 44km/h | 4582m | 6.4m/s | 0°C | 0% | 0hPa | 2.6V | 00:00:00 | 00:00:00 | 00:00:00 | |
| ATIDSZ-14 | 2026-09-01 11:30:37 | 47.40095 | 19.26093 | 111° | 42km/h | 4164m | 6.9m/s | 0°C | 0% | 0hPa | 2.6V | 00:00:00 | 00:00:00 | 00:00:00 | |
| ATIDSZ-14 | 2026-09-01 11:27:45 | 47.40542 | 19.22980 | 101° | 47km/h | 3150m | 4.5m/s | 0°C | 0% | 0hPa | 2.6V | 00:00:00 | 00:00:00 | 00:00:00 | |
| ATIDSZ-14 | 2026-09-01 11:27:18 | 47.40574 | 19.22340 | 93° | 64km/h | 3002m | 6.7m/s | 0°C | 0% | 0hPa | 2.6V | 00:00:00 | 00:00:00 | 00:00:00 |